<?xml version="1.0" encoding="UTF-8" standalone="no" ?>
<gpx xmlns="http://www.topografix.com/GPX/1/1" xmlns:xsi="http://www.w3.org/2001/XMLSchema-instance" xsi:schemaLocation="http://www.topografix.com/GPX/1/1 http://www.topografix.com/GPX/1/1/gpx.xsd" version="1.1" creator="VisuGPX - https://www.visugpx.com">
  <metadata>
    <name>Gr65 COMPOSTELLE - Etapes 1</name>
    <desc><![CDATA[Etape du Puy en VELAY à SAINT PRIVAT D'ALLIER.
Moins difficile qu annoncée sur plusieurs sites !]]></desc>
  </metadata>
  <trk>
    <name><![CDATA[2018-04-21 06:43:09]]></name>
    <trkseg>
      <trkpt lat="45.04105" lon="3.87323">
        <ele>719.68</ele>
        <time>2018-04-21T07:40:56Z</time>
      </trkpt>
      <trkpt lat="45.04105" lon="3.87321">
        <ele>719.68</ele>
        <time>2018-04-21T07:40:57Z</time>
      </trkpt>
      <trkpt lat="45.04095" lon="3.87306">
        <ele>716.32</ele>
        <time>2018-04-21T07:41:13Z</time>
      </trkpt>
      <trkpt lat="45.04088" lon="3.87306">
        <ele>716.8</ele>
        <time>2018-04-21T07:41:19Z</time>
      </trkpt>
      <trkpt lat="45.04083" lon="3.87308">
        <ele>716.8</ele>
        <time>2018-04-21T07:41:24Z</time>
      </trkpt>
      <trkpt lat="45.04081" lon="3.87309">
        <ele>716.8</ele>
        <time>2018-04-21T07:41:26Z</time>
      </trkpt>
      <trkpt lat="45.04079" lon="3.8731">
        <ele>717.28</ele>
        <time>2018-04-21T07:41:28Z</time>
      </trkpt>
      <trkpt lat="45.04068" lon="3.87296">
        <ele>720.16</ele>
        <time>2018-04-21T07:41:43Z</time>
      </trkpt>
      <trkpt lat="45.04052" lon="3.87281">
        <ele>725.93</ele>
        <time>2018-04-21T07:42:04Z</time>
      </trkpt>
      <trkpt lat="45.04044" lon="3.87298">
        <ele>730.74</ele>
        <time>2018-04-21T07:42:22Z</time>
      </trkpt>
      <trkpt lat="45.04043" lon="3.87301">
        <ele>734.1</ele>
        <time>2018-04-21T07:42:49Z</time>
      </trkpt>
      <trkpt lat="45.04029" lon="3.87318">
        <ele>735.55</ele>
        <time>2018-04-21T07:43:09Z</time>
      </trkpt>
      <trkpt lat="45.04018" lon="3.87328">
        <ele>733.62</ele>
        <time>2018-04-21T07:43:28Z</time>
      </trkpt>
      <trkpt lat="45.04015" lon="3.87341">
        <ele>733.62</ele>
        <time>2018-04-21T07:43:49Z</time>
      </trkpt>
      <trkpt lat="45.04011" lon="3.87338">
        <ele>733.62</ele>
        <time>2018-04-21T07:44:16Z</time>
      </trkpt>
      <trkpt lat="45.04013" lon="3.87336">
        <ele>734.1</ele>
        <time>2018-04-21T07:44:57Z</time>
      </trkpt>
      <trkpt lat="45.04011" lon="3.87331">
        <ele>735.07</ele>
        <time>2018-04-21T07:45:20Z</time>
      </trkpt>
      <trkpt lat="45.04011" lon="3.87324">
        <ele>734.58</ele>
        <time>2018-04-21T07:45:43Z</time>
      </trkpt>
      <trkpt lat="45.04006" lon="3.87305">
        <ele>735.55</ele>
        <time>2018-04-21T07:46:00Z</time>
      </trkpt>
      <trkpt lat="45.03999" lon="3.87285">
        <ele>736.03</ele>
        <time>2018-04-21T07:46:17Z</time>
      </trkpt>
      <trkpt lat="45.03989" lon="3.87269">
        <ele>735.55</ele>
        <time>2018-04-21T07:46:31Z</time>
      </trkpt>
      <trkpt lat="45.03978" lon="3.87257">
        <ele>737.47</ele>
        <time>2018-04-21T07:46:44Z</time>
      </trkpt>
      <trkpt lat="45.03965" lon="3.8725">
        <ele>738.43</ele>
        <time>2018-04-21T07:46:57Z</time>
      </trkpt>
      <trkpt lat="45.03953" lon="3.87245">
        <ele>737.95</ele>
        <time>2018-04-21T07:47:09Z</time>
      </trkpt>
      <trkpt lat="45.03939" lon="3.87237">
        <ele>742.28</ele>
        <time>2018-04-21T07:47:25Z</time>
      </trkpt>
      <trkpt lat="45.03925" lon="3.87232">
        <ele>744.68</ele>
        <time>2018-04-21T07:47:39Z</time>
      </trkpt>
      <trkpt lat="45.03912" lon="3.87229">
        <ele>747.08</ele>
        <time>2018-04-21T07:47:52Z</time>
      </trkpt>
      <trkpt lat="45.039" lon="3.87222">
        <ele>750.45</ele>
        <time>2018-04-21T07:48:05Z</time>
      </trkpt>
      <trkpt lat="45.03886" lon="3.87221">
        <ele>752.37</ele>
        <time>2018-04-21T07:48:19Z</time>
      </trkpt>
      <trkpt lat="45.03873" lon="3.87224">
        <ele>756.69</ele>
        <time>2018-04-21T07:48:32Z</time>
      </trkpt>
      <trkpt lat="45.03856" lon="3.87226">
        <ele>756.69</ele>
        <time>2018-04-21T07:48:47Z</time>
      </trkpt>
      <trkpt lat="45.03846" lon="3.8722">
        <ele>757.66</ele>
        <time>2018-04-21T07:48:58Z</time>
      </trkpt>
      <trkpt lat="45.03833" lon="3.87207">
        <ele>758.62</ele>
        <time>2018-04-21T07:49:14Z</time>
      </trkpt>
      <trkpt lat="45.03821" lon="3.87192">
        <ele>761.02</ele>
        <time>2018-04-21T07:49:29Z</time>
      </trkpt>
      <trkpt lat="45.03811" lon="3.87174">
        <ele>762.94</ele>
        <time>2018-04-21T07:49:43Z</time>
      </trkpt>
      <trkpt lat="45.038" lon="3.87157">
        <ele>763.9</ele>
        <time>2018-04-21T07:49:58Z</time>
      </trkpt>
      <trkpt lat="45.03791" lon="3.8714">
        <ele>764.87</ele>
        <time>2018-04-21T07:50:11Z</time>
      </trkpt>
      <trkpt lat="45.03781" lon="3.87122">
        <ele>765.83</ele>
        <time>2018-04-21T07:50:25Z</time>
      </trkpt>
      <trkpt lat="45.03772" lon="3.87102">
        <ele>767.27</ele>
        <time>2018-04-21T07:50:40Z</time>
      </trkpt>
      <trkpt lat="45.03764" lon="3.87085">
        <ele>768.23</ele>
        <time>2018-04-21T07:50:53Z</time>
      </trkpt>
      <trkpt lat="45.03758" lon="3.8707">
        <ele>769.67</ele>
        <time>2018-04-21T07:51:07Z</time>
      </trkpt>
      <trkpt lat="45.03751" lon="3.87054">
        <ele>771.11</ele>
        <time>2018-04-21T07:51:21Z</time>
      </trkpt>
      <trkpt lat="45.03747" lon="3.87037">
        <ele>769.67</ele>
        <time>2018-04-21T07:51:33Z</time>
      </trkpt>
      <trkpt lat="45.03737" lon="3.87024">
        <ele>769.19</ele>
        <time>2018-04-21T07:51:47Z</time>
      </trkpt>
      <trkpt lat="45.03732" lon="3.87017">
        <ele>769.67</ele>
        <time>2018-04-21T07:52:00Z</time>
      </trkpt>
      <trkpt lat="45.03723" lon="3.87004">
        <ele>770.63</ele>
        <time>2018-04-21T07:52:11Z</time>
      </trkpt>
      <trkpt lat="45.03721" lon="3.87001">
        <ele>771.11</ele>
        <time>2018-04-21T07:52:13Z</time>
      </trkpt>
      <trkpt lat="45.03719" lon="3.86995">
        <ele>772.08</ele>
        <time>2018-04-21T07:52:17Z</time>
      </trkpt>
      <trkpt lat="45.03719" lon="3.86991">
        <ele>772.56</ele>
        <time>2018-04-21T07:52:20Z</time>
      </trkpt>
      <trkpt lat="45.03708" lon="3.8698">
        <ele>773.04</ele>
        <time>2018-04-21T07:52:36Z</time>
      </trkpt>
      <trkpt lat="45.03696" lon="3.86973">
        <ele>771.6</ele>
        <time>2018-04-21T07:52:51Z</time>
      </trkpt>
      <trkpt lat="45.0369" lon="3.86967">
        <ele>770.15</ele>
        <time>2018-04-21T07:52:58Z</time>
      </trkpt>
      <trkpt lat="45.03686" lon="3.86962">
        <ele>770.15</ele>
        <time>2018-04-21T07:53:02Z</time>
      </trkpt>
      <trkpt lat="45.03667" lon="3.86943">
        <ele>771.6</ele>
        <time>2018-04-21T07:53:19Z</time>
      </trkpt>
      <trkpt lat="45.03645" lon="3.86924">
        <ele>769.67</ele>
        <time>2018-04-21T07:53:38Z</time>
      </trkpt>
      <trkpt lat="45.03626" lon="3.86923">
        <ele>766.31</ele>
        <time>2018-04-21T07:53:58Z</time>
      </trkpt>
      <trkpt lat="45.0362" lon="3.86917">
        <ele>765.35</ele>
        <time>2018-04-21T07:54:03Z</time>
      </trkpt>
      <trkpt lat="45.03611" lon="3.86905">
        <ele>764.39</ele>
        <time>2018-04-21T07:54:09Z</time>
      </trkpt>
      <trkpt lat="45.03586" lon="3.86879">
        <ele>763.42</ele>
        <time>2018-04-21T07:54:29Z</time>
      </trkpt>
      <trkpt lat="45.03559" lon="3.86855">
        <ele>763.9</ele>
        <time>2018-04-21T07:54:51Z</time>
      </trkpt>
      <trkpt lat="45.03554" lon="3.8685">
        <ele>764.39</ele>
        <time>2018-04-21T07:54:57Z</time>
      </trkpt>
      <trkpt lat="45.03532" lon="3.86833">
        <ele>765.35</ele>
        <time>2018-04-21T07:55:17Z</time>
      </trkpt>
      <trkpt lat="45.03517" lon="3.8682">
        <ele>765.35</ele>
        <time>2018-04-21T07:55:30Z</time>
      </trkpt>
      <trkpt lat="45.03502" lon="3.86805">
        <ele>765.83</ele>
        <time>2018-04-21T07:55:44Z</time>
      </trkpt>
      <trkpt lat="45.03493" lon="3.86795">
        <ele>766.31</ele>
        <time>2018-04-21T07:55:53Z</time>
      </trkpt>
      <trkpt lat="45.03486" lon="3.86791">
        <ele>766.31</ele>
        <time>2018-04-21T07:55:58Z</time>
      </trkpt>
      <trkpt lat="45.03482" lon="3.8679">
        <ele>766.79</ele>
        <time>2018-04-21T07:56:04Z</time>
      </trkpt>
      <trkpt lat="45.03468" lon="3.86776">
        <ele>766.79</ele>
        <time>2018-04-21T07:56:18Z</time>
      </trkpt>
      <trkpt lat="45.03448" lon="3.86763">
        <ele>765.35</ele>
        <time>2018-04-21T07:56:37Z</time>
      </trkpt>
      <trkpt lat="45.03426" lon="3.86752">
        <ele>762.46</ele>
        <time>2018-04-21T07:56:53Z</time>
      </trkpt>
      <trkpt lat="45.03418" lon="3.86744">
        <ele>762.94</ele>
        <time>2018-04-21T07:57:06Z</time>
      </trkpt>
      <trkpt lat="45.03409" lon="3.86738">
        <ele>761.5</ele>
        <time>2018-04-21T07:57:14Z</time>
      </trkpt>
      <trkpt lat="45.03386" lon="3.86725">
        <ele>760.06</ele>
        <time>2018-04-21T07:57:34Z</time>
      </trkpt>
      <trkpt lat="45.03363" lon="3.86714">
        <ele>760.06</ele>
        <time>2018-04-21T07:57:52Z</time>
      </trkpt>
      <trkpt lat="45.03344" lon="3.86702">
        <ele>761.02</ele>
        <time>2018-04-21T07:58:08Z</time>
      </trkpt>
      <trkpt lat="45.0333" lon="3.86696">
        <ele>760.54</ele>
        <time>2018-04-21T07:58:21Z</time>
      </trkpt>
      <trkpt lat="45.03306" lon="3.86686">
        <ele>761.5</ele>
        <time>2018-04-21T07:58:40Z</time>
      </trkpt>
      <trkpt lat="45.03285" lon="3.86675">
        <ele>761.98</ele>
        <time>2018-04-21T07:58:58Z</time>
      </trkpt>
      <trkpt lat="45.03277" lon="3.86671">
        <ele>761.98</ele>
        <time>2018-04-21T07:59:05Z</time>
      </trkpt>
      <trkpt lat="45.03256" lon="3.86664">
        <ele>761.02</ele>
        <time>2018-04-21T07:59:22Z</time>
      </trkpt>
      <trkpt lat="45.03241" lon="3.86647">
        <ele>760.54</ele>
        <time>2018-04-21T07:59:37Z</time>
      </trkpt>
      <trkpt lat="45.03236" lon="3.86638">
        <ele>760.54</ele>
        <time>2018-04-21T07:59:44Z</time>
      </trkpt>
      <trkpt lat="45.03234" lon="3.8663">
        <ele>759.58</ele>
        <time>2018-04-21T07:59:50Z</time>
      </trkpt>
      <trkpt lat="45.0322" lon="3.86606">
        <ele>758.14</ele>
        <time>2018-04-21T08:00:07Z</time>
      </trkpt>
      <trkpt lat="45.03209" lon="3.86582">
        <ele>758.62</ele>
        <time>2018-04-21T08:00:22Z</time>
      </trkpt>
      <trkpt lat="45.03197" lon="3.86563">
        <ele>757.66</ele>
        <time>2018-04-21T08:00:37Z</time>
      </trkpt>
      <trkpt lat="45.03183" lon="3.86539">
        <ele>758.62</ele>
        <time>2018-04-21T08:00:54Z</time>
      </trkpt>
      <trkpt lat="45.03167" lon="3.86517">
        <ele>761.02</ele>
        <time>2018-04-21T08:01:11Z</time>
      </trkpt>
      <trkpt lat="45.03162" lon="3.86511">
        <ele>762.46</ele>
        <time>2018-04-21T08:01:24Z</time>
      </trkpt>
      <trkpt lat="45.03154" lon="3.86499">
        <ele>763.42</ele>
        <time>2018-04-21T08:01:38Z</time>
      </trkpt>
      <trkpt lat="45.03138" lon="3.86482">
        <ele>763.9</ele>
        <time>2018-04-21T08:01:54Z</time>
      </trkpt>
      <trkpt lat="45.03127" lon="3.86469">
        <ele>765.83</ele>
        <time>2018-04-21T08:02:07Z</time>
      </trkpt>
      <trkpt lat="45.03121" lon="3.86458">
        <ele>766.79</ele>
        <time>2018-04-21T08:02:20Z</time>
      </trkpt>
      <trkpt lat="45.03118" lon="3.86454">
        <ele>767.75</ele>
        <time>2018-04-21T08:02:33Z</time>
      </trkpt>
      <trkpt lat="45.03105" lon="3.86434">
        <ele>765.83</ele>
        <time>2018-04-21T08:02:52Z</time>
      </trkpt>
      <trkpt lat="45.03091" lon="3.8641">
        <ele>764.87</ele>
        <time>2018-04-21T08:03:09Z</time>
      </trkpt>
      <trkpt lat="45.03082" lon="3.86396">
        <ele>764.87</ele>
        <time>2018-04-21T08:03:19Z</time>
      </trkpt>
      <trkpt lat="45.03066" lon="3.86376">
        <ele>764.87</ele>
        <time>2018-04-21T08:03:35Z</time>
      </trkpt>
      <trkpt lat="45.03053" lon="3.86356">
        <ele>766.79</ele>
        <time>2018-04-21T08:03:51Z</time>
      </trkpt>
      <trkpt lat="45.03037" lon="3.86342">
        <ele>767.75</ele>
        <time>2018-04-21T08:04:07Z</time>
      </trkpt>
      <trkpt lat="45.03023" lon="3.86322">
        <ele>769.19</ele>
        <time>2018-04-21T08:04:22Z</time>
      </trkpt>
      <trkpt lat="45.03008" lon="3.86288">
        <ele>771.11</ele>
        <time>2018-04-21T08:04:43Z</time>
      </trkpt>
      <trkpt lat="45.02995" lon="3.86264">
        <ele>771.6</ele>
        <time>2018-04-21T08:05:04Z</time>
      </trkpt>
      <trkpt lat="45.02987" lon="3.86243">
        <ele>771.6</ele>
        <time>2018-04-21T08:05:22Z</time>
      </trkpt>
      <trkpt lat="45.02976" lon="3.86213">
        <ele>772.08</ele>
        <time>2018-04-21T08:05:42Z</time>
      </trkpt>
      <trkpt lat="45.02967" lon="3.86182">
        <ele>772.56</ele>
        <time>2018-04-21T08:06:03Z</time>
      </trkpt>
      <trkpt lat="45.02953" lon="3.8615">
        <ele>773.04</ele>
        <time>2018-04-21T08:06:26Z</time>
      </trkpt>
      <trkpt lat="45.02939" lon="3.86121">
        <ele>773.04</ele>
        <time>2018-04-21T08:06:47Z</time>
      </trkpt>
      <trkpt lat="45.02927" lon="3.86095">
        <ele>774.96</ele>
        <time>2018-04-21T08:07:06Z</time>
      </trkpt>
      <trkpt lat="45.02915" lon="3.86063">
        <ele>776.88</ele>
        <time>2018-04-21T08:07:27Z</time>
      </trkpt>
      <trkpt lat="45.02907" lon="3.8603">
        <ele>777.84</ele>
        <time>2018-04-21T08:07:47Z</time>
      </trkpt>
      <trkpt lat="45.02897" lon="3.86001">
        <ele>778.32</ele>
        <time>2018-04-21T08:08:05Z</time>
      </trkpt>
      <trkpt lat="45.02887" lon="3.85977">
        <ele>777.36</ele>
        <time>2018-04-21T08:08:24Z</time>
      </trkpt>
      <trkpt lat="45.02876" lon="3.85949">
        <ele>777.84</ele>
        <time>2018-04-21T08:08:44Z</time>
      </trkpt>
      <trkpt lat="45.02866" lon="3.85917">
        <ele>780.73</ele>
        <time>2018-04-21T08:09:03Z</time>
      </trkpt>
      <trkpt lat="45.02861" lon="3.85894">
        <ele>784.09</ele>
        <time>2018-04-21T08:09:21Z</time>
      </trkpt>
      <trkpt lat="45.02873" lon="3.85863">
        <ele>789.86</ele>
        <time>2018-04-21T08:09:41Z</time>
      </trkpt>
      <trkpt lat="45.02874" lon="3.8586">
        <ele>790.34</ele>
        <time>2018-04-21T08:09:43Z</time>
      </trkpt>
      <trkpt lat="45.02872" lon="3.85835">
        <ele>789.86</ele>
        <time>2018-04-21T08:10:02Z</time>
      </trkpt>
      <trkpt lat="45.02865" lon="3.85824">
        <ele>788.9</ele>
        <time>2018-04-21T08:10:24Z</time>
      </trkpt>
      <trkpt lat="45.02861" lon="3.85808">
        <ele>787.94</ele>
        <time>2018-04-21T08:10:40Z</time>
      </trkpt>
      <trkpt lat="45.0285" lon="3.85782">
        <ele>788.9</ele>
        <time>2018-04-21T08:11:00Z</time>
      </trkpt>
      <trkpt lat="45.0284" lon="3.85754">
        <ele>791.3</ele>
        <time>2018-04-21T08:11:19Z</time>
      </trkpt>
      <trkpt lat="45.02827" lon="3.85724">
        <ele>795.63</ele>
        <time>2018-04-21T08:11:41Z</time>
      </trkpt>
      <trkpt lat="45.02818" lon="3.85708">
        <ele>795.63</ele>
        <time>2018-04-21T08:11:58Z</time>
      </trkpt>
      <trkpt lat="45.02805" lon="3.8569">
        <ele>798.03</ele>
        <time>2018-04-21T08:12:15Z</time>
      </trkpt>
      <trkpt lat="45.02789" lon="3.85674">
        <ele>800.92</ele>
        <time>2018-04-21T08:12:33Z</time>
      </trkpt>
      <trkpt lat="45.02774" lon="3.85652">
        <ele>803.32</ele>
        <time>2018-04-21T08:12:54Z</time>
      </trkpt>
      <trkpt lat="45.02763" lon="3.8563">
        <ele>805.72</ele>
        <time>2018-04-21T08:13:12Z</time>
      </trkpt>
      <trkpt lat="45.0275" lon="3.85598">
        <ele>808.13</ele>
        <time>2018-04-21T08:13:34Z</time>
      </trkpt>
      <trkpt lat="45.02742" lon="3.85572">
        <ele>808.13</ele>
        <time>2018-04-21T08:13:52Z</time>
      </trkpt>
      <trkpt lat="45.0273" lon="3.85542">
        <ele>811.97</ele>
        <time>2018-04-21T08:14:12Z</time>
      </trkpt>
      <trkpt lat="45.02718" lon="3.85514">
        <ele>815.34</ele>
        <time>2018-04-21T08:14:33Z</time>
      </trkpt>
      <trkpt lat="45.02706" lon="3.85485">
        <ele>816.78</ele>
        <time>2018-04-21T08:14:54Z</time>
      </trkpt>
      <trkpt lat="45.02695" lon="3.85464">
        <ele>814.85</ele>
        <time>2018-04-21T08:15:15Z</time>
      </trkpt>
      <trkpt lat="45.02687" lon="3.85438">
        <ele>815.34</ele>
        <time>2018-04-21T08:15:33Z</time>
      </trkpt>
      <trkpt lat="45.02677" lon="3.85415">
        <ele>817.74</ele>
        <time>2018-04-21T08:15:52Z</time>
      </trkpt>
      <trkpt lat="45.0267" lon="3.8539">
        <ele>821.58</ele>
        <time>2018-04-21T08:16:11Z</time>
      </trkpt>
      <trkpt lat="45.0266" lon="3.85363">
        <ele>825.43</ele>
        <time>2018-04-21T08:16:30Z</time>
      </trkpt>
      <trkpt lat="45.02651" lon="3.85336">
        <ele>826.87</ele>
        <time>2018-04-21T08:16:50Z</time>
      </trkpt>
      <trkpt lat="45.02644" lon="3.85303">
        <ele>827.35</ele>
        <time>2018-04-21T08:17:11Z</time>
      </trkpt>
      <trkpt lat="45.02639" lon="3.85296">
        <ele>829.27</ele>
        <time>2018-04-21T08:17:18Z</time>
      </trkpt>
      <trkpt lat="45.02628" lon="3.85271">
        <ele>839.85</ele>
        <time>2018-04-21T08:17:36Z</time>
      </trkpt>
      <trkpt lat="45.02627" lon="3.85268">
        <ele>839.85</ele>
        <time>2018-04-21T08:17:38Z</time>
      </trkpt>
      <trkpt lat="45.02623" lon="3.85255">
        <ele>839.37</ele>
        <time>2018-04-21T08:17:47Z</time>
      </trkpt>
      <trkpt lat="45.02617" lon="3.85237">
        <ele>841.77</ele>
        <time>2018-04-21T08:18:01Z</time>
      </trkpt>
      <trkpt lat="45.02613" lon="3.85228">
        <ele>842.73</ele>
        <time>2018-04-21T08:18:07Z</time>
      </trkpt>
      <trkpt lat="45.02606" lon="3.85201">
        <ele>848.5</ele>
        <time>2018-04-21T08:18:24Z</time>
      </trkpt>
      <trkpt lat="45.02597" lon="3.85173">
        <ele>852.83</ele>
        <time>2018-04-21T08:18:43Z</time>
      </trkpt>
      <trkpt lat="45.02586" lon="3.85145">
        <ele>854.27</ele>
        <time>2018-04-21T08:19:04Z</time>
      </trkpt>
      <trkpt lat="45.02574" lon="3.85113">
        <ele>852.35</ele>
        <time>2018-04-21T08:19:25Z</time>
      </trkpt>
      <trkpt lat="45.02565" lon="3.85085">
        <ele>850.42</ele>
        <time>2018-04-21T08:19:45Z</time>
      </trkpt>
      <trkpt lat="45.02555" lon="3.85061">
        <ele>848.5</ele>
        <time>2018-04-21T08:20:05Z</time>
      </trkpt>
      <trkpt lat="45.02545" lon="3.85035">
        <ele>846.1</ele>
        <time>2018-04-21T08:20:23Z</time>
      </trkpt>
      <trkpt lat="45.02537" lon="3.8501">
        <ele>845.14</ele>
        <time>2018-04-21T08:20:44Z</time>
      </trkpt>
      <trkpt lat="45.02525" lon="3.84981">
        <ele>844.18</ele>
        <time>2018-04-21T08:21:09Z</time>
      </trkpt>
      <trkpt lat="45.02522" lon="3.84979">
        <ele>842.73</ele>
        <time>2018-04-21T08:21:26Z</time>
      </trkpt>
      <trkpt lat="45.02512" lon="3.84948">
        <ele>840.33</ele>
        <time>2018-04-21T08:21:46Z</time>
      </trkpt>
      <trkpt lat="45.02501" lon="3.84922">
        <ele>840.81</ele>
        <time>2018-04-21T08:22:04Z</time>
      </trkpt>
      <trkpt lat="45.02489" lon="3.84893">
        <ele>841.77</ele>
        <time>2018-04-21T08:22:24Z</time>
      </trkpt>
      <trkpt lat="45.02478" lon="3.84863">
        <ele>840.33</ele>
        <time>2018-04-21T08:22:45Z</time>
      </trkpt>
      <trkpt lat="45.02463" lon="3.8483">
        <ele>841.77</ele>
        <time>2018-04-21T08:23:05Z</time>
      </trkpt>
      <trkpt lat="45.02452" lon="3.84807">
        <ele>842.73</ele>
        <time>2018-04-21T08:23:22Z</time>
      </trkpt>
      <trkpt lat="45.02442" lon="3.84783">
        <ele>843.69</ele>
        <time>2018-04-21T08:23:38Z</time>
      </trkpt>
      <trkpt lat="45.02431" lon="3.84756">
        <ele>845.62</ele>
        <time>2018-04-21T08:23:52Z</time>
      </trkpt>
      <trkpt lat="45.02423" lon="3.84734">
        <ele>846.1</ele>
        <time>2018-04-21T08:24:08Z</time>
      </trkpt>
      <trkpt lat="45.02414" lon="3.84715">
        <ele>846.1</ele>
        <time>2018-04-21T08:24:25Z</time>
      </trkpt>
      <trkpt lat="45.02404" lon="3.8469">
        <ele>846.58</ele>
        <time>2018-04-21T08:24:41Z</time>
      </trkpt>
      <trkpt lat="45.02393" lon="3.84667">
        <ele>845.14</ele>
        <time>2018-04-21T08:24:57Z</time>
      </trkpt>
      <trkpt lat="45.02384" lon="3.84641">
        <ele>842.73</ele>
        <time>2018-04-21T08:25:14Z</time>
      </trkpt>
      <trkpt lat="45.02373" lon="3.84617">
        <ele>842.73</ele>
        <time>2018-04-21T08:25:31Z</time>
      </trkpt>
      <trkpt lat="45.02372" lon="3.84615">
        <ele>842.73</ele>
        <time>2018-04-21T08:25:32Z</time>
      </trkpt>
      <trkpt lat="45.0236" lon="3.84588">
        <ele>842.25</ele>
        <time>2018-04-21T08:25:50Z</time>
      </trkpt>
      <trkpt lat="45.02349" lon="3.84563">
        <ele>843.21</ele>
        <time>2018-04-21T08:26:07Z</time>
      </trkpt>
      <trkpt lat="45.02344" lon="3.84548">
        <ele>847.06</ele>
        <time>2018-04-21T08:26:22Z</time>
      </trkpt>
      <trkpt lat="45.02339" lon="3.84532">
        <ele>848.02</ele>
        <time>2018-04-21T08:26:38Z</time>
      </trkpt>
      <trkpt lat="45.02339" lon="3.84528">
        <ele>848.5</ele>
        <time>2018-04-21T08:26:47Z</time>
      </trkpt>
      <trkpt lat="45.02326" lon="3.84505">
        <ele>848.98</ele>
        <time>2018-04-21T08:27:03Z</time>
      </trkpt>
      <trkpt lat="45.02313" lon="3.84478">
        <ele>849.46</ele>
        <time>2018-04-21T08:27:21Z</time>
      </trkpt>
      <trkpt lat="45.02311" lon="3.84474">
        <ele>849.94</ele>
        <time>2018-04-21T08:27:24Z</time>
      </trkpt>
      <trkpt lat="45.0231" lon="3.84472">
        <ele>849.94</ele>
        <time>2018-04-21T08:27:25Z</time>
      </trkpt>
      <trkpt lat="45.02301" lon="3.84449">
        <ele>850.9</ele>
        <time>2018-04-21T08:27:42Z</time>
      </trkpt>
      <trkpt lat="45.02291" lon="3.84426">
        <ele>852.83</ele>
        <time>2018-04-21T08:27:58Z</time>
      </trkpt>
      <trkpt lat="45.02279" lon="3.84403">
        <ele>853.31</ele>
        <time>2018-04-21T08:28:15Z</time>
      </trkpt>
      <trkpt lat="45.02273" lon="3.8439">
        <ele>854.75</ele>
        <time>2018-04-21T08:28:24Z</time>
      </trkpt>
      <trkpt lat="45.0227" lon="3.84371">
        <ele>855.71</ele>
        <time>2018-04-21T08:28:37Z</time>
      </trkpt>
      <trkpt lat="45.0227" lon="3.84354">
        <ele>857.15</ele>
        <time>2018-04-21T08:28:51Z</time>
      </trkpt>
      <trkpt lat="45.02271" lon="3.84343">
        <ele>859.08</ele>
        <time>2018-04-21T08:29:06Z</time>
      </trkpt>
      <trkpt lat="45.0227" lon="3.84336">
        <ele>859.56</ele>
        <time>2018-04-21T08:29:10Z</time>
      </trkpt>
      <trkpt lat="45.02268" lon="3.84313">
        <ele>860.04</ele>
        <time>2018-04-21T08:29:24Z</time>
      </trkpt>
      <trkpt lat="45.02261" lon="3.84287">
        <ele>859.56</ele>
        <time>2018-04-21T08:29:41Z</time>
      </trkpt>
      <trkpt lat="45.02255" lon="3.84256">
        <ele>858.59</ele>
        <time>2018-04-21T08:29:58Z</time>
      </trkpt>
      <trkpt lat="45.02247" lon="3.84228">
        <ele>857.63</ele>
        <time>2018-04-21T08:30:15Z</time>
      </trkpt>
      <trkpt lat="45.0224" lon="3.84204">
        <ele>858.59</ele>
        <time>2018-04-21T08:30:30Z</time>
      </trkpt>
      <trkpt lat="45.02233" lon="3.84177">
        <ele>857.15</ele>
        <time>2018-04-21T08:30:47Z</time>
      </trkpt>
      <trkpt lat="45.02228" lon="3.84153">
        <ele>856.19</ele>
        <time>2018-04-21T08:31:01Z</time>
      </trkpt>
      <trkpt lat="45.02224" lon="3.84138">
        <ele>856.67</ele>
        <time>2018-04-21T08:31:14Z</time>
      </trkpt>
      <trkpt lat="45.02223" lon="3.84132">
        <ele>856.67</ele>
        <time>2018-04-21T08:31:18Z</time>
      </trkpt>
      <trkpt lat="45.02219" lon="3.84118">
        <ele>858.11</ele>
        <time>2018-04-21T08:31:33Z</time>
      </trkpt>
      <trkpt lat="45.02211" lon="3.84091">
        <ele>860.04</ele>
        <time>2018-04-21T08:31:50Z</time>
      </trkpt>
      <trkpt lat="45.02205" lon="3.84067">
        <ele>861</ele>
        <time>2018-04-21T08:32:05Z</time>
      </trkpt>
      <trkpt lat="45.02204" lon="3.84066">
        <ele>861</ele>
        <time>2018-04-21T08:32:06Z</time>
      </trkpt>
      <trkpt lat="45.02203" lon="3.84064">
        <ele>861.48</ele>
        <time>2018-04-21T08:32:07Z</time>
      </trkpt>
      <trkpt lat="45.02202" lon="3.84063">
        <ele>861</ele>
        <time>2018-04-21T08:32:08Z</time>
      </trkpt>
      <trkpt lat="45.02201" lon="3.84062">
        <ele>861.48</ele>
        <time>2018-04-21T08:32:09Z</time>
      </trkpt>
      <trkpt lat="45.02201" lon="3.84061">
        <ele>861.48</ele>
        <time>2018-04-21T08:32:10Z</time>
      </trkpt>
      <trkpt lat="45.02192" lon="3.84039">
        <ele>860.04</ele>
        <time>2018-04-21T08:32:25Z</time>
      </trkpt>
      <trkpt lat="45.02187" lon="3.84022">
        <ele>858.11</ele>
        <time>2018-04-21T08:32:39Z</time>
      </trkpt>
      <trkpt lat="45.02181" lon="3.83999">
        <ele>858.59</ele>
        <time>2018-04-21T08:32:53Z</time>
      </trkpt>
      <trkpt lat="45.02174" lon="3.83975">
        <ele>859.56</ele>
        <time>2018-04-21T08:33:08Z</time>
      </trkpt>
      <trkpt lat="45.02171" lon="3.83953">
        <ele>861</ele>
        <time>2018-04-21T08:33:24Z</time>
      </trkpt>
      <trkpt lat="45.02165" lon="3.83939">
        <ele>863.4</ele>
        <time>2018-04-21T08:33:39Z</time>
      </trkpt>
      <trkpt lat="45.02164" lon="3.83932">
        <ele>863.88</ele>
        <time>2018-04-21T08:33:54Z</time>
      </trkpt>
      <trkpt lat="45.02162" lon="3.83906">
        <ele>862.92</ele>
        <time>2018-04-21T08:34:11Z</time>
      </trkpt>
      <trkpt lat="45.0216" lon="3.8388">
        <ele>861.48</ele>
        <time>2018-04-21T08:34:27Z</time>
      </trkpt>
      <trkpt lat="45.02155" lon="3.83852">
        <ele>862.44</ele>
        <time>2018-04-21T08:34:43Z</time>
      </trkpt>
      <trkpt lat="45.02149" lon="3.83821">
        <ele>861.96</ele>
        <time>2018-04-21T08:35:01Z</time>
      </trkpt>
      <trkpt lat="45.02145" lon="3.83792">
        <ele>862.44</ele>
        <time>2018-04-21T08:35:18Z</time>
      </trkpt>
      <trkpt lat="45.0214" lon="3.83766">
        <ele>861.96</ele>
        <time>2018-04-21T08:35:33Z</time>
      </trkpt>
      <trkpt lat="45.02135" lon="3.83741">
        <ele>863.4</ele>
        <time>2018-04-21T08:35:49Z</time>
      </trkpt>
      <trkpt lat="45.02128" lon="3.83716">
        <ele>864.84</ele>
        <time>2018-04-21T08:36:06Z</time>
      </trkpt>
      <trkpt lat="45.02119" lon="3.83688">
        <ele>864.36</ele>
        <time>2018-04-21T08:36:24Z</time>
      </trkpt>
      <trkpt lat="45.02112" lon="3.83656">
        <ele>864.84</ele>
        <time>2018-04-21T08:36:42Z</time>
      </trkpt>
      <trkpt lat="45.02104" lon="3.83635">
        <ele>864.84</ele>
        <time>2018-04-21T08:36:58Z</time>
      </trkpt>
      <trkpt lat="45.02096" lon="3.83627">
        <ele>864.84</ele>
        <time>2018-04-21T08:37:06Z</time>
      </trkpt>
      <trkpt lat="45.02085" lon="3.83613">
        <ele>864.84</ele>
        <time>2018-04-21T08:37:22Z</time>
      </trkpt>
      <trkpt lat="45.02071" lon="3.83593">
        <ele>864.36</ele>
        <time>2018-04-21T08:37:38Z</time>
      </trkpt>
      <trkpt lat="45.02058" lon="3.83574">
        <ele>863.4</ele>
        <time>2018-04-21T08:37:54Z</time>
      </trkpt>
      <trkpt lat="45.02057" lon="3.83571">
        <ele>862.92</ele>
        <time>2018-04-21T08:37:56Z</time>
      </trkpt>
      <trkpt lat="45.02056" lon="3.8357">
        <ele>862.92</ele>
        <time>2018-04-21T08:37:57Z</time>
      </trkpt>
      <trkpt lat="45.02044" lon="3.83548">
        <ele>862.92</ele>
        <time>2018-04-21T08:38:12Z</time>
      </trkpt>
      <trkpt lat="45.02034" lon="3.83528">
        <ele>862.92</ele>
        <time>2018-04-21T08:38:27Z</time>
      </trkpt>
      <trkpt lat="45.02026" lon="3.83497">
        <ele>863.4</ele>
        <time>2018-04-21T08:38:47Z</time>
      </trkpt>
      <trkpt lat="45.02019" lon="3.83469">
        <ele>865.8</ele>
        <time>2018-04-21T08:39:03Z</time>
      </trkpt>
      <trkpt lat="45.02011" lon="3.83442">
        <ele>866.77</ele>
        <time>2018-04-21T08:39:20Z</time>
      </trkpt>
      <trkpt lat="45.02002" lon="3.83416">
        <ele>868.21</ele>
        <time>2018-04-21T08:39:36Z</time>
      </trkpt>
      <trkpt lat="45.01996" lon="3.834">
        <ele>868.69</ele>
        <time>2018-04-21T08:39:46Z</time>
      </trkpt>
      <trkpt lat="45.01987" lon="3.83398">
        <ele>869.17</ele>
        <time>2018-04-21T08:39:53Z</time>
      </trkpt>
      <trkpt lat="45.01986" lon="3.83399">
        <ele>869.17</ele>
        <time>2018-04-21T08:39:54Z</time>
      </trkpt>
      <trkpt lat="45.01968" lon="3.83418">
        <ele>868.69</ele>
        <time>2018-04-21T08:40:12Z</time>
      </trkpt>
      <trkpt lat="45.01948" lon="3.83435">
        <ele>867.73</ele>
        <time>2018-04-21T08:40:32Z</time>
      </trkpt>
      <trkpt lat="45.01929" lon="3.83448">
        <ele>872.05</ele>
        <time>2018-04-21T08:40:48Z</time>
      </trkpt>
      <trkpt lat="45.01911" lon="3.83458">
        <ele>872.53</ele>
        <time>2018-04-21T08:41:04Z</time>
      </trkpt>
      <trkpt lat="45.01894" lon="3.83467">
        <ele>872.53</ele>
        <time>2018-04-21T08:41:19Z</time>
      </trkpt>
      <trkpt lat="45.01872" lon="3.8348">
        <ele>873.01</ele>
        <time>2018-04-21T08:41:39Z</time>
      </trkpt>
      <trkpt lat="45.01857" lon="3.83498">
        <ele>873.98</ele>
        <time>2018-04-21T08:41:56Z</time>
      </trkpt>
      <trkpt lat="45.01844" lon="3.83519">
        <ele>873.98</ele>
        <time>2018-04-21T08:42:12Z</time>
      </trkpt>
      <trkpt lat="45.01819" lon="3.83533">
        <ele>874.94</ele>
        <time>2018-04-21T08:42:34Z</time>
      </trkpt>
      <trkpt lat="45.01802" lon="3.83543">
        <ele>875.42</ele>
        <time>2018-04-21T08:42:50Z</time>
      </trkpt>
      <trkpt lat="45.01784" lon="3.83566">
        <ele>874.46</ele>
        <time>2018-04-21T08:43:08Z</time>
      </trkpt>
      <trkpt lat="45.01784" lon="3.83568">
        <ele>874.46</ele>
        <time>2018-04-21T08:43:09Z</time>
      </trkpt>
      <trkpt lat="45.01779" lon="3.83573">
        <ele>873.5</ele>
        <time>2018-04-21T08:43:14Z</time>
      </trkpt>
      <trkpt lat="45.01763" lon="3.83587">
        <ele>873.5</ele>
        <time>2018-04-21T08:43:30Z</time>
      </trkpt>
      <trkpt lat="45.01746" lon="3.83601">
        <ele>873.01</ele>
        <time>2018-04-21T08:43:47Z</time>
      </trkpt>
      <trkpt lat="45.01743" lon="3.83605">
        <ele>873.5</ele>
        <time>2018-04-21T08:43:50Z</time>
      </trkpt>
      <trkpt lat="45.01742" lon="3.83606">
        <ele>873.5</ele>
        <time>2018-04-21T08:43:51Z</time>
      </trkpt>
      <trkpt lat="45.01724" lon="3.83623">
        <ele>872.53</ele>
        <time>2018-04-21T08:44:09Z</time>
      </trkpt>
      <trkpt lat="45.01713" lon="3.8364">
        <ele>872.05</ele>
        <time>2018-04-21T08:44:24Z</time>
      </trkpt>
      <trkpt lat="45.01708" lon="3.8365">
        <ele>872.53</ele>
        <time>2018-04-21T08:44:37Z</time>
      </trkpt>
      <trkpt lat="45.01699" lon="3.83666">
        <ele>873.5</ele>
        <time>2018-04-21T08:44:55Z</time>
      </trkpt>
      <trkpt lat="45.01688" lon="3.83683">
        <ele>873.5</ele>
        <time>2018-04-21T08:45:11Z</time>
      </trkpt>
      <trkpt lat="45.01685" lon="3.83682">
        <ele>874.94</ele>
        <time>2018-04-21T08:45:27Z</time>
      </trkpt>
      <trkpt lat="45.0168" lon="3.83689">
        <ele>874.94</ele>
        <time>2018-04-21T08:45:52Z</time>
      </trkpt>
      <trkpt lat="45.01664" lon="3.83705">
        <ele>873.5</ele>
        <time>2018-04-21T08:46:12Z</time>
      </trkpt>
      <trkpt lat="45.01644" lon="3.8373">
        <ele>872.05</ele>
        <time>2018-04-21T08:46:33Z</time>
      </trkpt>
      <trkpt lat="45.01638" lon="3.83735">
        <ele>871.57</ele>
        <time>2018-04-21T08:46:39Z</time>
      </trkpt>
      <trkpt lat="45.01631" lon="3.83728">
        <ele>869.17</ele>
        <time>2018-04-21T08:46:56Z</time>
      </trkpt>
      <trkpt lat="45.01631" lon="3.837">
        <ele>864.84</ele>
        <time>2018-04-21T08:47:14Z</time>
      </trkpt>
      <trkpt lat="45.01631" lon="3.83696">
        <ele>864.36</ele>
        <time>2018-04-21T08:47:16Z</time>
      </trkpt>
      <trkpt lat="45.01628" lon="3.8366">
        <ele>863.4</ele>
        <time>2018-04-21T08:47:37Z</time>
      </trkpt>
      <trkpt lat="45.01622" lon="3.83627">
        <ele>864.36</ele>
        <time>2018-04-21T08:47:58Z</time>
      </trkpt>
      <trkpt lat="45.01617" lon="3.83605">
        <ele>865.8</ele>
        <time>2018-04-21T08:48:11Z</time>
      </trkpt>
      <trkpt lat="45.01616" lon="3.83603">
        <ele>865.8</ele>
        <time>2018-04-21T08:48:12Z</time>
      </trkpt>
      <trkpt lat="45.01615" lon="3.83601">
        <ele>865.8</ele>
        <time>2018-04-21T08:48:13Z</time>
      </trkpt>
      <trkpt lat="45.01607" lon="3.83577">
        <ele>863.4</ele>
        <time>2018-04-21T08:48:31Z</time>
      </trkpt>
      <trkpt lat="45.01596" lon="3.8356">
        <ele>861</ele>
        <time>2018-04-21T08:49:14Z</time>
      </trkpt>
      <trkpt lat="45.0158" lon="3.83551">
        <ele>863.88</ele>
        <time>2018-04-21T08:49:27Z</time>
      </trkpt>
      <trkpt lat="45.01579" lon="3.8355">
        <ele>863.88</ele>
        <time>2018-04-21T08:49:28Z</time>
      </trkpt>
      <trkpt lat="45.01578" lon="3.83549">
        <ele>863.88</ele>
        <time>2018-04-21T08:49:29Z</time>
      </trkpt>
      <trkpt lat="45.01555" lon="3.83531">
        <ele>861.96</ele>
        <time>2018-04-21T08:49:52Z</time>
      </trkpt>
      <trkpt lat="45.01538" lon="3.83511">
        <ele>856.19</ele>
        <time>2018-04-21T08:50:14Z</time>
      </trkpt>
      <trkpt lat="45.0152" lon="3.83482">
        <ele>857.63</ele>
        <time>2018-04-21T08:50:38Z</time>
      </trkpt>
      <trkpt lat="45.01525" lon="3.83457">
        <ele>860.52</ele>
        <time>2018-04-21T08:50:56Z</time>
      </trkpt>
      <trkpt lat="45.01529" lon="3.83449">
        <ele>865.32</ele>
        <time>2018-04-21T08:51:12Z</time>
      </trkpt>
      <trkpt lat="45.01535" lon="3.83431">
        <ele>868.21</ele>
        <time>2018-04-21T08:51:25Z</time>
      </trkpt>
      <trkpt lat="45.01544" lon="3.83409">
        <ele>872.53</ele>
        <time>2018-04-21T08:51:44Z</time>
      </trkpt>
      <trkpt lat="45.01552" lon="3.83382">
        <ele>875.9</ele>
        <time>2018-04-21T08:52:03Z</time>
      </trkpt>
      <trkpt lat="45.01556" lon="3.83358">
        <ele>875.42</ele>
        <time>2018-04-21T08:52:19Z</time>
      </trkpt>
      <trkpt lat="45.01556" lon="3.83356">
        <ele>874.94</ele>
        <time>2018-04-21T08:52:20Z</time>
      </trkpt>
      <trkpt lat="45.01557" lon="3.83344">
        <ele>873.98</ele>
        <time>2018-04-21T08:52:34Z</time>
      </trkpt>
      <trkpt lat="45.01562" lon="3.83348">
        <ele>873.01</ele>
        <time>2018-04-21T08:53:02Z</time>
      </trkpt>
      <trkpt lat="45.01562" lon="3.83347">
        <ele>875.42</ele>
        <time>2018-04-21T08:53:27Z</time>
      </trkpt>
      <trkpt lat="45.0155" lon="3.83346">
        <ele>880.71</ele>
        <time>2018-04-21T08:53:46Z</time>
      </trkpt>
      <trkpt lat="45.01549" lon="3.83331">
        <ele>882.63</ele>
        <time>2018-04-21T08:54:09Z</time>
      </trkpt>
      <trkpt lat="45.01538" lon="3.83314">
        <ele>883.59</ele>
        <time>2018-04-21T08:54:19Z</time>
      </trkpt>
      <trkpt lat="45.01529" lon="3.83288">
        <ele>880.22</ele>
        <time>2018-04-21T08:54:37Z</time>
      </trkpt>
      <trkpt lat="45.01521" lon="3.83264">
        <ele>875.42</ele>
        <time>2018-04-21T08:54:53Z</time>
      </trkpt>
      <trkpt lat="45.01507" lon="3.83239">
        <ele>873.98</ele>
        <time>2018-04-21T08:55:11Z</time>
      </trkpt>
      <trkpt lat="45.01492" lon="3.83216">
        <ele>874.46</ele>
        <time>2018-04-21T08:55:28Z</time>
      </trkpt>
      <trkpt lat="45.01476" lon="3.83196">
        <ele>872.53</ele>
        <time>2018-04-21T08:55:48Z</time>
      </trkpt>
      <trkpt lat="45.01455" lon="3.83179">
        <ele>871.57</ele>
        <time>2018-04-21T08:56:08Z</time>
      </trkpt>
      <trkpt lat="45.01434" lon="3.83169">
        <ele>871.57</ele>
        <time>2018-04-21T08:56:26Z</time>
      </trkpt>
      <trkpt lat="45.01406" lon="3.83165">
        <ele>871.57</ele>
        <time>2018-04-21T08:56:47Z</time>
      </trkpt>
      <trkpt lat="45.01383" lon="3.8316">
        <ele>871.57</ele>
        <time>2018-04-21T08:57:10Z</time>
      </trkpt>
      <trkpt lat="45.01363" lon="3.83151">
        <ele>871.57</ele>
        <time>2018-04-21T08:57:30Z</time>
      </trkpt>
      <trkpt lat="45.01354" lon="3.83131">
        <ele>871.57</ele>
        <time>2018-04-21T08:57:49Z</time>
      </trkpt>
      <trkpt lat="45.01347" lon="3.83115">
        <ele>871.57</ele>
        <time>2018-04-21T08:58:05Z</time>
      </trkpt>
      <trkpt lat="45.01339" lon="3.83089">
        <ele>872.05</ele>
        <time>2018-04-21T08:58:22Z</time>
      </trkpt>
      <trkpt lat="45.01328" lon="3.83057">
        <ele>873.98</ele>
        <time>2018-04-21T08:58:46Z</time>
      </trkpt>
      <trkpt lat="45.01329" lon="3.83049">
        <ele>873.98</ele>
        <time>2018-04-21T08:58:52Z</time>
      </trkpt>
      <trkpt lat="45.01326" lon="3.83025">
        <ele>875.42</ele>
        <time>2018-04-21T08:59:04Z</time>
      </trkpt>
      <trkpt lat="45.01328" lon="3.83017">
        <ele>876.38</ele>
        <time>2018-04-21T08:59:09Z</time>
      </trkpt>
      <trkpt lat="45.01328" lon="3.82989">
        <ele>879.26</ele>
        <time>2018-04-21T08:59:28Z</time>
      </trkpt>
      <trkpt lat="45.01327" lon="3.82973">
        <ele>878.3</ele>
        <time>2018-04-21T08:59:44Z</time>
      </trkpt>
      <trkpt lat="45.01326" lon="3.82953">
        <ele>880.22</ele>
        <time>2018-04-21T09:00:02Z</time>
      </trkpt>
      <trkpt lat="45.01325" lon="3.82935">
        <ele>882.63</ele>
        <time>2018-04-21T09:00:12Z</time>
      </trkpt>
      <trkpt lat="45.01331" lon="3.82908">
        <ele>885.03</ele>
        <time>2018-04-21T09:00:33Z</time>
      </trkpt>
      <trkpt lat="45.01329" lon="3.82883">
        <ele>885.03</ele>
        <time>2018-04-21T09:00:50Z</time>
      </trkpt>
      <trkpt lat="45.01323" lon="3.82856">
        <ele>884.07</ele>
        <time>2018-04-21T09:01:07Z</time>
      </trkpt>
      <trkpt lat="45.01314" lon="3.82832">
        <ele>884.07</ele>
        <time>2018-04-21T09:01:27Z</time>
      </trkpt>
      <trkpt lat="45.01308" lon="3.82813">
        <ele>883.11</ele>
        <time>2018-04-21T09:01:39Z</time>
      </trkpt>
      <trkpt lat="45.01304" lon="3.82805">
        <ele>883.59</ele>
        <time>2018-04-21T09:01:45Z</time>
      </trkpt>
      <trkpt lat="45.01296" lon="3.82781">
        <ele>882.63</ele>
        <time>2018-04-21T09:02:03Z</time>
      </trkpt>
      <trkpt lat="45.01293" lon="3.82768">
        <ele>883.59</ele>
        <time>2018-04-21T09:02:21Z</time>
      </trkpt>
      <trkpt lat="45.01287" lon="3.82763">
        <ele>884.55</ele>
        <time>2018-04-21T09:02:28Z</time>
      </trkpt>
      <trkpt lat="45.01269" lon="3.82747">
        <ele>882.63</ele>
        <time>2018-04-21T09:02:46Z</time>
      </trkpt>
      <trkpt lat="45.01249" lon="3.82728">
        <ele>882.63</ele>
        <time>2018-04-21T09:03:08Z</time>
      </trkpt>
      <trkpt lat="45.01241" lon="3.82704">
        <ele>881.19</ele>
        <time>2018-04-21T09:03:28Z</time>
      </trkpt>
      <trkpt lat="45.01232" lon="3.82678">
        <ele>881.67</ele>
        <time>2018-04-21T09:03:45Z</time>
      </trkpt>
      <trkpt lat="45.01223" lon="3.8265">
        <ele>884.55</ele>
        <time>2018-04-21T09:04:05Z</time>
      </trkpt>
      <trkpt lat="45.0122" lon="3.82641">
        <ele>884.55</ele>
        <time>2018-04-21T09:04:23Z</time>
      </trkpt>
      <trkpt lat="45.01222" lon="3.82643">
        <ele>883.11</ele>
        <time>2018-04-21T09:04:39Z</time>
      </trkpt>
      <trkpt lat="45.01222" lon="3.82644">
        <ele>885.03</ele>
        <time>2018-04-21T09:04:58Z</time>
      </trkpt>
      <trkpt lat="45.01222" lon="3.82642">
        <ele>884.07</ele>
        <time>2018-04-21T09:05:11Z</time>
      </trkpt>
      <trkpt lat="45.01221" lon="3.82633">
        <ele>877.34</ele>
        <time>2018-04-21T09:05:21Z</time>
      </trkpt>
      <trkpt lat="45.01212" lon="3.82614">
        <ele>868.69</ele>
        <time>2018-04-21T09:05:37Z</time>
      </trkpt>
      <trkpt lat="45.01198" lon="3.82596">
        <ele>865.8</ele>
        <time>2018-04-21T09:05:55Z</time>
      </trkpt>
      <trkpt lat="45.01176" lon="3.82583">
        <ele>869.17</ele>
        <time>2018-04-21T09:06:16Z</time>
      </trkpt>
      <trkpt lat="45.01147" lon="3.82573">
        <ele>872.53</ele>
        <time>2018-04-21T09:06:38Z</time>
      </trkpt>
      <trkpt lat="45.01118" lon="3.82566">
        <ele>876.38</ele>
        <time>2018-04-21T09:07:01Z</time>
      </trkpt>
      <trkpt lat="45.01096" lon="3.8256">
        <ele>880.22</ele>
        <time>2018-04-21T09:07:19Z</time>
      </trkpt>
      <trkpt lat="45.01078" lon="3.82556">
        <ele>878.78</ele>
        <time>2018-04-21T09:07:38Z</time>
      </trkpt>
      <trkpt lat="45.01049" lon="3.82549">
        <ele>878.78</ele>
        <time>2018-04-21T09:07:58Z</time>
      </trkpt>
      <trkpt lat="45.01025" lon="3.82551">
        <ele>880.71</ele>
        <time>2018-04-21T09:08:18Z</time>
      </trkpt>
      <trkpt lat="45.01" lon="3.82556">
        <ele>880.22</ele>
        <time>2018-04-21T09:08:38Z</time>
      </trkpt>
      <trkpt lat="45.00978" lon="3.82545">
        <ele>878.3</ele>
        <time>2018-04-21T09:08:58Z</time>
      </trkpt>
      <trkpt lat="45.00948" lon="3.82533">
        <ele>878.3</ele>
        <time>2018-04-21T09:09:24Z</time>
      </trkpt>
      <trkpt lat="45.00926" lon="3.82526">
        <ele>878.3</ele>
        <time>2018-04-21T09:09:43Z</time>
      </trkpt>
      <trkpt lat="45.00903" lon="3.82514">
        <ele>880.71</ele>
        <time>2018-04-21T09:10:07Z</time>
      </trkpt>
      <trkpt lat="45.00885" lon="3.82499">
        <ele>882.63</ele>
        <time>2018-04-21T09:10:29Z</time>
      </trkpt>
      <trkpt lat="45.00866" lon="3.82488">
        <ele>883.59</ele>
        <time>2018-04-21T09:10:52Z</time>
      </trkpt>
      <trkpt lat="45.00844" lon="3.82473">
        <ele>884.55</ele>
        <time>2018-04-21T09:11:11Z</time>
      </trkpt>
      <trkpt lat="45.0081" lon="3.82466">
        <ele>885.03</ele>
        <time>2018-04-21T09:11:34Z</time>
      </trkpt>
      <trkpt lat="45.00789" lon="3.82467">
        <ele>884.55</ele>
        <time>2018-04-21T09:11:56Z</time>
      </trkpt>
      <trkpt lat="45.00757" lon="3.82457">
        <ele>885.03</ele>
        <time>2018-04-21T09:12:19Z</time>
      </trkpt>
      <trkpt lat="45.0074" lon="3.82441">
        <ele>886.95</ele>
        <time>2018-04-21T09:12:41Z</time>
      </trkpt>
      <trkpt lat="45.00723" lon="3.82413">
        <ele>888.88</ele>
        <time>2018-04-21T09:13:06Z</time>
      </trkpt>
      <trkpt lat="45.00703" lon="3.82402">
        <ele>891.28</ele>
        <time>2018-04-21T09:13:29Z</time>
      </trkpt>
      <trkpt lat="45.00669" lon="3.82387">
        <ele>891.28</ele>
        <time>2018-04-21T09:13:52Z</time>
      </trkpt>
      <trkpt lat="45.00649" lon="3.82372">
        <ele>892.24</ele>
        <time>2018-04-21T09:14:14Z</time>
      </trkpt>
      <trkpt lat="45.00624" lon="3.82361">
        <ele>892.24</ele>
        <time>2018-04-21T09:14:34Z</time>
      </trkpt>
      <trkpt lat="45.006" lon="3.8235">
        <ele>892.24</ele>
        <time>2018-04-21T09:14:54Z</time>
      </trkpt>
      <trkpt lat="45.00585" lon="3.82347">
        <ele>890.8</ele>
        <time>2018-04-21T09:15:09Z</time>
      </trkpt>
      <trkpt lat="45.00564" lon="3.82336">
        <ele>889.84</ele>
        <time>2018-04-21T09:15:30Z</time>
      </trkpt>
      <trkpt lat="45.00545" lon="3.82319">
        <ele>887.43</ele>
        <time>2018-04-21T09:15:52Z</time>
      </trkpt>
      <trkpt lat="45.0053" lon="3.82285">
        <ele>884.07</ele>
        <time>2018-04-21T09:16:13Z</time>
      </trkpt>
      <trkpt lat="45.00507" lon="3.82271">
        <ele>879.74</ele>
        <time>2018-04-21T09:16:31Z</time>
      </trkpt>
      <trkpt lat="45.00502" lon="3.82269">
        <ele>879.26</ele>
        <time>2018-04-21T09:16:34Z</time>
      </trkpt>
      <trkpt lat="45.00486" lon="3.82251">
        <ele>875.9</ele>
        <time>2018-04-21T09:16:50Z</time>
      </trkpt>
      <trkpt lat="45.00479" lon="3.82231">
        <ele>873.98</ele>
        <time>2018-04-21T09:17:06Z</time>
      </trkpt>
      <trkpt lat="45.00463" lon="3.82207">
        <ele>874.46</ele>
        <time>2018-04-21T09:17:23Z</time>
      </trkpt>
      <trkpt lat="45.00451" lon="3.82183">
        <ele>874.46</ele>
        <time>2018-04-21T09:17:42Z</time>
      </trkpt>
      <trkpt lat="45.00442" lon="3.82165">
        <ele>873.01</ele>
        <time>2018-04-21T09:18:01Z</time>
      </trkpt>
      <trkpt lat="45.00423" lon="3.82152">
        <ele>875.9</ele>
        <time>2018-04-21T09:18:19Z</time>
      </trkpt>
      <trkpt lat="45.00422" lon="3.82152">
        <ele>875.9</ele>
        <time>2018-04-21T09:18:20Z</time>
      </trkpt>
      <trkpt lat="45.00401" lon="3.82156">
        <ele>877.34</ele>
        <time>2018-04-21T09:18:39Z</time>
      </trkpt>
      <trkpt lat="45.00383" lon="3.82145">
        <ele>879.74</ele>
        <time>2018-04-21T09:18:55Z</time>
      </trkpt>
      <trkpt lat="45.00366" lon="3.82124">
        <ele>881.67</ele>
        <time>2018-04-21T09:19:16Z</time>
      </trkpt>
      <trkpt lat="45.00346" lon="3.82098">
        <ele>885.99</ele>
        <time>2018-04-21T09:19:38Z</time>
      </trkpt>
      <trkpt lat="45.00331" lon="3.82082">
        <ele>887.43</ele>
        <time>2018-04-21T09:19:58Z</time>
      </trkpt>
      <trkpt lat="45.00313" lon="3.82069">
        <ele>889.84</ele>
        <time>2018-04-21T09:20:19Z</time>
      </trkpt>
      <trkpt lat="45.00285" lon="3.82055">
        <ele>892.24</ele>
        <time>2018-04-21T09:20:43Z</time>
      </trkpt>
      <trkpt lat="45.00256" lon="3.82045">
        <ele>894.16</ele>
        <time>2018-04-21T09:21:05Z</time>
      </trkpt>
      <trkpt lat="45.00239" lon="3.8203">
        <ele>896.09</ele>
        <time>2018-04-21T09:21:26Z</time>
      </trkpt>
      <trkpt lat="45.00212" lon="3.8202">
        <ele>898.49</ele>
        <time>2018-04-21T09:21:47Z</time>
      </trkpt>
      <trkpt lat="45.00186" lon="3.82015">
        <ele>901.37</ele>
        <time>2018-04-21T09:22:11Z</time>
      </trkpt>
      <trkpt lat="45.00165" lon="3.82014">
        <ele>903.3</ele>
        <time>2018-04-21T09:22:29Z</time>
      </trkpt>
      <trkpt lat="45.0014" lon="3.82011">
        <ele>903.3</ele>
        <time>2018-04-21T09:22:50Z</time>
      </trkpt>
      <trkpt lat="45.00117" lon="3.82006">
        <ele>903.78</ele>
        <time>2018-04-21T09:23:10Z</time>
      </trkpt>
      <trkpt lat="45.00091" lon="3.81996">
        <ele>905.22</ele>
        <time>2018-04-21T09:23:32Z</time>
      </trkpt>
      <trkpt lat="45.0007" lon="3.81986">
        <ele>905.22</ele>
        <time>2018-04-21T09:23:54Z</time>
      </trkpt>
      <trkpt lat="45.00046" lon="3.81984">
        <ele>905.22</ele>
        <time>2018-04-21T09:24:13Z</time>
      </trkpt>
      <trkpt lat="45.00026" lon="3.81997">
        <ele>907.62</ele>
        <time>2018-04-21T09:24:32Z</time>
      </trkpt>
      <trkpt lat="45.00009" lon="3.82008">
        <ele>908.1</ele>
        <time>2018-04-21T09:24:49Z</time>
      </trkpt>
      <trkpt lat="44.99987" lon="3.82021">
        <ele>910.51</ele>
        <time>2018-04-21T09:25:07Z</time>
      </trkpt>
      <trkpt lat="44.99971" lon="3.82024">
        <ele>911.95</ele>
        <time>2018-04-21T09:25:27Z</time>
      </trkpt>
      <trkpt lat="44.99973" lon="3.82025">
        <ele>911.95</ele>
        <time>2018-04-21T09:25:49Z</time>
      </trkpt>
      <trkpt lat="44.99967" lon="3.82018">
        <ele>911.47</ele>
        <time>2018-04-21T09:26:08Z</time>
      </trkpt>
      <trkpt lat="44.99961" lon="3.82017">
        <ele>909.54</ele>
        <time>2018-04-21T09:26:38Z</time>
      </trkpt>
      <trkpt lat="44.99968" lon="3.82012">
        <ele>910.99</ele>
        <time>2018-04-21T09:27:11Z</time>
      </trkpt>
      <trkpt lat="44.99963" lon="3.82019">
        <ele>911.95</ele>
        <time>2018-04-21T09:27:42Z</time>
      </trkpt>
      <trkpt lat="44.99962" lon="3.82022">
        <ele>910.99</ele>
        <time>2018-04-21T09:28:07Z</time>
      </trkpt>
      <trkpt lat="44.99962" lon="3.82021">
        <ele>908.1</ele>
        <time>2018-04-21T09:28:54Z</time>
      </trkpt>
      <trkpt lat="44.99962" lon="3.82019">
        <ele>910.03</ele>
        <time>2018-04-21T09:29:30Z</time>
      </trkpt>
      <trkpt lat="44.99961" lon="3.8202">
        <ele>912.91</ele>
        <time>2018-04-21T09:29:47Z</time>
      </trkpt>
      <trkpt lat="44.99962" lon="3.82018">
        <ele>913.39</ele>
        <time>2018-04-21T09:30:07Z</time>
      </trkpt>
      <trkpt lat="44.99962" lon="3.82019">
        <ele>913.39</ele>
        <time>2018-04-21T09:30:47Z</time>
      </trkpt>
      <trkpt lat="44.99963" lon="3.8202">
        <ele>911.95</ele>
        <time>2018-04-21T09:31:25Z</time>
      </trkpt>
      <trkpt lat="44.99963" lon="3.82021">
        <ele>911.47</ele>
        <time>2018-04-21T09:32:05Z</time>
      </trkpt>
      <trkpt lat="44.99962" lon="3.8202">
        <ele>909.54</ele>
        <time>2018-04-21T09:32:37Z</time>
      </trkpt>
      <trkpt lat="44.99962" lon="3.82016">
        <ele>910.03</ele>
        <time>2018-04-21T09:33:08Z</time>
      </trkpt>
      <trkpt lat="44.99964" lon="3.82018">
        <ele>914.35</ele>
        <time>2018-04-21T09:33:39Z</time>
      </trkpt>
      <trkpt lat="44.99965" lon="3.82018">
        <ele>913.39</ele>
        <time>2018-04-21T09:34:20Z</time>
      </trkpt>
      <trkpt lat="44.99961" lon="3.82017">
        <ele>909.54</ele>
        <time>2018-04-21T09:34:54Z</time>
      </trkpt>
      <trkpt lat="44.99962" lon="3.82022">
        <ele>910.03</ele>
        <time>2018-04-21T09:35:17Z</time>
      </trkpt>
      <trkpt lat="44.99963" lon="3.82017">
        <ele>913.87</ele>
        <time>2018-04-21T09:35:52Z</time>
      </trkpt>
      <trkpt lat="44.99963" lon="3.82019">
        <ele>912.91</ele>
        <time>2018-04-21T09:36:37Z</time>
      </trkpt>
      <trkpt lat="44.99961" lon="3.82019">
        <ele>916.75</ele>
        <time>2018-04-21T09:37:06Z</time>
      </trkpt>
      <trkpt lat="44.99964" lon="3.82016">
        <ele>915.31</ele>
        <time>2018-04-21T09:37:42Z</time>
      </trkpt>
      <trkpt lat="44.99961" lon="3.82015">
        <ele>913.39</ele>
        <time>2018-04-21T09:38:17Z</time>
      </trkpt>
      <trkpt lat="44.99963" lon="3.82018">
        <ele>913.87</ele>
        <time>2018-04-21T09:38:50Z</time>
      </trkpt>
      <trkpt lat="44.99964" lon="3.82023">
        <ele>917.24</ele>
        <time>2018-04-21T09:39:26Z</time>
      </trkpt>
      <trkpt lat="44.99963" lon="3.8202">
        <ele>916.27</ele>
        <time>2018-04-21T09:39:47Z</time>
      </trkpt>
      <trkpt lat="44.99961" lon="3.82022">
        <ele>914.83</ele>
        <time>2018-04-21T09:40:10Z</time>
      </trkpt>
      <trkpt lat="44.99962" lon="3.82021">
        <ele>915.31</ele>
        <time>2018-04-21T09:40:27Z</time>
      </trkpt>
      <trkpt lat="44.99962" lon="3.82021">
        <ele>919.64</ele>
        <time>2018-04-21T09:40:44Z</time>
      </trkpt>
      <trkpt lat="44.99966" lon="3.82021">
        <ele>920.12</ele>
        <time>2018-04-21T09:41:05Z</time>
      </trkpt>
      <trkpt lat="44.99968" lon="3.82024">
        <ele>921.08</ele>
        <time>2018-04-21T09:41:16Z</time>
      </trkpt>
      <trkpt lat="44.99959" lon="3.82029">
        <ele>922.04</ele>
        <time>2018-04-21T09:41:29Z</time>
      </trkpt>
      <trkpt lat="44.99952" lon="3.82032">
        <ele>925.41</ele>
        <time>2018-04-21T09:41:41Z</time>
      </trkpt>
      <trkpt lat="44.99941" lon="3.82036">
        <ele>931.65</ele>
        <time>2018-04-21T09:41:54Z</time>
      </trkpt>
      <trkpt lat="44.99922" lon="3.82036">
        <ele>929.25</ele>
        <time>2018-04-21T09:42:09Z</time>
      </trkpt>
      <trkpt lat="44.99917" lon="3.82035">
        <ele>929.25</ele>
        <time>2018-04-21T09:42:14Z</time>
      </trkpt>
      <trkpt lat="44.99905" lon="3.82034">
        <ele>927.81</ele>
        <time>2018-04-21T09:42:23Z</time>
      </trkpt>
      <trkpt lat="44.9989" lon="3.82035">
        <ele>927.33</ele>
        <time>2018-04-21T09:42:35Z</time>
      </trkpt>
      <trkpt lat="44.99876" lon="3.82031">
        <ele>926.85</ele>
        <time>2018-04-21T09:42:46Z</time>
      </trkpt>
      <trkpt lat="44.99856" lon="3.82031">
        <ele>929.25</ele>
        <time>2018-04-21T09:43:03Z</time>
      </trkpt>
      <trkpt lat="44.99849" lon="3.82031">
        <ele>929.25</ele>
        <time>2018-04-21T09:43:08Z</time>
      </trkpt>
      <trkpt lat="44.99828" lon="3.82033">
        <ele>927.33</ele>
        <time>2018-04-21T09:43:25Z</time>
      </trkpt>
      <trkpt lat="44.99809" lon="3.82039">
        <ele>925.89</ele>
        <time>2018-04-21T09:43:40Z</time>
      </trkpt>
      <trkpt lat="44.99802" lon="3.82043">
        <ele>925.41</ele>
        <time>2018-04-21T09:43:46Z</time>
      </trkpt>
      <trkpt lat="44.99784" lon="3.82048">
        <ele>924.45</ele>
        <time>2018-04-21T09:44:02Z</time>
      </trkpt>
      <trkpt lat="44.9978" lon="3.82021">
        <ele>926.85</ele>
        <time>2018-04-21T09:44:21Z</time>
      </trkpt>
      <trkpt lat="44.99777" lon="3.82006">
        <ele>926.85</ele>
        <time>2018-04-21T09:44:30Z</time>
      </trkpt>
      <trkpt lat="44.99773" lon="3.81999">
        <ele>926.85</ele>
        <time>2018-04-21T09:44:35Z</time>
      </trkpt>
      <trkpt lat="44.99771" lon="3.81994">
        <ele>926.85</ele>
        <time>2018-04-21T09:44:39Z</time>
      </trkpt>
      <trkpt lat="44.99766" lon="3.81995">
        <ele>926.37</ele>
        <time>2018-04-21T09:44:43Z</time>
      </trkpt>
      <trkpt lat="44.99759" lon="3.81999">
        <ele>926.37</ele>
        <time>2018-04-21T09:44:53Z</time>
      </trkpt>
      <trkpt lat="44.99742" lon="3.82005">
        <ele>925.89</ele>
        <time>2018-04-21T09:45:07Z</time>
      </trkpt>
      <trkpt lat="44.99729" lon="3.81996">
        <ele>925.89</ele>
        <time>2018-04-21T09:45:19Z</time>
      </trkpt>
      <trkpt lat="44.99704" lon="3.81979">
        <ele>925.41</ele>
        <time>2018-04-21T09:45:41Z</time>
      </trkpt>
      <trkpt lat="44.99688" lon="3.81969">
        <ele>927.33</ele>
        <time>2018-04-21T09:45:57Z</time>
      </trkpt>
      <trkpt lat="44.99671" lon="3.81958">
        <ele>928.77</ele>
        <time>2018-04-21T09:46:13Z</time>
      </trkpt>
      <trkpt lat="44.99668" lon="3.81955">
        <ele>928.77</ele>
        <time>2018-04-21T09:46:16Z</time>
      </trkpt>
      <trkpt lat="44.9966" lon="3.8195">
        <ele>927.81</ele>
        <time>2018-04-21T09:46:27Z</time>
      </trkpt>
      <trkpt lat="44.99659" lon="3.81949">
        <ele>927.81</ele>
        <time>2018-04-21T09:46:28Z</time>
      </trkpt>
      <trkpt lat="44.9965" lon="3.81946">
        <ele>929.25</ele>
        <time>2018-04-21T09:46:36Z</time>
      </trkpt>
      <trkpt lat="44.99647" lon="3.81921">
        <ele>930.21</ele>
        <time>2018-04-21T09:46:52Z</time>
      </trkpt>
      <trkpt lat="44.99645" lon="3.81917">
        <ele>930.21</ele>
        <time>2018-04-21T09:46:55Z</time>
      </trkpt>
      <trkpt lat="44.99642" lon="3.81914">
        <ele>929.25</ele>
        <time>2018-04-21T09:46:59Z</time>
      </trkpt>
      <trkpt lat="44.99641" lon="3.81907">
        <ele>927.81</ele>
        <time>2018-04-21T09:47:04Z</time>
      </trkpt>
      <trkpt lat="44.99643" lon="3.81873">
        <ele>923.96</ele>
        <time>2018-04-21T09:47:24Z</time>
      </trkpt>
      <trkpt lat="44.99643" lon="3.81866">
        <ele>921.56</ele>
        <time>2018-04-21T09:47:31Z</time>
      </trkpt>
      <trkpt lat="44.99647" lon="3.81866">
        <ele>919.16</ele>
        <time>2018-04-21T09:47:39Z</time>
      </trkpt>
      <trkpt lat="44.99644" lon="3.81864">
        <ele>919.16</ele>
        <time>2018-04-21T09:47:43Z</time>
      </trkpt>
      <trkpt lat="44.99644" lon="3.81859">
        <ele>919.16</ele>
        <time>2018-04-21T09:47:47Z</time>
      </trkpt>
      <trkpt lat="44.99643" lon="3.81854">
        <ele>919.16</ele>
        <time>2018-04-21T09:47:51Z</time>
      </trkpt>
      <trkpt lat="44.99643" lon="3.81844">
        <ele>918.68</ele>
        <time>2018-04-21T09:48:02Z</time>
      </trkpt>
      <trkpt lat="44.99644" lon="3.81838">
        <ele>918.2</ele>
        <time>2018-04-21T09:48:06Z</time>
      </trkpt>
      <trkpt lat="44.99643" lon="3.81834">
        <ele>918.2</ele>
        <time>2018-04-21T09:48:09Z</time>
      </trkpt>
      <trkpt lat="44.99645" lon="3.81821">
        <ele>919.16</ele>
        <time>2018-04-21T09:48:17Z</time>
      </trkpt>
      <trkpt lat="44.99654" lon="3.81808">
        <ele>918.2</ele>
        <time>2018-04-21T09:48:32Z</time>
      </trkpt>
      <trkpt lat="44.99669" lon="3.81794">
        <ele>918.2</ele>
        <time>2018-04-21T09:48:48Z</time>
      </trkpt>
      <trkpt lat="44.99671" lon="3.81792">
        <ele>918.2</ele>
        <time>2018-04-21T09:48:50Z</time>
      </trkpt>
      <trkpt lat="44.99678" lon="3.81783">
        <ele>918.2</ele>
        <time>2018-04-21T09:48:58Z</time>
      </trkpt>
      <trkpt lat="44.99697" lon="3.81774">
        <ele>915.31</ele>
        <time>2018-04-21T09:49:14Z</time>
      </trkpt>
      <trkpt lat="44.99706" lon="3.81759">
        <ele>917.24</ele>
        <time>2018-04-21T09:49:30Z</time>
      </trkpt>
      <trkpt lat="44.99705" lon="3.81756">
        <ele>917.24</ele>
        <time>2018-04-21T09:49:37Z</time>
      </trkpt>
      <trkpt lat="44.99704" lon="3.81732">
        <ele>932.62</ele>
        <time>2018-04-21T09:49:49Z</time>
      </trkpt>
      <trkpt lat="44.99705" lon="3.81726">
        <ele>935.02</ele>
        <time>2018-04-21T09:49:53Z</time>
      </trkpt>
      <trkpt lat="44.99707" lon="3.81703">
        <ele>927.33</ele>
        <time>2018-04-21T09:50:00Z</time>
      </trkpt>
      <trkpt lat="44.99693" lon="3.81683">
        <ele>923.48</ele>
        <time>2018-04-21T09:50:16Z</time>
      </trkpt>
      <trkpt lat="44.99692" lon="3.81683">
        <ele>923.48</ele>
        <time>2018-04-21T09:50:17Z</time>
      </trkpt>
      <trkpt lat="44.99685" lon="3.81678">
        <ele>923.96</ele>
        <time>2018-04-21T09:50:23Z</time>
      </trkpt>
      <trkpt lat="44.99665" lon="3.81669">
        <ele>927.33</ele>
        <time>2018-04-21T09:50:44Z</time>
      </trkpt>
      <trkpt lat="44.99647" lon="3.81658">
        <ele>928.29</ele>
        <time>2018-04-21T09:51:00Z</time>
      </trkpt>
      <trkpt lat="44.99644" lon="3.81653">
        <ele>927.33</ele>
        <time>2018-04-21T09:51:04Z</time>
      </trkpt>
      <trkpt lat="44.99625" lon="3.81628">
        <ele>921.56</ele>
        <time>2018-04-21T09:51:22Z</time>
      </trkpt>
      <trkpt lat="44.99615" lon="3.81604">
        <ele>919.64</ele>
        <time>2018-04-21T09:51:38Z</time>
      </trkpt>
      <trkpt lat="44.99604" lon="3.81579">
        <ele>916.75</ele>
        <time>2018-04-21T09:51:55Z</time>
      </trkpt>
      <trkpt lat="44.99593" lon="3.81544">
        <ele>915.79</ele>
        <time>2018-04-21T09:52:17Z</time>
      </trkpt>
      <trkpt lat="44.99589" lon="3.81513">
        <ele>917.24</ele>
        <time>2018-04-21T09:52:36Z</time>
      </trkpt>
      <trkpt lat="44.99588" lon="3.81482">
        <ele>918.2</ele>
        <time>2018-04-21T09:52:54Z</time>
      </trkpt>
      <trkpt lat="44.99581" lon="3.81444">
        <ele>919.64</ele>
        <time>2018-04-21T09:53:17Z</time>
      </trkpt>
      <trkpt lat="44.9957" lon="3.81415">
        <ele>920.12</ele>
        <time>2018-04-21T09:53:37Z</time>
      </trkpt>
      <trkpt lat="44.99554" lon="3.81387">
        <ele>921.08</ele>
        <time>2018-04-21T09:53:57Z</time>
      </trkpt>
      <trkpt lat="44.99538" lon="3.81357">
        <ele>923.96</ele>
        <time>2018-04-21T09:54:19Z</time>
      </trkpt>
      <trkpt lat="44.99527" lon="3.81331">
        <ele>925.41</ele>
        <time>2018-04-21T09:54:37Z</time>
      </trkpt>
      <trkpt lat="44.9952" lon="3.81297">
        <ele>928.77</ele>
        <time>2018-04-21T09:54:58Z</time>
      </trkpt>
      <trkpt lat="44.99509" lon="3.81271">
        <ele>932.62</ele>
        <time>2018-04-21T09:55:17Z</time>
      </trkpt>
      <trkpt lat="44.9949" lon="3.81255">
        <ele>935.5</ele>
        <time>2018-04-21T09:55:35Z</time>
      </trkpt>
      <trkpt lat="44.99471" lon="3.8124">
        <ele>936.94</ele>
        <time>2018-04-21T09:55:53Z</time>
      </trkpt>
      <trkpt lat="44.99454" lon="3.81226">
        <ele>936.94</ele>
        <time>2018-04-21T09:56:09Z</time>
      </trkpt>
      <trkpt lat="44.99444" lon="3.81217">
        <ele>938.38</ele>
        <time>2018-04-21T09:56:20Z</time>
      </trkpt>
      <trkpt lat="44.99431" lon="3.81203">
        <ele>938.86</ele>
        <time>2018-04-21T09:56:36Z</time>
      </trkpt>
      <trkpt lat="44.99421" lon="3.81183">
        <ele>938.38</ele>
        <time>2018-04-21T09:56:53Z</time>
      </trkpt>
      <trkpt lat="44.9942" lon="3.8118">
        <ele>938.86</ele>
        <time>2018-04-21T09:56:55Z</time>
      </trkpt>
      <trkpt lat="44.99418" lon="3.81175">
        <ele>938.38</ele>
        <time>2018-04-21T09:56:59Z</time>
      </trkpt>
      <trkpt lat="44.9941" lon="3.81157">
        <ele>937.9</ele>
        <time>2018-04-21T09:57:13Z</time>
      </trkpt>
      <trkpt lat="44.99407" lon="3.81152">
        <ele>937.9</ele>
        <time>2018-04-21T09:57:17Z</time>
      </trkpt>
      <trkpt lat="44.99397" lon="3.8113">
        <ele>936.94</ele>
        <time>2018-04-21T09:57:34Z</time>
      </trkpt>
      <trkpt lat="44.99387" lon="3.81107">
        <ele>938.86</ele>
        <time>2018-04-21T09:57:52Z</time>
      </trkpt>
      <trkpt lat="44.9938" lon="3.81084">
        <ele>940.79</ele>
        <time>2018-04-21T09:58:08Z</time>
      </trkpt>
      <trkpt lat="44.99376" lon="3.81056">
        <ele>942.23</ele>
        <time>2018-04-21T09:58:26Z</time>
      </trkpt>
      <trkpt lat="44.99372" lon="3.81028">
        <ele>942.23</ele>
        <time>2018-04-21T09:58:44Z</time>
      </trkpt>
      <trkpt lat="44.99369" lon="3.81019">
        <ele>941.75</ele>
        <time>2018-04-21T09:58:50Z</time>
      </trkpt>
      <trkpt lat="44.99367" lon="3.81013">
        <ele>941.75</ele>
        <time>2018-04-21T09:58:54Z</time>
      </trkpt>
      <trkpt lat="44.99366" lon="3.81007">
        <ele>941.75</ele>
        <time>2018-04-21T09:58:59Z</time>
      </trkpt>
      <trkpt lat="44.99365" lon="3.81003">
        <ele>941.75</ele>
        <time>2018-04-21T09:59:02Z</time>
      </trkpt>
      <trkpt lat="44.99363" lon="3.80996">
        <ele>941.27</ele>
        <time>2018-04-21T09:59:07Z</time>
      </trkpt>
      <trkpt lat="44.99361" lon="3.80992">
        <ele>941.27</ele>
        <time>2018-04-21T09:59:10Z</time>
      </trkpt>
      <trkpt lat="44.99357" lon="3.80982">
        <ele>940.31</ele>
        <time>2018-04-21T09:59:18Z</time>
      </trkpt>
      <trkpt lat="44.99346" lon="3.80957">
        <ele>939.35</ele>
        <time>2018-04-21T09:59:36Z</time>
      </trkpt>
      <trkpt lat="44.99343" lon="3.80952">
        <ele>939.35</ele>
        <time>2018-04-21T09:59:40Z</time>
      </trkpt>
      <trkpt lat="44.99334" lon="3.80928">
        <ele>938.86</ele>
        <time>2018-04-21T09:59:58Z</time>
      </trkpt>
      <trkpt lat="44.99327" lon="3.80897">
        <ele>938.86</ele>
        <time>2018-04-21T10:00:19Z</time>
      </trkpt>
      <trkpt lat="44.99322" lon="3.80873">
        <ele>937.9</ele>
        <time>2018-04-21T10:00:35Z</time>
      </trkpt>
      <trkpt lat="44.99316" lon="3.80843">
        <ele>936.94</ele>
        <time>2018-04-21T10:00:54Z</time>
      </trkpt>
      <trkpt lat="44.9931" lon="3.80816">
        <ele>935.5</ele>
        <time>2018-04-21T10:01:12Z</time>
      </trkpt>
      <trkpt lat="44.99306" lon="3.80786">
        <ele>935.5</ele>
        <time>2018-04-21T10:01:31Z</time>
      </trkpt>
      <trkpt lat="44.99303" lon="3.8076">
        <ele>937.9</ele>
        <time>2018-04-21T10:01:48Z</time>
      </trkpt>
      <trkpt lat="44.99302" lon="3.80731">
        <ele>938.38</ele>
        <time>2018-04-21T10:02:06Z</time>
      </trkpt>
      <trkpt lat="44.99302" lon="3.8071">
        <ele>939.83</ele>
        <time>2018-04-21T10:02:19Z</time>
      </trkpt>
      <trkpt lat="44.99301" lon="3.80684">
        <ele>939.83</ele>
        <time>2018-04-21T10:02:36Z</time>
      </trkpt>
      <trkpt lat="44.99291" lon="3.80652">
        <ele>936.46</ele>
        <time>2018-04-21T10:02:56Z</time>
      </trkpt>
      <trkpt lat="44.99277" lon="3.80633">
        <ele>936.46</ele>
        <time>2018-04-21T10:03:14Z</time>
      </trkpt>
      <trkpt lat="44.99265" lon="3.80616">
        <ele>936.94</ele>
        <time>2018-04-21T10:03:29Z</time>
      </trkpt>
      <trkpt lat="44.99257" lon="3.80605">
        <ele>936.94</ele>
        <time>2018-04-21T10:03:39Z</time>
      </trkpt>
      <trkpt lat="44.99256" lon="3.80601">
        <ele>936.46</ele>
        <time>2018-04-21T10:03:42Z</time>
      </trkpt>
      <trkpt lat="44.99252" lon="3.80594">
        <ele>936.94</ele>
        <time>2018-04-21T10:03:48Z</time>
      </trkpt>
      <trkpt lat="44.99246" lon="3.80583">
        <ele>936.94</ele>
        <time>2018-04-21T10:03:56Z</time>
      </trkpt>
      <trkpt lat="44.99235" lon="3.80564">
        <ele>937.9</ele>
        <time>2018-04-21T10:04:13Z</time>
      </trkpt>
      <trkpt lat="44.99232" lon="3.80558">
        <ele>937.42</ele>
        <time>2018-04-21T10:04:33Z</time>
      </trkpt>
      <trkpt lat="44.99218" lon="3.80536">
        <ele>936.46</ele>
        <time>2018-04-21T10:04:51Z</time>
      </trkpt>
      <trkpt lat="44.99201" lon="3.80513">
        <ele>936.94</ele>
        <time>2018-04-21T10:05:11Z</time>
      </trkpt>
      <trkpt lat="44.99187" lon="3.80491">
        <ele>937.9</ele>
        <time>2018-04-21T10:05:29Z</time>
      </trkpt>
      <trkpt lat="44.99172" lon="3.80472">
        <ele>937.9</ele>
        <time>2018-04-21T10:05:48Z</time>
      </trkpt>
      <trkpt lat="44.99172" lon="3.80471">
        <ele>936.94</ele>
        <time>2018-04-21T10:06:06Z</time>
      </trkpt>
      <trkpt lat="44.99172" lon="3.80473">
        <ele>939.35</ele>
        <time>2018-04-21T10:06:30Z</time>
      </trkpt>
      <trkpt lat="44.99171" lon="3.80473">
        <ele>935.5</ele>
        <time>2018-04-21T10:06:41Z</time>
      </trkpt>
      <trkpt lat="44.99156" lon="3.80453">
        <ele>933.58</ele>
        <time>2018-04-21T10:06:58Z</time>
      </trkpt>
      <trkpt lat="44.99151" lon="3.80448">
        <ele>933.1</ele>
        <time>2018-04-21T10:07:04Z</time>
      </trkpt>
      <trkpt lat="44.99133" lon="3.80438">
        <ele>938.86</ele>
        <time>2018-04-21T10:07:20Z</time>
      </trkpt>
      <trkpt lat="44.99116" lon="3.80424">
        <ele>937.42</ele>
        <time>2018-04-21T10:07:35Z</time>
      </trkpt>
      <trkpt lat="44.99099" lon="3.80404">
        <ele>935.5</ele>
        <time>2018-04-21T10:07:53Z</time>
      </trkpt>
      <trkpt lat="44.99089" lon="3.80382">
        <ele>935.02</ele>
        <time>2018-04-21T10:08:08Z</time>
      </trkpt>
      <trkpt lat="44.99083" lon="3.80358">
        <ele>935.98</ele>
        <time>2018-04-21T10:08:23Z</time>
      </trkpt>
      <trkpt lat="44.99079" lon="3.80331">
        <ele>937.42</ele>
        <time>2018-04-21T10:08:40Z</time>
      </trkpt>
      <trkpt lat="44.99074" lon="3.80306">
        <ele>938.38</ele>
        <time>2018-04-21T10:08:56Z</time>
      </trkpt>
      <trkpt lat="44.99065" lon="3.80287">
        <ele>937.9</ele>
        <time>2018-04-21T10:09:12Z</time>
      </trkpt>
      <trkpt lat="44.99058" lon="3.80275">
        <ele>937.9</ele>
        <time>2018-04-21T10:09:21Z</time>
      </trkpt>
      <trkpt lat="44.99051" lon="3.80265">
        <ele>935.5</ele>
        <time>2018-04-21T10:09:38Z</time>
      </trkpt>
      <trkpt lat="44.99045" lon="3.80249">
        <ele>935.02</ele>
        <time>2018-04-21T10:09:53Z</time>
      </trkpt>
      <trkpt lat="44.99045" lon="3.80231">
        <ele>936.46</ele>
        <time>2018-04-21T10:10:11Z</time>
      </trkpt>
      <trkpt lat="44.9905" lon="3.80222">
        <ele>935.98</ele>
        <time>2018-04-21T10:10:28Z</time>
      </trkpt>
      <trkpt lat="44.99051" lon="3.80222">
        <ele>935.98</ele>
        <time>2018-04-21T10:11:07Z</time>
      </trkpt>
      <trkpt lat="44.99052" lon="3.80219">
        <ele>935.98</ele>
        <time>2018-04-21T10:11:13Z</time>
      </trkpt>
      <trkpt lat="44.99064" lon="3.80192">
        <ele>939.83</ele>
        <time>2018-04-21T10:11:31Z</time>
      </trkpt>
      <trkpt lat="44.99071" lon="3.80164">
        <ele>940.31</ele>
        <time>2018-04-21T10:11:48Z</time>
      </trkpt>
      <trkpt lat="44.99076" lon="3.80139">
        <ele>940.79</ele>
        <time>2018-04-21T10:12:03Z</time>
      </trkpt>
      <trkpt lat="44.99076" lon="3.80136">
        <ele>941.27</ele>
        <time>2018-04-21T10:12:05Z</time>
      </trkpt>
      <trkpt lat="44.99074" lon="3.80108">
        <ele>945.59</ele>
        <time>2018-04-21T10:12:21Z</time>
      </trkpt>
      <trkpt lat="44.99078" lon="3.80084">
        <ele>948.96</ele>
        <time>2018-04-21T10:12:36Z</time>
      </trkpt>
      <trkpt lat="44.99078" lon="3.8008">
        <ele>949.44</ele>
        <time>2018-04-21T10:12:38Z</time>
      </trkpt>
      <trkpt lat="44.99061" lon="3.80063">
        <ele>949.44</ele>
        <time>2018-04-21T10:12:53Z</time>
      </trkpt>
      <trkpt lat="44.99047" lon="3.80044">
        <ele>950.4</ele>
        <time>2018-04-21T10:13:08Z</time>
      </trkpt>
      <trkpt lat="44.99046" lon="3.80044">
        <ele>950.4</ele>
        <time>2018-04-21T10:13:09Z</time>
      </trkpt>
      <trkpt lat="44.9903" lon="3.80039">
        <ele>949.44</ele>
        <time>2018-04-21T10:13:22Z</time>
      </trkpt>
      <trkpt lat="44.99028" lon="3.80034">
        <ele>949.92</ele>
        <time>2018-04-21T10:13:27Z</time>
      </trkpt>
      <trkpt lat="44.99026" lon="3.80007">
        <ele>948.48</ele>
        <time>2018-04-21T10:13:43Z</time>
      </trkpt>
      <trkpt lat="44.99024" lon="3.79993">
        <ele>947.52</ele>
        <time>2018-04-21T10:13:56Z</time>
      </trkpt>
      <trkpt lat="44.99021" lon="3.79963">
        <ele>948.48</ele>
        <time>2018-04-21T10:14:14Z</time>
      </trkpt>
      <trkpt lat="44.99021" lon="3.79945">
        <ele>950.88</ele>
        <time>2018-04-21T10:14:28Z</time>
      </trkpt>
      <trkpt lat="44.99013" lon="3.79918">
        <ele>951.84</ele>
        <time>2018-04-21T10:14:45Z</time>
      </trkpt>
      <trkpt lat="44.99005" lon="3.7989">
        <ele>951.84</ele>
        <time>2018-04-21T10:15:03Z</time>
      </trkpt>
      <trkpt lat="44.99003" lon="3.79862">
        <ele>951.84</ele>
        <time>2018-04-21T10:15:19Z</time>
      </trkpt>
      <trkpt lat="44.99002" lon="3.79854">
        <ele>950.88</ele>
        <time>2018-04-21T10:15:24Z</time>
      </trkpt>
      <trkpt lat="44.99" lon="3.79823">
        <ele>951.84</ele>
        <time>2018-04-21T10:15:40Z</time>
      </trkpt>
      <trkpt lat="44.98997" lon="3.79799">
        <ele>951.84</ele>
        <time>2018-04-21T10:15:54Z</time>
      </trkpt>
      <trkpt lat="44.98996" lon="3.79792">
        <ele>951.84</ele>
        <time>2018-04-21T10:15:58Z</time>
      </trkpt>
      <trkpt lat="44.98991" lon="3.79765">
        <ele>951.36</ele>
        <time>2018-04-21T10:16:14Z</time>
      </trkpt>
      <trkpt lat="44.98985" lon="3.79742">
        <ele>952.8</ele>
        <time>2018-04-21T10:16:28Z</time>
      </trkpt>
      <trkpt lat="44.98978" lon="3.79713">
        <ele>952.32</ele>
        <time>2018-04-21T10:16:45Z</time>
      </trkpt>
      <trkpt lat="44.98965" lon="3.79689">
        <ele>950.88</ele>
        <time>2018-04-21T10:17:02Z</time>
      </trkpt>
      <trkpt lat="44.98953" lon="3.7967">
        <ele>950.4</ele>
        <time>2018-04-21T10:17:17Z</time>
      </trkpt>
      <trkpt lat="44.98942" lon="3.79642">
        <ele>952.8</ele>
        <time>2018-04-21T10:17:34Z</time>
      </trkpt>
      <trkpt lat="44.98938" lon="3.79629">
        <ele>952.8</ele>
        <time>2018-04-21T10:17:43Z</time>
      </trkpt>
      <trkpt lat="44.98929" lon="3.79606">
        <ele>954.25</ele>
        <time>2018-04-21T10:17:59Z</time>
      </trkpt>
      <trkpt lat="44.98922" lon="3.79585">
        <ele>954.73</ele>
        <time>2018-04-21T10:18:14Z</time>
      </trkpt>
      <trkpt lat="44.98916" lon="3.79563">
        <ele>953.77</ele>
        <time>2018-04-21T10:18:29Z</time>
      </trkpt>
      <trkpt lat="44.98909" lon="3.79539">
        <ele>954.25</ele>
        <time>2018-04-21T10:18:45Z</time>
      </trkpt>
      <trkpt lat="44.98901" lon="3.79514">
        <ele>954.73</ele>
        <time>2018-04-21T10:19:01Z</time>
      </trkpt>
      <trkpt lat="44.98893" lon="3.79489">
        <ele>955.69</ele>
        <time>2018-04-21T10:19:17Z</time>
      </trkpt>
      <trkpt lat="44.98882" lon="3.7947">
        <ele>955.21</ele>
        <time>2018-04-21T10:19:34Z</time>
      </trkpt>
      <trkpt lat="44.98874" lon="3.79449">
        <ele>955.69</ele>
        <time>2018-04-21T10:19:49Z</time>
      </trkpt>
      <trkpt lat="44.98865" lon="3.79423">
        <ele>956.65</ele>
        <time>2018-04-21T10:20:07Z</time>
      </trkpt>
      <trkpt lat="44.98857" lon="3.79402">
        <ele>956.17</ele>
        <time>2018-04-21T10:20:23Z</time>
      </trkpt>
      <trkpt lat="44.98854" lon="3.79392">
        <ele>955.69</ele>
        <time>2018-04-21T10:20:29Z</time>
      </trkpt>
      <trkpt lat="44.98846" lon="3.79364">
        <ele>957.13</ele>
        <time>2018-04-21T10:20:47Z</time>
      </trkpt>
      <trkpt lat="44.98841" lon="3.79339">
        <ele>959.53</ele>
        <time>2018-04-21T10:21:03Z</time>
      </trkpt>
      <trkpt lat="44.98835" lon="3.79317">
        <ele>961.94</ele>
        <time>2018-04-21T10:21:18Z</time>
      </trkpt>
      <trkpt lat="44.98821" lon="3.79304">
        <ele>961.46</ele>
        <time>2018-04-21T10:21:33Z</time>
      </trkpt>
      <trkpt lat="44.98806" lon="3.79304">
        <ele>961.46</ele>
        <time>2018-04-21T10:21:47Z</time>
      </trkpt>
      <trkpt lat="44.98792" lon="3.79306">
        <ele>961.46</ele>
        <time>2018-04-21T10:21:59Z</time>
      </trkpt>
      <trkpt lat="44.98776" lon="3.79306">
        <ele>962.42</ele>
        <time>2018-04-21T10:22:12Z</time>
      </trkpt>
      <trkpt lat="44.98758" lon="3.79305">
        <ele>963.86</ele>
        <time>2018-04-21T10:22:27Z</time>
      </trkpt>
      <trkpt lat="44.98743" lon="3.79298">
        <ele>964.82</ele>
        <time>2018-04-21T10:22:40Z</time>
      </trkpt>
      <trkpt lat="44.98731" lon="3.79292">
        <ele>966.26</ele>
        <time>2018-04-21T10:22:53Z</time>
      </trkpt>
      <trkpt lat="44.98717" lon="3.7928">
        <ele>966.26</ele>
        <time>2018-04-21T10:23:07Z</time>
      </trkpt>
      <trkpt lat="44.98702" lon="3.79265">
        <ele>966.26</ele>
        <time>2018-04-21T10:23:24Z</time>
      </trkpt>
      <trkpt lat="44.98693" lon="3.79254">
        <ele>965.78</ele>
        <time>2018-04-21T10:23:36Z</time>
      </trkpt>
      <trkpt lat="44.98681" lon="3.7924">
        <ele>967.22</ele>
        <time>2018-04-21T10:23:52Z</time>
      </trkpt>
      <trkpt lat="44.98668" lon="3.79226">
        <ele>967.7</ele>
        <time>2018-04-21T10:24:07Z</time>
      </trkpt>
      <trkpt lat="44.98654" lon="3.79215">
        <ele>968.18</ele>
        <time>2018-04-21T10:24:21Z</time>
      </trkpt>
      <trkpt lat="44.98653" lon="3.79214">
        <ele>968.18</ele>
        <time>2018-04-21T10:24:22Z</time>
      </trkpt>
      <trkpt lat="44.98652" lon="3.79213">
        <ele>968.18</ele>
        <time>2018-04-21T10:24:23Z</time>
      </trkpt>
      <trkpt lat="44.98639" lon="3.79204">
        <ele>968.67</ele>
        <time>2018-04-21T10:24:36Z</time>
      </trkpt>
      <trkpt lat="44.98626" lon="3.79194">
        <ele>969.15</ele>
        <time>2018-04-21T10:24:50Z</time>
      </trkpt>
      <trkpt lat="44.9861" lon="3.7918">
        <ele>968.18</ele>
        <time>2018-04-21T10:25:07Z</time>
      </trkpt>
      <trkpt lat="44.98597" lon="3.79167">
        <ele>971.07</ele>
        <time>2018-04-21T10:25:20Z</time>
      </trkpt>
      <trkpt lat="44.98586" lon="3.79153">
        <ele>971.07</ele>
        <time>2018-04-21T10:25:33Z</time>
      </trkpt>
      <trkpt lat="44.98567" lon="3.79137">
        <ele>965.78</ele>
        <time>2018-04-21T10:25:53Z</time>
      </trkpt>
      <trkpt lat="44.98559" lon="3.7913">
        <ele>961.46</ele>
        <time>2018-04-21T10:26:11Z</time>
      </trkpt>
      <trkpt lat="44.98549" lon="3.79102">
        <ele>957.61</ele>
        <time>2018-04-21T10:26:30Z</time>
      </trkpt>
      <trkpt lat="44.98557" lon="3.79085">
        <ele>958.09</ele>
        <time>2018-04-21T10:26:50Z</time>
      </trkpt>
      <trkpt lat="44.98568" lon="3.79062">
        <ele>963.86</ele>
        <time>2018-04-21T10:27:12Z</time>
      </trkpt>
      <trkpt lat="44.98565" lon="3.79037">
        <ele>967.7</ele>
        <time>2018-04-21T10:27:30Z</time>
      </trkpt>
      <trkpt lat="44.98555" lon="3.79006">
        <ele>971.07</ele>
        <time>2018-04-21T10:27:52Z</time>
      </trkpt>
      <trkpt lat="44.98551" lon="3.7899">
        <ele>971.55</ele>
        <time>2018-04-21T10:28:04Z</time>
      </trkpt>
      <trkpt lat="44.98551" lon="3.7896">
        <ele>975.39</ele>
        <time>2018-04-21T10:28:24Z</time>
      </trkpt>
      <trkpt lat="44.98548" lon="3.78934">
        <ele>977.8</ele>
        <time>2018-04-21T10:28:43Z</time>
      </trkpt>
      <trkpt lat="44.98544" lon="3.78907">
        <ele>977.32</ele>
        <time>2018-04-21T10:29:03Z</time>
      </trkpt>
      <trkpt lat="44.98534" lon="3.78877">
        <ele>977.32</ele>
        <time>2018-04-21T10:29:25Z</time>
      </trkpt>
      <trkpt lat="44.98536" lon="3.7885">
        <ele>976.84</ele>
        <time>2018-04-21T10:29:44Z</time>
      </trkpt>
      <trkpt lat="44.98542" lon="3.78828">
        <ele>977.32</ele>
        <time>2018-04-21T10:29:59Z</time>
      </trkpt>
      <trkpt lat="44.98549" lon="3.78806">
        <ele>976.36</ele>
        <time>2018-04-21T10:30:14Z</time>
      </trkpt>
      <trkpt lat="44.98559" lon="3.78778">
        <ele>976.84</ele>
        <time>2018-04-21T10:30:33Z</time>
      </trkpt>
      <trkpt lat="44.98562" lon="3.78747">
        <ele>975.39</ele>
        <time>2018-04-21T10:30:53Z</time>
      </trkpt>
      <trkpt lat="44.98565" lon="3.78717">
        <ele>975.88</ele>
        <time>2018-04-21T10:31:13Z</time>
      </trkpt>
      <trkpt lat="44.9856" lon="3.787">
        <ele>975.39</ele>
        <time>2018-04-21T10:31:25Z</time>
      </trkpt>
      <trkpt lat="44.98549" lon="3.78668">
        <ele>975.88</ele>
        <time>2018-04-21T10:31:47Z</time>
      </trkpt>
      <trkpt lat="44.98537" lon="3.78638">
        <ele>977.32</ele>
        <time>2018-04-21T10:32:10Z</time>
      </trkpt>
      <trkpt lat="44.9853" lon="3.7863">
        <ele>978.28</ele>
        <time>2018-04-21T10:32:17Z</time>
      </trkpt>
      <trkpt lat="44.98509" lon="3.78609">
        <ele>980.2</ele>
        <time>2018-04-21T10:32:39Z</time>
      </trkpt>
      <trkpt lat="44.98498" lon="3.7859">
        <ele>982.12</ele>
        <time>2018-04-21T10:32:52Z</time>
      </trkpt>
      <trkpt lat="44.98486" lon="3.78562">
        <ele>982.12</ele>
        <time>2018-04-21T10:33:13Z</time>
      </trkpt>
      <trkpt lat="44.98474" lon="3.78535">
        <ele>980.68</ele>
        <time>2018-04-21T10:33:33Z</time>
      </trkpt>
      <trkpt lat="44.98464" lon="3.7851">
        <ele>979.72</ele>
        <time>2018-04-21T10:33:51Z</time>
      </trkpt>
      <trkpt lat="44.98459" lon="3.78497">
        <ele>978.76</ele>
        <time>2018-04-21T10:34:07Z</time>
      </trkpt>
      <trkpt lat="44.98449" lon="3.78474">
        <ele>977.8</ele>
        <time>2018-04-21T10:34:25Z</time>
      </trkpt>
      <trkpt lat="44.98435" lon="3.78451">
        <ele>977.8</ele>
        <time>2018-04-21T10:34:44Z</time>
      </trkpt>
      <trkpt lat="44.98411" lon="3.78423">
        <ele>981.16</ele>
        <time>2018-04-21T10:35:08Z</time>
      </trkpt>
      <trkpt lat="44.98403" lon="3.78409">
        <ele>983.09</ele>
        <time>2018-04-21T10:35:25Z</time>
      </trkpt>
      <trkpt lat="44.98406" lon="3.78407">
        <ele>984.05</ele>
        <time>2018-04-21T10:35:54Z</time>
      </trkpt>
      <trkpt lat="44.98401" lon="3.78399">
        <ele>985.49</ele>
        <time>2018-04-21T10:36:20Z</time>
      </trkpt>
      <trkpt lat="44.98389" lon="3.78378">
        <ele>986.93</ele>
        <time>2018-04-21T10:36:40Z</time>
      </trkpt>
      <trkpt lat="44.98377" lon="3.78356">
        <ele>985.97</ele>
        <time>2018-04-21T10:36:58Z</time>
      </trkpt>
      <trkpt lat="44.98363" lon="3.78324">
        <ele>986.93</ele>
        <time>2018-04-21T10:37:22Z</time>
      </trkpt>
      <trkpt lat="44.98355" lon="3.78298">
        <ele>987.89</ele>
        <time>2018-04-21T10:37:42Z</time>
      </trkpt>
      <trkpt lat="44.9835" lon="3.78269">
        <ele>989.33</ele>
        <time>2018-04-21T10:38:01Z</time>
      </trkpt>
      <trkpt lat="44.98348" lon="3.7825">
        <ele>990.78</ele>
        <time>2018-04-21T10:38:13Z</time>
      </trkpt>
      <trkpt lat="44.98338" lon="3.78223">
        <ele>989.33</ele>
        <time>2018-04-21T10:38:31Z</time>
      </trkpt>
      <trkpt lat="44.98334" lon="3.78197">
        <ele>989.33</ele>
        <time>2018-04-21T10:38:49Z</time>
      </trkpt>
      <trkpt lat="44.98329" lon="3.78164">
        <ele>989.33</ele>
        <time>2018-04-21T10:39:11Z</time>
      </trkpt>
      <trkpt lat="44.98322" lon="3.78136">
        <ele>989.81</ele>
        <time>2018-04-21T10:39:32Z</time>
      </trkpt>
      <trkpt lat="44.98312" lon="3.78104">
        <ele>989.81</ele>
        <time>2018-04-21T10:39:52Z</time>
      </trkpt>
      <trkpt lat="44.98303" lon="3.78078">
        <ele>991.74</ele>
        <time>2018-04-21T10:40:09Z</time>
      </trkpt>
      <trkpt lat="44.98293" lon="3.78058">
        <ele>992.7</ele>
        <time>2018-04-21T10:40:26Z</time>
      </trkpt>
      <trkpt lat="44.98279" lon="3.78028">
        <ele>993.18</ele>
        <time>2018-04-21T10:40:45Z</time>
      </trkpt>
      <trkpt lat="44.98271" lon="3.78002">
        <ele>993.18</ele>
        <time>2018-04-21T10:41:05Z</time>
      </trkpt>
      <trkpt lat="44.98266" lon="3.77962">
        <ele>993.66</ele>
        <time>2018-04-21T10:41:29Z</time>
      </trkpt>
      <trkpt lat="44.9826" lon="3.77929">
        <ele>992.7</ele>
        <time>2018-04-21T10:41:50Z</time>
      </trkpt>
      <trkpt lat="44.98256" lon="3.77895">
        <ele>992.7</ele>
        <time>2018-04-21T10:42:11Z</time>
      </trkpt>
      <trkpt lat="44.98251" lon="3.77864">
        <ele>993.18</ele>
        <time>2018-04-21T10:42:31Z</time>
      </trkpt>
      <trkpt lat="44.98249" lon="3.77833">
        <ele>994.62</ele>
        <time>2018-04-21T10:42:51Z</time>
      </trkpt>
      <trkpt lat="44.98244" lon="3.77797">
        <ele>996.06</ele>
        <time>2018-04-21T10:43:14Z</time>
      </trkpt>
      <trkpt lat="44.98239" lon="3.77764">
        <ele>997.02</ele>
        <time>2018-04-21T10:43:35Z</time>
      </trkpt>
      <trkpt lat="44.98232" lon="3.77738">
        <ele>997.99</ele>
        <time>2018-04-21T10:43:53Z</time>
      </trkpt>
      <trkpt lat="44.98225" lon="3.77707">
        <ele>998.95</ele>
        <time>2018-04-21T10:44:13Z</time>
      </trkpt>
      <trkpt lat="44.98218" lon="3.77677">
        <ele>1001.35</ele>
        <time>2018-04-21T10:44:31Z</time>
      </trkpt>
      <trkpt lat="44.98218" lon="3.77649">
        <ele>1002.79</ele>
        <time>2018-04-21T10:44:49Z</time>
      </trkpt>
      <trkpt lat="44.9822" lon="3.7762">
        <ele>1002.79</ele>
        <time>2018-04-21T10:45:06Z</time>
      </trkpt>
      <trkpt lat="44.98221" lon="3.77611">
        <ele>1003.27</ele>
        <time>2018-04-21T10:45:11Z</time>
      </trkpt>
      <trkpt lat="44.98218" lon="3.77587">
        <ele>1003.27</ele>
        <time>2018-04-21T10:45:27Z</time>
      </trkpt>
      <trkpt lat="44.98217" lon="3.77577">
        <ele>1004.23</ele>
        <time>2018-04-21T10:45:45Z</time>
      </trkpt>
      <trkpt lat="44.9821" lon="3.7756">
        <ele>1004.23</ele>
        <time>2018-04-21T10:46:03Z</time>
      </trkpt>
      <trkpt lat="44.98208" lon="3.7755">
        <ele>1005.2</ele>
        <time>2018-04-21T10:46:17Z</time>
      </trkpt>
      <trkpt lat="44.98201" lon="3.77536">
        <ele>1005.68</ele>
        <time>2018-04-21T10:46:34Z</time>
      </trkpt>
      <trkpt lat="44.98195" lon="3.77506">
        <ele>1007.12</ele>
        <time>2018-04-21T10:46:56Z</time>
      </trkpt>
      <trkpt lat="44.98194" lon="3.77502">
        <ele>1008.56</ele>
        <time>2018-04-21T10:47:08Z</time>
      </trkpt>
      <trkpt lat="44.98194" lon="3.77498">
        <ele>1007.6</ele>
        <time>2018-04-21T10:47:12Z</time>
      </trkpt>
      <trkpt lat="44.98192" lon="3.7749">
        <ele>1006.16</ele>
        <time>2018-04-21T10:47:18Z</time>
      </trkpt>
      <trkpt lat="44.98192" lon="3.77489">
        <ele>1005.68</ele>
        <time>2018-04-21T10:47:19Z</time>
      </trkpt>
      <trkpt lat="44.98187" lon="3.77467">
        <ele>1005.68</ele>
        <time>2018-04-21T10:47:33Z</time>
      </trkpt>
      <trkpt lat="44.98182" lon="3.77441">
        <ele>1006.64</ele>
        <time>2018-04-21T10:47:51Z</time>
      </trkpt>
      <trkpt lat="44.9818" lon="3.77415">
        <ele>1006.16</ele>
        <time>2018-04-21T10:48:07Z</time>
      </trkpt>
      <trkpt lat="44.9818" lon="3.77413">
        <ele>1006.16</ele>
        <time>2018-04-21T10:48:08Z</time>
      </trkpt>
      <trkpt lat="44.9818" lon="3.77386">
        <ele>1007.6</ele>
        <time>2018-04-21T10:48:24Z</time>
      </trkpt>
      <trkpt lat="44.9818" lon="3.77379">
        <ele>1007.6</ele>
        <time>2018-04-21T10:48:28Z</time>
      </trkpt>
      <trkpt lat="44.9818" lon="3.77377">
        <ele>1007.6</ele>
        <time>2018-04-21T10:48:29Z</time>
      </trkpt>
      <trkpt lat="44.9818" lon="3.77375">
        <ele>1007.6</ele>
        <time>2018-04-21T10:48:30Z</time>
      </trkpt>
      <trkpt lat="44.9818" lon="3.77353">
        <ele>1008.56</ele>
        <time>2018-04-21T10:48:45Z</time>
      </trkpt>
      <trkpt lat="44.98179" lon="3.77326">
        <ele>1009.04</ele>
        <time>2018-04-21T10:49:01Z</time>
      </trkpt>
      <trkpt lat="44.98176" lon="3.77301">
        <ele>1010</ele>
        <time>2018-04-21T10:49:17Z</time>
      </trkpt>
      <trkpt lat="44.98175" lon="3.77279">
        <ele>1009.52</ele>
        <time>2018-04-21T10:49:31Z</time>
      </trkpt>
      <trkpt lat="44.98172" lon="3.77254">
        <ele>1010</ele>
        <time>2018-04-21T10:49:46Z</time>
      </trkpt>
      <trkpt lat="44.98172" lon="3.77236">
        <ele>1010</ele>
        <time>2018-04-21T10:50:00Z</time>
      </trkpt>
      <trkpt lat="44.98171" lon="3.77215">
        <ele>1011.44</ele>
        <time>2018-04-21T10:50:14Z</time>
      </trkpt>
      <trkpt lat="44.98173" lon="3.77187">
        <ele>1012.89</ele>
        <time>2018-04-21T10:50:31Z</time>
      </trkpt>
      <trkpt lat="44.98176" lon="3.77154">
        <ele>1014.33</ele>
        <time>2018-04-21T10:50:50Z</time>
      </trkpt>
      <trkpt lat="44.98176" lon="3.7715">
        <ele>1014.81</ele>
        <time>2018-04-21T10:50:52Z</time>
      </trkpt>
      <trkpt lat="44.98176" lon="3.7713">
        <ele>1015.29</ele>
        <time>2018-04-21T10:51:04Z</time>
      </trkpt>
      <trkpt lat="44.9818" lon="3.77098">
        <ele>1016.73</ele>
        <time>2018-04-21T10:51:23Z</time>
      </trkpt>
      <trkpt lat="44.98182" lon="3.77073">
        <ele>1016.73</ele>
        <time>2018-04-21T10:51:39Z</time>
      </trkpt>
      <trkpt lat="44.98186" lon="3.77047">
        <ele>1017.69</ele>
        <time>2018-04-21T10:51:56Z</time>
      </trkpt>
      <trkpt lat="44.98191" lon="3.77017">
        <ele>1018.65</ele>
        <time>2018-04-21T10:52:14Z</time>
      </trkpt>
      <trkpt lat="44.98194" lon="3.7699">
        <ele>1019.62</ele>
        <time>2018-04-21T10:52:30Z</time>
      </trkpt>
      <trkpt lat="44.98194" lon="3.76961">
        <ele>1019.62</ele>
        <time>2018-04-21T10:52:49Z</time>
      </trkpt>
      <trkpt lat="44.98193" lon="3.76935">
        <ele>1020.1</ele>
        <time>2018-04-21T10:53:05Z</time>
      </trkpt>
      <trkpt lat="44.9819" lon="3.76907">
        <ele>1020.58</ele>
        <time>2018-04-21T10:53:22Z</time>
      </trkpt>
      <trkpt lat="44.98191" lon="3.76882">
        <ele>1022.02</ele>
        <time>2018-04-21T10:53:37Z</time>
      </trkpt>
      <trkpt lat="44.98196" lon="3.76852">
        <ele>1022.02</ele>
        <time>2018-04-21T10:53:55Z</time>
      </trkpt>
      <trkpt lat="44.982" lon="3.76825">
        <ele>1022.98</ele>
        <time>2018-04-21T10:54:13Z</time>
      </trkpt>
      <trkpt lat="44.98208" lon="3.76793">
        <ele>1023.94</ele>
        <time>2018-04-21T10:54:32Z</time>
      </trkpt>
      <trkpt lat="44.98208" lon="3.76764">
        <ele>1023.94</ele>
        <time>2018-04-21T10:54:49Z</time>
      </trkpt>
      <trkpt lat="44.98212" lon="3.76734">
        <ele>1026.34</ele>
        <time>2018-04-21T10:55:06Z</time>
      </trkpt>
      <trkpt lat="44.98214" lon="3.76701">
        <ele>1027.79</ele>
        <time>2018-04-21T10:55:26Z</time>
      </trkpt>
      <trkpt lat="44.98217" lon="3.76673">
        <ele>1029.23</ele>
        <time>2018-04-21T10:55:43Z</time>
      </trkpt>
      <trkpt lat="44.98213" lon="3.76638">
        <ele>1030.67</ele>
        <time>2018-04-21T10:56:03Z</time>
      </trkpt>
      <trkpt lat="44.98211" lon="3.76612">
        <ele>1031.15</ele>
        <time>2018-04-21T10:56:20Z</time>
      </trkpt>
      <trkpt lat="44.98206" lon="3.7658">
        <ele>1030.67</ele>
        <time>2018-04-21T10:56:37Z</time>
      </trkpt>
      <trkpt lat="44.98204" lon="3.76552">
        <ele>1032.59</ele>
        <time>2018-04-21T10:56:55Z</time>
      </trkpt>
      <trkpt lat="44.98206" lon="3.76534">
        <ele>1033.55</ele>
        <time>2018-04-21T10:57:12Z</time>
      </trkpt>
      <trkpt lat="44.98218" lon="3.76525">
        <ele>1032.59</ele>
        <time>2018-04-21T10:57:30Z</time>
      </trkpt>
      <trkpt lat="44.9823" lon="3.76513">
        <ele>1032.11</ele>
        <time>2018-04-21T10:57:46Z</time>
      </trkpt>
      <trkpt lat="44.98244" lon="3.76498">
        <ele>1031.15</ele>
        <time>2018-04-21T10:58:01Z</time>
      </trkpt>
      <trkpt lat="44.9826" lon="3.76483">
        <ele>1031.63</ele>
        <time>2018-04-21T10:58:18Z</time>
      </trkpt>
      <trkpt lat="44.98275" lon="3.76468">
        <ele>1031.15</ele>
        <time>2018-04-21T10:58:35Z</time>
      </trkpt>
      <trkpt lat="44.98285" lon="3.76455">
        <ele>1031.63</ele>
        <time>2018-04-21T10:58:46Z</time>
      </trkpt>
      <trkpt lat="44.98298" lon="3.76426">
        <ele>1032.11</ele>
        <time>2018-04-21T10:59:04Z</time>
      </trkpt>
      <trkpt lat="44.98302" lon="3.76409">
        <ele>1033.07</ele>
        <time>2018-04-21T10:59:22Z</time>
      </trkpt>
      <trkpt lat="44.98309" lon="3.7639">
        <ele>1036.44</ele>
        <time>2018-04-21T10:59:39Z</time>
      </trkpt>
      <trkpt lat="44.98316" lon="3.76374">
        <ele>1037.4</ele>
        <time>2018-04-21T10:59:55Z</time>
      </trkpt>
      <trkpt lat="44.98325" lon="3.76366">
        <ele>1035.48</ele>
        <time>2018-04-21T11:00:12Z</time>
      </trkpt>
      <trkpt lat="44.98325" lon="3.76364">
        <ele>1035.96</ele>
        <time>2018-04-21T11:00:28Z</time>
      </trkpt>
      <trkpt lat="44.98325" lon="3.76366">
        <ele>1035.96</ele>
        <time>2018-04-21T11:00:48Z</time>
      </trkpt>
      <trkpt lat="44.98325" lon="3.76366">
        <ele>1037.4</ele>
        <time>2018-04-21T11:01:00Z</time>
      </trkpt>
      <trkpt lat="44.98321" lon="3.76351">
        <ele>1037.4</ele>
        <time>2018-04-21T11:01:19Z</time>
      </trkpt>
      <trkpt lat="44.98318" lon="3.76349">
        <ele>1037.88</ele>
        <time>2018-04-21T11:01:32Z</time>
      </trkpt>
      <trkpt lat="44.9831" lon="3.76325">
        <ele>1038.36</ele>
        <time>2018-04-21T11:01:48Z</time>
      </trkpt>
      <trkpt lat="44.98309" lon="3.76321">
        <ele>1038.36</ele>
        <time>2018-04-21T11:01:51Z</time>
      </trkpt>
      <trkpt lat="44.98294" lon="3.76311">
        <ele>1037.88</ele>
        <time>2018-04-21T11:02:07Z</time>
      </trkpt>
      <trkpt lat="44.98275" lon="3.76305">
        <ele>1037.4</ele>
        <time>2018-04-21T11:02:22Z</time>
      </trkpt>
      <trkpt lat="44.98257" lon="3.76298">
        <ele>1038.84</ele>
        <time>2018-04-21T11:02:38Z</time>
      </trkpt>
      <trkpt lat="44.98238" lon="3.76294">
        <ele>1038.84</ele>
        <time>2018-04-21T11:02:53Z</time>
      </trkpt>
      <trkpt lat="44.98221" lon="3.76287">
        <ele>1043.17</ele>
        <time>2018-04-21T11:03:09Z</time>
      </trkpt>
      <trkpt lat="44.98216" lon="3.76287">
        <ele>1042.69</ele>
        <time>2018-04-21T11:03:24Z</time>
      </trkpt>
      <trkpt lat="44.98221" lon="3.76288">
        <ele>1041.73</ele>
        <time>2018-04-21T11:03:34Z</time>
      </trkpt>
      <trkpt lat="44.9822" lon="3.7629">
        <ele>1040.76</ele>
        <time>2018-04-21T11:03:45Z</time>
      </trkpt>
      <trkpt lat="44.98202" lon="3.76283">
        <ele>1039.8</ele>
        <time>2018-04-21T11:04:01Z</time>
      </trkpt>
      <trkpt lat="44.98187" lon="3.76272">
        <ele>1040.28</ele>
        <time>2018-04-21T11:04:17Z</time>
      </trkpt>
      <trkpt lat="44.98183" lon="3.76269">
        <ele>1041.25</ele>
        <time>2018-04-21T11:04:28Z</time>
      </trkpt>
      <trkpt lat="44.98176" lon="3.76244">
        <ele>1042.69</ele>
        <time>2018-04-21T11:04:46Z</time>
      </trkpt>
      <trkpt lat="44.9817" lon="3.76218">
        <ele>1045.09</ele>
        <time>2018-04-21T11:05:02Z</time>
      </trkpt>
      <trkpt lat="44.98168" lon="3.76185">
        <ele>1047.01</ele>
        <time>2018-04-21T11:05:22Z</time>
      </trkpt>
      <trkpt lat="44.98168" lon="3.76155">
        <ele>1046.53</ele>
        <time>2018-04-21T11:05:39Z</time>
      </trkpt>
      <trkpt lat="44.98168" lon="3.76122">
        <ele>1047.97</ele>
        <time>2018-04-21T11:05:57Z</time>
      </trkpt>
      <trkpt lat="44.98162" lon="3.76114">
        <ele>1047.49</ele>
        <time>2018-04-21T11:06:05Z</time>
      </trkpt>
      <trkpt lat="44.98143" lon="3.76103">
        <ele>1045.57</ele>
        <time>2018-04-21T11:06:23Z</time>
      </trkpt>
      <trkpt lat="44.98125" lon="3.76092">
        <ele>1045.57</ele>
        <time>2018-04-21T11:06:39Z</time>
      </trkpt>
      <trkpt lat="44.98116" lon="3.76077">
        <ele>1046.53</ele>
        <time>2018-04-21T11:06:51Z</time>
      </trkpt>
      <trkpt lat="44.9812" lon="3.76046">
        <ele>1048.94</ele>
        <time>2018-04-21T11:07:11Z</time>
      </trkpt>
      <trkpt lat="44.98123" lon="3.76036">
        <ele>1051.82</ele>
        <time>2018-04-21T11:07:27Z</time>
      </trkpt>
      <trkpt lat="44.98126" lon="3.76029">
        <ele>1052.3</ele>
        <time>2018-04-21T11:07:33Z</time>
      </trkpt>
      <trkpt lat="44.98136" lon="3.76002">
        <ele>1053.26</ele>
        <time>2018-04-21T11:07:50Z</time>
      </trkpt>
      <trkpt lat="44.98143" lon="3.75974">
        <ele>1052.3</ele>
        <time>2018-04-21T11:08:09Z</time>
      </trkpt>
      <trkpt lat="44.98154" lon="3.75945">
        <ele>1051.82</ele>
        <time>2018-04-21T11:08:29Z</time>
      </trkpt>
      <trkpt lat="44.98162" lon="3.75917">
        <ele>1050.38</ele>
        <time>2018-04-21T11:08:47Z</time>
      </trkpt>
      <trkpt lat="44.98173" lon="3.75892">
        <ele>1051.34</ele>
        <time>2018-04-21T11:09:04Z</time>
      </trkpt>
      <trkpt lat="44.98183" lon="3.75867">
        <ele>1050.86</ele>
        <time>2018-04-21T11:09:20Z</time>
      </trkpt>
      <trkpt lat="44.98194" lon="3.75842">
        <ele>1051.34</ele>
        <time>2018-04-21T11:09:37Z</time>
      </trkpt>
      <trkpt lat="44.98202" lon="3.75819">
        <ele>1051.34</ele>
        <time>2018-04-21T11:09:53Z</time>
      </trkpt>
      <trkpt lat="44.98209" lon="3.75792">
        <ele>1051.82</ele>
        <time>2018-04-21T11:10:12Z</time>
      </trkpt>
      <trkpt lat="44.98217" lon="3.75765">
        <ele>1051.82</ele>
        <time>2018-04-21T11:10:29Z</time>
      </trkpt>
      <trkpt lat="44.98224" lon="3.7574">
        <ele>1050.86</ele>
        <time>2018-04-21T11:10:46Z</time>
      </trkpt>
      <trkpt lat="44.9823" lon="3.75715">
        <ele>1049.42</ele>
        <time>2018-04-21T11:11:03Z</time>
      </trkpt>
      <trkpt lat="44.98238" lon="3.75686">
        <ele>1049.9</ele>
        <time>2018-04-21T11:11:22Z</time>
      </trkpt>
      <trkpt lat="44.98247" lon="3.7566">
        <ele>1052.3</ele>
        <time>2018-04-21T11:11:39Z</time>
      </trkpt>
      <trkpt lat="44.98255" lon="3.75633">
        <ele>1053.74</ele>
        <time>2018-04-21T11:11:56Z</time>
      </trkpt>
      <trkpt lat="44.98264" lon="3.75606">
        <ele>1055.18</ele>
        <time>2018-04-21T11:12:14Z</time>
      </trkpt>
      <trkpt lat="44.98272" lon="3.75579">
        <ele>1056.15</ele>
        <time>2018-04-21T11:12:31Z</time>
      </trkpt>
      <trkpt lat="44.98279" lon="3.75553">
        <ele>1056.63</ele>
        <time>2018-04-21T11:12:48Z</time>
      </trkpt>
      <trkpt lat="44.98287" lon="3.75528">
        <ele>1056.63</ele>
        <time>2018-04-21T11:13:04Z</time>
      </trkpt>
      <trkpt lat="44.98296" lon="3.755">
        <ele>1058.55</ele>
        <time>2018-04-21T11:13:22Z</time>
      </trkpt>
      <trkpt lat="44.98305" lon="3.75473">
        <ele>1060.47</ele>
        <time>2018-04-21T11:13:39Z</time>
      </trkpt>
      <trkpt lat="44.98311" lon="3.75451">
        <ele>1059.99</ele>
        <time>2018-04-21T11:13:55Z</time>
      </trkpt>
      <trkpt lat="44.98321" lon="3.75421">
        <ele>1060.95</ele>
        <time>2018-04-21T11:14:15Z</time>
      </trkpt>
      <trkpt lat="44.98329" lon="3.7539">
        <ele>1062.39</ele>
        <time>2018-04-21T11:14:34Z</time>
      </trkpt>
      <trkpt lat="44.98341" lon="3.75358">
        <ele>1063.84</ele>
        <time>2018-04-21T11:14:56Z</time>
      </trkpt>
      <trkpt lat="44.98354" lon="3.75333">
        <ele>1065.76</ele>
        <time>2018-04-21T11:15:13Z</time>
      </trkpt>
      <trkpt lat="44.98363" lon="3.75312">
        <ele>1064.8</ele>
        <time>2018-04-21T11:15:29Z</time>
      </trkpt>
      <trkpt lat="44.98375" lon="3.75293">
        <ele>1060.47</ele>
        <time>2018-04-21T11:15:47Z</time>
      </trkpt>
      <trkpt lat="44.98395" lon="3.75271">
        <ele>1059.03</ele>
        <time>2018-04-21T11:16:05Z</time>
      </trkpt>
      <trkpt lat="44.98405" lon="3.75248">
        <ele>1058.55</ele>
        <time>2018-04-21T11:16:21Z</time>
      </trkpt>
      <trkpt lat="44.98418" lon="3.75222">
        <ele>1060.95</ele>
        <time>2018-04-21T11:16:40Z</time>
      </trkpt>
      <trkpt lat="44.98427" lon="3.75198">
        <ele>1061.43</ele>
        <time>2018-04-21T11:16:56Z</time>
      </trkpt>
      <trkpt lat="44.98438" lon="3.75173">
        <ele>1061.91</ele>
        <time>2018-04-21T11:17:12Z</time>
      </trkpt>
      <trkpt lat="44.98451" lon="3.75149">
        <ele>1064.8</ele>
        <time>2018-04-21T11:17:29Z</time>
      </trkpt>
      <trkpt lat="44.98463" lon="3.75122">
        <ele>1067.68</ele>
        <time>2018-04-21T11:17:47Z</time>
      </trkpt>
      <trkpt lat="44.98474" lon="3.75096">
        <ele>1069.12</ele>
        <time>2018-04-21T11:18:04Z</time>
      </trkpt>
      <trkpt lat="44.98479" lon="3.75083">
        <ele>1069.12</ele>
        <time>2018-04-21T11:18:21Z</time>
      </trkpt>
      <trkpt lat="44.98477" lon="3.75075">
        <ele>1071.05</ele>
        <time>2018-04-21T11:18:37Z</time>
      </trkpt>
      <trkpt lat="44.98478" lon="3.7508">
        <ele>1070.08</ele>
        <time>2018-04-21T11:19:03Z</time>
      </trkpt>
      <trkpt lat="44.98478" lon="3.75078">
        <ele>1065.76</ele>
        <time>2018-04-21T11:19:32Z</time>
      </trkpt>
      <trkpt lat="44.98478" lon="3.75078">
        <ele>1071.05</ele>
        <time>2018-04-21T11:20:02Z</time>
      </trkpt>
      <trkpt lat="44.98473" lon="3.75082">
        <ele>1070.08</ele>
        <time>2018-04-21T11:20:19Z</time>
      </trkpt>
      <trkpt lat="44.98475" lon="3.75081">
        <ele>1071.05</ele>
        <time>2018-04-21T11:20:54Z</time>
      </trkpt>
      <trkpt lat="44.98482" lon="3.75073">
        <ele>1071.05</ele>
        <time>2018-04-21T11:21:10Z</time>
      </trkpt>
      <trkpt lat="44.98485" lon="3.75071">
        <ele>1071.05</ele>
        <time>2018-04-21T11:21:13Z</time>
      </trkpt>
      <trkpt lat="44.98494" lon="3.75052">
        <ele>1069.6</ele>
        <time>2018-04-21T11:21:30Z</time>
      </trkpt>
      <trkpt lat="44.98502" lon="3.75036">
        <ele>1068.64</ele>
        <time>2018-04-21T11:21:45Z</time>
      </trkpt>
      <trkpt lat="44.98512" lon="3.75013">
        <ele>1069.12</ele>
        <time>2018-04-21T11:22:02Z</time>
      </trkpt>
      <trkpt lat="44.98515" lon="3.75006">
        <ele>1070.08</ele>
        <time>2018-04-21T11:22:07Z</time>
      </trkpt>
      <trkpt lat="44.98526" lon="3.74978">
        <ele>1069.6</ele>
        <time>2018-04-21T11:22:27Z</time>
      </trkpt>
      <trkpt lat="44.98539" lon="3.74949">
        <ele>1067.68</ele>
        <time>2018-04-21T11:22:46Z</time>
      </trkpt>
      <trkpt lat="44.98547" lon="3.74918">
        <ele>1068.64</ele>
        <time>2018-04-21T11:23:07Z</time>
      </trkpt>
      <trkpt lat="44.98557" lon="3.74883">
        <ele>1070.57</ele>
        <time>2018-04-21T11:23:27Z</time>
      </trkpt>
      <trkpt lat="44.98562" lon="3.74854">
        <ele>1072.49</ele>
        <time>2018-04-21T11:23:47Z</time>
      </trkpt>
      <trkpt lat="44.98571" lon="3.74816">
        <ele>1074.41</ele>
        <time>2018-04-21T11:24:12Z</time>
      </trkpt>
      <trkpt lat="44.98579" lon="3.74788">
        <ele>1073.93</ele>
        <time>2018-04-21T11:24:31Z</time>
      </trkpt>
      <trkpt lat="44.98591" lon="3.74757">
        <ele>1076.81</ele>
        <time>2018-04-21T11:24:52Z</time>
      </trkpt>
      <trkpt lat="44.98603" lon="3.74745">
        <ele>1079.7</ele>
        <time>2018-04-21T11:25:09Z</time>
      </trkpt>
      <trkpt lat="44.98602" lon="3.7475">
        <ele>1080.66</ele>
        <time>2018-04-21T11:25:27Z</time>
      </trkpt>
      <trkpt lat="44.98604" lon="3.74751">
        <ele>1082.58</ele>
        <time>2018-04-21T11:25:51Z</time>
      </trkpt>
      <trkpt lat="44.98603" lon="3.74768">
        <ele>1085.95</ele>
        <time>2018-04-21T11:26:13Z</time>
      </trkpt>
      <trkpt lat="44.986" lon="3.7476">
        <ele>1084.99</ele>
        <time>2018-04-21T11:26:41Z</time>
      </trkpt>
      <trkpt lat="44.98598" lon="3.74763">
        <ele>1084.02</ele>
        <time>2018-04-21T11:27:10Z</time>
      </trkpt>
      <trkpt lat="44.98595" lon="3.74769">
        <ele>1083.54</ele>
        <time>2018-04-21T11:27:34Z</time>
      </trkpt>
      <trkpt lat="44.9859" lon="3.74771">
        <ele>1085.47</ele>
        <time>2018-04-21T11:28:01Z</time>
      </trkpt>
      <trkpt lat="44.98591" lon="3.74775">
        <ele>1084.5</ele>
        <time>2018-04-21T11:28:24Z</time>
      </trkpt>
      <trkpt lat="44.98591" lon="3.74772">
        <ele>1084.99</ele>
        <time>2018-04-21T11:28:44Z</time>
      </trkpt>
      <trkpt lat="44.98584" lon="3.74764">
        <ele>1089.31</ele>
        <time>2018-04-21T11:29:09Z</time>
      </trkpt>
      <trkpt lat="44.98595" lon="3.74754">
        <ele>1089.31</ele>
        <time>2018-04-21T11:29:36Z</time>
      </trkpt>
      <trkpt lat="44.98589" lon="3.74747">
        <ele>1089.79</ele>
        <time>2018-04-21T11:29:59Z</time>
      </trkpt>
      <trkpt lat="44.98592" lon="3.74749">
        <ele>1093.16</ele>
        <time>2018-04-21T11:30:26Z</time>
      </trkpt>
      <trkpt lat="44.98599" lon="3.74754">
        <ele>1084.02</ele>
        <time>2018-04-21T11:30:50Z</time>
      </trkpt>
      <trkpt lat="44.98606" lon="3.74749">
        <ele>1086.43</ele>
        <time>2018-04-21T11:31:12Z</time>
      </trkpt>
      <trkpt lat="44.9861" lon="3.74748">
        <ele>1086.43</ele>
        <time>2018-04-21T11:31:36Z</time>
      </trkpt>
      <trkpt lat="44.98605" lon="3.74744">
        <ele>1084.99</ele>
        <time>2018-04-21T11:32:01Z</time>
      </trkpt>
      <trkpt lat="44.98601" lon="3.74759">
        <ele>1081.62</ele>
        <time>2018-04-21T11:32:25Z</time>
      </trkpt>
      <trkpt lat="44.98602" lon="3.74753">
        <ele>1079.7</ele>
        <time>2018-04-21T11:32:52Z</time>
      </trkpt>
      <trkpt lat="44.98603" lon="3.7476">
        <ele>1075.85</ele>
        <time>2018-04-21T11:33:17Z</time>
      </trkpt>
      <trkpt lat="44.98607" lon="3.74751">
        <ele>1072.49</ele>
        <time>2018-04-21T11:33:44Z</time>
      </trkpt>
      <trkpt lat="44.98616" lon="3.74704">
        <ele>1067.68</ele>
        <time>2018-04-21T11:34:14Z</time>
      </trkpt>
      <trkpt lat="44.98611" lon="3.74725">
        <ele>1067.68</ele>
        <time>2018-04-21T11:34:38Z</time>
      </trkpt>
      <trkpt lat="44.98601" lon="3.74748">
        <ele>1070.57</ele>
        <time>2018-04-21T11:35:09Z</time>
      </trkpt>
      <trkpt lat="44.98604" lon="3.74741">
        <ele>1067.68</ele>
        <time>2018-04-21T11:35:37Z</time>
      </trkpt>
      <trkpt lat="44.98604" lon="3.7475">
        <ele>1064.8</ele>
        <time>2018-04-21T11:35:47Z</time>
      </trkpt>
      <trkpt lat="44.986" lon="3.74769">
        <ele>1064.8</ele>
        <time>2018-04-21T11:36:07Z</time>
      </trkpt>
      <trkpt lat="44.98602" lon="3.74759">
        <ele>1065.76</ele>
        <time>2018-04-21T11:36:32Z</time>
      </trkpt>
      <trkpt lat="44.98606" lon="3.74738">
        <ele>1061.91</ele>
        <time>2018-04-21T11:37:00Z</time>
      </trkpt>
      <trkpt lat="44.98605" lon="3.74741">
        <ele>1067.68</ele>
        <time>2018-04-21T11:37:21Z</time>
      </trkpt>
      <trkpt lat="44.98603" lon="3.74734">
        <ele>1072.01</ele>
        <time>2018-04-21T11:37:42Z</time>
      </trkpt>
      <trkpt lat="44.986" lon="3.74747">
        <ele>1080.66</ele>
        <time>2018-04-21T11:38:04Z</time>
      </trkpt>
      <trkpt lat="44.98591" lon="3.74759">
        <ele>1077.29</ele>
        <time>2018-04-21T11:38:44Z</time>
      </trkpt>
      <trkpt lat="44.98595" lon="3.74757">
        <ele>1082.1</ele>
        <time>2018-04-21T11:39:21Z</time>
      </trkpt>
      <trkpt lat="44.98595" lon="3.74753">
        <ele>1068.16</ele>
        <time>2018-04-21T11:40:04Z</time>
      </trkpt>
      <trkpt lat="44.98607" lon="3.74744">
        <ele>1081.14</ele>
        <time>2018-04-21T11:40:50Z</time>
      </trkpt>
      <trkpt lat="44.98606" lon="3.74755">
        <ele>1083.06</ele>
        <time>2018-04-21T11:41:35Z</time>
      </trkpt>
      <trkpt lat="44.98601" lon="3.74754">
        <ele>1086.43</ele>
        <time>2018-04-21T11:42:22Z</time>
      </trkpt>
      <trkpt lat="44.98603" lon="3.74752">
        <ele>1089.31</ele>
        <time>2018-04-21T11:42:59Z</time>
      </trkpt>
      <trkpt lat="44.98605" lon="3.74749">
        <ele>1089.79</ele>
        <time>2018-04-21T11:43:34Z</time>
      </trkpt>
      <trkpt lat="44.986" lon="3.74755">
        <ele>1083.06</ele>
        <time>2018-04-21T11:44:08Z</time>
      </trkpt>
      <trkpt lat="44.986" lon="3.74752">
        <ele>1081.62</ele>
        <time>2018-04-21T11:44:45Z</time>
      </trkpt>
      <trkpt lat="44.98602" lon="3.74748">
        <ele>1083.54</ele>
        <time>2018-04-21T11:45:21Z</time>
      </trkpt>
      <trkpt lat="44.986" lon="3.74751">
        <ele>1083.06</ele>
        <time>2018-04-21T11:45:54Z</time>
      </trkpt>
      <trkpt lat="44.98603" lon="3.74747">
        <ele>1080.18</ele>
        <time>2018-04-21T11:46:38Z</time>
      </trkpt>
      <trkpt lat="44.98604" lon="3.74751">
        <ele>1079.7</ele>
        <time>2018-04-21T11:47:01Z</time>
      </trkpt>
      <trkpt lat="44.98594" lon="3.74752">
        <ele>1079.7</ele>
        <time>2018-04-21T11:47:28Z</time>
      </trkpt>
      <trkpt lat="44.98607" lon="3.74742">
        <ele>1081.62</ele>
        <time>2018-04-21T11:47:53Z</time>
      </trkpt>
      <trkpt lat="44.986" lon="3.74741">
        <ele>1080.66</ele>
        <time>2018-04-21T11:48:12Z</time>
      </trkpt>
      <trkpt lat="44.98605" lon="3.74724">
        <ele>1081.14</ele>
        <time>2018-04-21T11:48:35Z</time>
      </trkpt>
      <trkpt lat="44.98616" lon="3.74706">
        <ele>1079.7</ele>
        <time>2018-04-21T11:48:55Z</time>
      </trkpt>
      <trkpt lat="44.98633" lon="3.74686">
        <ele>1083.54</ele>
        <time>2018-04-21T11:49:19Z</time>
      </trkpt>
      <trkpt lat="44.98652" lon="3.74667">
        <ele>1085.95</ele>
        <time>2018-04-21T11:49:41Z</time>
      </trkpt>
      <trkpt lat="44.98661" lon="3.74657">
        <ele>1086.43</ele>
        <time>2018-04-21T11:50:01Z</time>
      </trkpt>
      <trkpt lat="44.98678" lon="3.74638">
        <ele>1085.95</ele>
        <time>2018-04-21T11:50:22Z</time>
      </trkpt>
      <trkpt lat="44.98693" lon="3.7462">
        <ele>1085.47</ele>
        <time>2018-04-21T11:50:39Z</time>
      </trkpt>
      <trkpt lat="44.98701" lon="3.7461">
        <ele>1088.35</ele>
        <time>2018-04-21T11:50:57Z</time>
      </trkpt>
      <trkpt lat="44.98706" lon="3.74607">
        <ele>1087.87</ele>
        <time>2018-04-21T11:51:13Z</time>
      </trkpt>
      <trkpt lat="44.98715" lon="3.74613">
        <ele>1090.27</ele>
        <time>2018-04-21T11:51:40Z</time>
      </trkpt>
      <trkpt lat="44.98735" lon="3.74613">
        <ele>1084.99</ele>
        <time>2018-04-21T11:52:00Z</time>
      </trkpt>
      <trkpt lat="44.98746" lon="3.74598">
        <ele>1081.14</ele>
        <time>2018-04-21T11:52:18Z</time>
      </trkpt>
      <trkpt lat="44.9876" lon="3.74608">
        <ele>1079.22</ele>
        <time>2018-04-21T11:52:27Z</time>
      </trkpt>
      <trkpt lat="44.98792" lon="3.74619">
        <ele>1080.66</ele>
        <time>2018-04-21T11:52:48Z</time>
      </trkpt>
      <trkpt lat="44.98816" lon="3.74631">
        <ele>1082.1</ele>
        <time>2018-04-21T11:53:09Z</time>
      </trkpt>
      <trkpt lat="44.98834" lon="3.74644">
        <ele>1081.62</ele>
        <time>2018-04-21T11:53:27Z</time>
      </trkpt>
      <trkpt lat="44.98856" lon="3.74665">
        <ele>1080.66</ele>
        <time>2018-04-21T11:53:49Z</time>
      </trkpt>
      <trkpt lat="44.98875" lon="3.74651">
        <ele>1081.14</ele>
        <time>2018-04-21T11:54:07Z</time>
      </trkpt>
      <trkpt lat="44.98882" lon="3.74627">
        <ele>1081.62</ele>
        <time>2018-04-21T11:54:24Z</time>
      </trkpt>
      <trkpt lat="44.98883" lon="3.74619">
        <ele>1081.62</ele>
        <time>2018-04-21T11:54:42Z</time>
      </trkpt>
      <trkpt lat="44.9889" lon="3.74613">
        <ele>1082.1</ele>
        <time>2018-04-21T11:54:59Z</time>
      </trkpt>
      <trkpt lat="44.98896" lon="3.7461">
        <ele>1083.06</ele>
        <time>2018-04-21T11:55:03Z</time>
      </trkpt>
      <trkpt lat="44.98913" lon="3.74587">
        <ele>1084.5</ele>
        <time>2018-04-21T11:55:23Z</time>
      </trkpt>
      <trkpt lat="44.98928" lon="3.74566">
        <ele>1087.87</ele>
        <time>2018-04-21T11:55:43Z</time>
      </trkpt>
      <trkpt lat="44.98938" lon="3.74548">
        <ele>1086.43</ele>
        <time>2018-04-21T11:56:00Z</time>
      </trkpt>
      <trkpt lat="44.98959" lon="3.74524">
        <ele>1091.71</ele>
        <time>2018-04-21T11:56:21Z</time>
      </trkpt>
      <trkpt lat="44.98968" lon="3.74494">
        <ele>1094.12</ele>
        <time>2018-04-21T11:56:42Z</time>
      </trkpt>
      <trkpt lat="44.98975" lon="3.74471">
        <ele>1092.68</ele>
        <time>2018-04-21T11:57:02Z</time>
      </trkpt>
      <trkpt lat="44.98981" lon="3.74442">
        <ele>1094.12</ele>
        <time>2018-04-21T11:57:22Z</time>
      </trkpt>
      <trkpt lat="44.98992" lon="3.74414">
        <ele>1096.52</ele>
        <time>2018-04-21T11:57:44Z</time>
      </trkpt>
      <trkpt lat="44.99012" lon="3.74395">
        <ele>1096.52</ele>
        <time>2018-04-21T11:58:05Z</time>
      </trkpt>
      <trkpt lat="44.99024" lon="3.74387">
        <ele>1097</ele>
        <time>2018-04-21T11:58:22Z</time>
      </trkpt>
      <trkpt lat="44.9904" lon="3.74364">
        <ele>1098.92</ele>
        <time>2018-04-21T11:58:40Z</time>
      </trkpt>
      <trkpt lat="44.99056" lon="3.7434">
        <ele>1099.89</ele>
        <time>2018-04-21T11:59:00Z</time>
      </trkpt>
      <trkpt lat="44.99072" lon="3.74315">
        <ele>1103.25</ele>
        <time>2018-04-21T11:59:22Z</time>
      </trkpt>
      <trkpt lat="44.99087" lon="3.74289">
        <ele>1105.17</ele>
        <time>2018-04-21T11:59:41Z</time>
      </trkpt>
      <trkpt lat="44.99096" lon="3.74272">
        <ele>1107.1</ele>
        <time>2018-04-21T12:00:00Z</time>
      </trkpt>
      <trkpt lat="44.99084" lon="3.74261">
        <ele>1108.06</ele>
        <time>2018-04-21T12:00:18Z</time>
      </trkpt>
      <trkpt lat="44.99075" lon="3.74258">
        <ele>1110.46</ele>
        <time>2018-04-21T12:00:34Z</time>
      </trkpt>
      <trkpt lat="44.99057" lon="3.74249">
        <ele>1111.42</ele>
        <time>2018-04-21T12:00:51Z</time>
      </trkpt>
      <trkpt lat="44.9904" lon="3.74239">
        <ele>1112.86</ele>
        <time>2018-04-21T12:01:09Z</time>
      </trkpt>
      <trkpt lat="44.99029" lon="3.7423">
        <ele>1115.75</ele>
        <time>2018-04-21T12:01:25Z</time>
      </trkpt>
      <trkpt lat="44.99011" lon="3.74214">
        <ele>1120.55</ele>
        <time>2018-04-21T12:01:44Z</time>
      </trkpt>
      <trkpt lat="44.99006" lon="3.74209">
        <ele>1120.55</ele>
        <time>2018-04-21T12:01:51Z</time>
      </trkpt>
      <trkpt lat="44.9899" lon="3.74184">
        <ele>1122.96</ele>
        <time>2018-04-21T12:02:10Z</time>
      </trkpt>
      <trkpt lat="44.98988" lon="3.74159">
        <ele>1119.59</ele>
        <time>2018-04-21T12:02:31Z</time>
      </trkpt>
      <trkpt lat="44.98989" lon="3.7416">
        <ele>1121.03</ele>
        <time>2018-04-21T12:02:53Z</time>
      </trkpt>
      <trkpt lat="44.98995" lon="3.74139">
        <ele>1120.07</ele>
        <time>2018-04-21T12:03:12Z</time>
      </trkpt>
      <trkpt lat="44.99006" lon="3.74128">
        <ele>1120.07</ele>
        <time>2018-04-21T12:03:23Z</time>
      </trkpt>
      <trkpt lat="44.99025" lon="3.74108">
        <ele>1122</ele>
        <time>2018-04-21T12:03:43Z</time>
      </trkpt>
      <trkpt lat="44.99043" lon="3.74088">
        <ele>1122.48</ele>
        <time>2018-04-21T12:04:04Z</time>
      </trkpt>
      <trkpt lat="44.99053" lon="3.74078">
        <ele>1123.44</ele>
        <time>2018-04-21T12:04:21Z</time>
      </trkpt>
      <trkpt lat="44.99072" lon="3.7405">
        <ele>1124.88</ele>
        <time>2018-04-21T12:04:42Z</time>
      </trkpt>
      <trkpt lat="44.99083" lon="3.74015">
        <ele>1124.88</ele>
        <time>2018-04-21T12:05:07Z</time>
      </trkpt>
      <trkpt lat="44.99096" lon="3.73981">
        <ele>1124.88</ele>
        <time>2018-04-21T12:05:30Z</time>
      </trkpt>
      <trkpt lat="44.99109" lon="3.73953">
        <ele>1125.84</ele>
        <time>2018-04-21T12:05:51Z</time>
      </trkpt>
      <trkpt lat="44.99124" lon="3.73927">
        <ele>1126.32</ele>
        <time>2018-04-21T12:06:12Z</time>
      </trkpt>
      <trkpt lat="44.99139" lon="3.73907">
        <ele>1126.32</ele>
        <time>2018-04-21T12:06:32Z</time>
      </trkpt>
      <trkpt lat="44.99154" lon="3.7388">
        <ele>1125.36</ele>
        <time>2018-04-21T12:06:52Z</time>
      </trkpt>
      <trkpt lat="44.99166" lon="3.73853">
        <ele>1125.84</ele>
        <time>2018-04-21T12:07:12Z</time>
      </trkpt>
      <trkpt lat="44.99177" lon="3.73825">
        <ele>1125.84</ele>
        <time>2018-04-21T12:07:33Z</time>
      </trkpt>
      <trkpt lat="44.99184" lon="3.73793">
        <ele>1126.32</ele>
        <time>2018-04-21T12:07:54Z</time>
      </trkpt>
      <trkpt lat="44.99197" lon="3.73765">
        <ele>1124.88</ele>
        <time>2018-04-21T12:08:15Z</time>
      </trkpt>
      <trkpt lat="44.992" lon="3.73734">
        <ele>1124.88</ele>
        <time>2018-04-21T12:08:37Z</time>
      </trkpt>
      <trkpt lat="44.99204" lon="3.73706">
        <ele>1123.44</ele>
        <time>2018-04-21T12:08:56Z</time>
      </trkpt>
      <trkpt lat="44.9921" lon="3.73676">
        <ele>1124.4</ele>
        <time>2018-04-21T12:09:17Z</time>
      </trkpt>
      <trkpt lat="44.99213" lon="3.73662">
        <ele>1123.44</ele>
        <time>2018-04-21T12:09:33Z</time>
      </trkpt>
      <trkpt lat="44.99221" lon="3.73642">
        <ele>1122</ele>
        <time>2018-04-21T12:09:51Z</time>
      </trkpt>
      <trkpt lat="44.99232" lon="3.73618">
        <ele>1122</ele>
        <time>2018-04-21T12:10:09Z</time>
      </trkpt>
      <trkpt lat="44.99243" lon="3.7359">
        <ele>1122.48</ele>
        <time>2018-04-21T12:10:29Z</time>
      </trkpt>
      <trkpt lat="44.99255" lon="3.73558">
        <ele>1122.48</ele>
        <time>2018-04-21T12:10:51Z</time>
      </trkpt>
      <trkpt lat="44.99268" lon="3.73535">
        <ele>1122.48</ele>
        <time>2018-04-21T12:11:10Z</time>
      </trkpt>
      <trkpt lat="44.99274" lon="3.73523">
        <ele>1121.52</ele>
        <time>2018-04-21T12:11:19Z</time>
      </trkpt>
      <trkpt lat="44.99286" lon="3.73493">
        <ele>1119.59</ele>
        <time>2018-04-21T12:11:41Z</time>
      </trkpt>
      <trkpt lat="44.99299" lon="3.73464">
        <ele>1117.19</ele>
        <time>2018-04-21T12:12:02Z</time>
      </trkpt>
      <trkpt lat="44.99312" lon="3.73436">
        <ele>1117.19</ele>
        <time>2018-04-21T12:12:22Z</time>
      </trkpt>
      <trkpt lat="44.99333" lon="3.73415">
        <ele>1114.79</ele>
        <time>2018-04-21T12:12:45Z</time>
      </trkpt>
      <trkpt lat="44.99351" lon="3.73389">
        <ele>1111.42</ele>
        <time>2018-04-21T12:13:07Z</time>
      </trkpt>
      <trkpt lat="44.99364" lon="3.73363">
        <ele>1109.5</ele>
        <time>2018-04-21T12:13:27Z</time>
      </trkpt>
      <trkpt lat="44.99361" lon="3.73347">
        <ele>1109.02</ele>
        <time>2018-04-21T12:13:37Z</time>
      </trkpt>
      <trkpt lat="44.99348" lon="3.73324">
        <ele>1108.06</ele>
        <time>2018-04-21T12:13:55Z</time>
      </trkpt>
      <trkpt lat="44.99339" lon="3.73299">
        <ele>1109.02</ele>
        <time>2018-04-21T12:14:13Z</time>
      </trkpt>
      <trkpt lat="44.99329" lon="3.73273">
        <ele>1109.98</ele>
        <time>2018-04-21T12:14:31Z</time>
      </trkpt>
      <trkpt lat="44.99324" lon="3.73249">
        <ele>1109.98</ele>
        <time>2018-04-21T12:14:47Z</time>
      </trkpt>
      <trkpt lat="44.99329" lon="3.73221">
        <ele>1111.42</ele>
        <time>2018-04-21T12:15:07Z</time>
      </trkpt>
      <trkpt lat="44.99336" lon="3.73221">
        <ele>1110.94</ele>
        <time>2018-04-21T12:15:22Z</time>
      </trkpt>
      <trkpt lat="44.99347" lon="3.73216">
        <ele>1114.31</ele>
        <time>2018-04-21T12:15:38Z</time>
      </trkpt>
      <trkpt lat="44.99369" lon="3.73208">
        <ele>1117.67</ele>
        <time>2018-04-21T12:15:59Z</time>
      </trkpt>
      <trkpt lat="44.99396" lon="3.73197">
        <ele>1120.55</ele>
        <time>2018-04-21T12:16:24Z</time>
      </trkpt>
      <trkpt lat="44.99409" lon="3.73183">
        <ele>1122.48</ele>
        <time>2018-04-21T12:16:39Z</time>
      </trkpt>
      <trkpt lat="44.99423" lon="3.73158">
        <ele>1123.92</ele>
        <time>2018-04-21T12:17:00Z</time>
      </trkpt>
      <trkpt lat="44.99439" lon="3.7313">
        <ele>1124.88</ele>
        <time>2018-04-21T12:17:24Z</time>
      </trkpt>
      <trkpt lat="44.99454" lon="3.73103">
        <ele>1127.28</ele>
        <time>2018-04-21T12:17:47Z</time>
      </trkpt>
      <trkpt lat="44.99472" lon="3.73078">
        <ele>1129.69</ele>
        <time>2018-04-21T12:18:10Z</time>
      </trkpt>
      <trkpt lat="44.99485" lon="3.73056">
        <ele>1129.21</ele>
        <time>2018-04-21T12:18:31Z</time>
      </trkpt>
      <trkpt lat="44.995" lon="3.73029">
        <ele>1131.61</ele>
        <time>2018-04-21T12:18:53Z</time>
      </trkpt>
      <trkpt lat="44.99517" lon="3.73">
        <ele>1134.49</ele>
        <time>2018-04-21T12:19:17Z</time>
      </trkpt>
      <trkpt lat="44.99531" lon="3.72973">
        <ele>1137.86</ele>
        <time>2018-04-21T12:19:40Z</time>
      </trkpt>
      <trkpt lat="44.99547" lon="3.72947">
        <ele>1141.22</ele>
        <time>2018-04-21T12:20:02Z</time>
      </trkpt>
      <trkpt lat="44.99562" lon="3.72925">
        <ele>1143.14</ele>
        <time>2018-04-21T12:20:25Z</time>
      </trkpt>
      <trkpt lat="44.99581" lon="3.72918">
        <ele>1143.63</ele>
        <time>2018-04-21T12:20:45Z</time>
      </trkpt>
      <trkpt lat="44.996" lon="3.72902">
        <ele>1144.59</ele>
        <time>2018-04-21T12:21:05Z</time>
      </trkpt>
      <trkpt lat="44.99618" lon="3.72887">
        <ele>1145.55</ele>
        <time>2018-04-21T12:21:25Z</time>
      </trkpt>
      <trkpt lat="44.99635" lon="3.72863">
        <ele>1147.47</ele>
        <time>2018-04-21T12:21:47Z</time>
      </trkpt>
      <trkpt lat="44.99646" lon="3.72832">
        <ele>1148.91</ele>
        <time>2018-04-21T12:22:09Z</time>
      </trkpt>
      <trkpt lat="44.99662" lon="3.72802">
        <ele>1152.28</ele>
        <time>2018-04-21T12:22:33Z</time>
      </trkpt>
      <trkpt lat="44.9968" lon="3.72772">
        <ele>1155.64</ele>
        <time>2018-04-21T12:22:56Z</time>
      </trkpt>
      <trkpt lat="44.99685" lon="3.72744">
        <ele>1158.05</ele>
        <time>2018-04-21T12:23:14Z</time>
      </trkpt>
      <trkpt lat="44.99685" lon="3.72707">
        <ele>1161.41</ele>
        <time>2018-04-21T12:23:36Z</time>
      </trkpt>
      <trkpt lat="44.9968" lon="3.7267">
        <ele>1166.22</ele>
        <time>2018-04-21T12:23:59Z</time>
      </trkpt>
      <trkpt lat="44.99671" lon="3.72636">
        <ele>1169.58</ele>
        <time>2018-04-21T12:24:20Z</time>
      </trkpt>
      <trkpt lat="44.99667" lon="3.72594">
        <ele>1171.02</ele>
        <time>2018-04-21T12:24:43Z</time>
      </trkpt>
      <trkpt lat="44.99677" lon="3.72571">
        <ele>1171.98</ele>
        <time>2018-04-21T12:25:03Z</time>
      </trkpt>
      <trkpt lat="44.99689" lon="3.72547">
        <ele>1172.95</ele>
        <time>2018-04-21T12:25:23Z</time>
      </trkpt>
      <trkpt lat="44.99706" lon="3.72528">
        <ele>1175.83</ele>
        <time>2018-04-21T12:25:45Z</time>
      </trkpt>
      <trkpt lat="44.99718" lon="3.7251">
        <ele>1177.27</ele>
        <time>2018-04-21T12:26:04Z</time>
      </trkpt>
      <trkpt lat="44.9973" lon="3.72475">
        <ele>1178.71</ele>
        <time>2018-04-21T12:26:26Z</time>
      </trkpt>
      <trkpt lat="44.99729" lon="3.72439">
        <ele>1182.56</ele>
        <time>2018-04-21T12:26:48Z</time>
      </trkpt>
      <trkpt lat="44.99721" lon="3.72404">
        <ele>1185.92</ele>
        <time>2018-04-21T12:27:08Z</time>
      </trkpt>
      <trkpt lat="44.99711" lon="3.72371">
        <ele>1187.37</ele>
        <time>2018-04-21T12:27:28Z</time>
      </trkpt>
      <trkpt lat="44.99712" lon="3.72337">
        <ele>1191.69</ele>
        <time>2018-04-21T12:27:50Z</time>
      </trkpt>
      <trkpt lat="44.99709" lon="3.72296">
        <ele>1194.58</ele>
        <time>2018-04-21T12:28:13Z</time>
      </trkpt>
      <trkpt lat="44.99706" lon="3.72265">
        <ele>1195.54</ele>
        <time>2018-04-21T12:28:31Z</time>
      </trkpt>
      <trkpt lat="44.99706" lon="3.72264">
        <ele>1204.19</ele>
        <time>2018-04-21T12:28:41Z</time>
      </trkpt>
      <trkpt lat="44.99703" lon="3.72261">
        <ele>1204.67</ele>
        <time>2018-04-21T12:28:59Z</time>
      </trkpt>
      <trkpt lat="44.99707" lon="3.72261">
        <ele>1206.11</ele>
        <time>2018-04-21T12:29:14Z</time>
      </trkpt>
      <trkpt lat="44.99706" lon="3.72265">
        <ele>1207.07</ele>
        <time>2018-04-21T12:29:26Z</time>
      </trkpt>
      <trkpt lat="44.99704" lon="3.72265">
        <ele>1207.55</ele>
        <time>2018-04-21T12:29:30Z</time>
      </trkpt>
      <trkpt lat="44.9971" lon="3.7226">
        <ele>1209.48</ele>
        <time>2018-04-21T12:29:46Z</time>
      </trkpt>
      <trkpt lat="44.99694" lon="3.72259">
        <ele>1215.24</ele>
        <time>2018-04-21T12:30:16Z</time>
      </trkpt>
      <trkpt lat="44.99695" lon="3.72262">
        <ele>1215.24</ele>
        <time>2018-04-21T12:30:18Z</time>
      </trkpt>
      <trkpt lat="44.99697" lon="3.72267">
        <ele>1218.13</ele>
        <time>2018-04-21T12:30:36Z</time>
      </trkpt>
      <trkpt lat="44.99671" lon="3.72235">
        <ele>1219.09</ele>
        <time>2018-04-21T12:32:34Z</time>
      </trkpt>
      <trkpt lat="44.99703" lon="3.72264">
        <ele>1219.09</ele>
        <time>2018-04-21T12:32:58Z</time>
      </trkpt>
      <trkpt lat="44.99714" lon="3.72251">
        <ele>1212.36</ele>
        <time>2018-04-21T12:33:22Z</time>
      </trkpt>
      <trkpt lat="44.99735" lon="3.72232">
        <ele>1205.63</ele>
        <time>2018-04-21T12:33:43Z</time>
      </trkpt>
      <trkpt lat="44.99751" lon="3.72222">
        <ele>1204.67</ele>
        <time>2018-04-21T12:34:02Z</time>
      </trkpt>
      <trkpt lat="44.99768" lon="3.72221">
        <ele>1206.59</ele>
        <time>2018-04-21T12:34:21Z</time>
      </trkpt>
      <trkpt lat="44.99771" lon="3.72194">
        <ele>1202.75</ele>
        <time>2018-04-21T12:34:36Z</time>
      </trkpt>
      <trkpt lat="44.9977" lon="3.72183">
        <ele>1201.3</ele>
        <time>2018-04-21T12:34:43Z</time>
      </trkpt>
      <trkpt lat="44.99769" lon="3.72149">
        <ele>1198.9</ele>
        <time>2018-04-21T12:35:04Z</time>
      </trkpt>
      <trkpt lat="44.99778" lon="3.72124">
        <ele>1195.54</ele>
        <time>2018-04-21T12:35:21Z</time>
      </trkpt>
      <trkpt lat="44.99782" lon="3.72093">
        <ele>1193.61</ele>
        <time>2018-04-21T12:35:40Z</time>
      </trkpt>
      <trkpt lat="44.99799" lon="3.72065">
        <ele>1192.17</ele>
        <time>2018-04-21T12:36:02Z</time>
      </trkpt>
      <trkpt lat="44.99812" lon="3.7204">
        <ele>1190.73</ele>
        <time>2018-04-21T12:36:23Z</time>
      </trkpt>
      <trkpt lat="44.99825" lon="3.72018">
        <ele>1192.17</ele>
        <time>2018-04-21T12:36:39Z</time>
      </trkpt>
      <trkpt lat="44.99834" lon="3.71992">
        <ele>1192.65</ele>
        <time>2018-04-21T12:36:58Z</time>
      </trkpt>
      <trkpt lat="44.99832" lon="3.71962">
        <ele>1194.58</ele>
        <time>2018-04-21T12:37:15Z</time>
      </trkpt>
      <trkpt lat="44.99813" lon="3.71938">
        <ele>1191.21</ele>
        <time>2018-04-21T12:37:36Z</time>
      </trkpt>
      <trkpt lat="44.99794" lon="3.71918">
        <ele>1188.81</ele>
        <time>2018-04-21T12:37:53Z</time>
      </trkpt>
      <trkpt lat="44.99792" lon="3.71916">
        <ele>1188.33</ele>
        <time>2018-04-21T12:37:55Z</time>
      </trkpt>
      <trkpt lat="44.99777" lon="3.71891">
        <ele>1186.4</ele>
        <time>2018-04-21T12:38:17Z</time>
      </trkpt>
      <trkpt lat="44.99767" lon="3.71869">
        <ele>1187.85</ele>
        <time>2018-04-21T12:38:32Z</time>
      </trkpt>
      <trkpt lat="44.99758" lon="3.71852">
        <ele>1189.29</ele>
        <time>2018-04-21T12:38:48Z</time>
      </trkpt>
      <trkpt lat="44.9975" lon="3.71832">
        <ele>1188.81</ele>
        <time>2018-04-21T12:39:05Z</time>
      </trkpt>
      <trkpt lat="44.99745" lon="3.71811">
        <ele>1188.33</ele>
        <time>2018-04-21T12:39:21Z</time>
      </trkpt>
      <trkpt lat="44.99742" lon="3.71787">
        <ele>1187.37</ele>
        <time>2018-04-21T12:39:38Z</time>
      </trkpt>
      <trkpt lat="44.99736" lon="3.71762">
        <ele>1185.44</ele>
        <time>2018-04-21T12:39:55Z</time>
      </trkpt>
      <trkpt lat="44.99736" lon="3.71745">
        <ele>1187.37</ele>
        <time>2018-04-21T12:40:05Z</time>
      </trkpt>
      <trkpt lat="44.99738" lon="3.71723">
        <ele>1187.85</ele>
        <time>2018-04-21T12:40:21Z</time>
      </trkpt>
      <trkpt lat="44.99745" lon="3.71707">
        <ele>1188.81</ele>
        <time>2018-04-21T12:40:38Z</time>
      </trkpt>
      <trkpt lat="44.99731" lon="3.71692">
        <ele>1186.88</ele>
        <time>2018-04-21T12:40:52Z</time>
      </trkpt>
      <trkpt lat="44.99719" lon="3.71671">
        <ele>1185.92</ele>
        <time>2018-04-21T12:41:10Z</time>
      </trkpt>
      <trkpt lat="44.99714" lon="3.71669">
        <ele>1186.88</ele>
        <time>2018-04-21T12:41:32Z</time>
      </trkpt>
      <trkpt lat="44.99694" lon="3.71666">
        <ele>1185.92</ele>
        <time>2018-04-21T12:41:52Z</time>
      </trkpt>
      <trkpt lat="44.99673" lon="3.71654">
        <ele>1184.48</ele>
        <time>2018-04-21T12:42:13Z</time>
      </trkpt>
      <trkpt lat="44.99646" lon="3.71637">
        <ele>1189.29</ele>
        <time>2018-04-21T12:42:34Z</time>
      </trkpt>
      <trkpt lat="44.99631" lon="3.71634">
        <ele>1193.13</ele>
        <time>2018-04-21T12:42:53Z</time>
      </trkpt>
      <trkpt lat="44.99603" lon="3.71626">
        <ele>1189.77</ele>
        <time>2018-04-21T12:43:14Z</time>
      </trkpt>
      <trkpt lat="44.99579" lon="3.71615">
        <ele>1191.69</ele>
        <time>2018-04-21T12:43:35Z</time>
      </trkpt>
      <trkpt lat="44.99569" lon="3.71593">
        <ele>1189.77</ele>
        <time>2018-04-21T12:43:53Z</time>
      </trkpt>
      <trkpt lat="44.99559" lon="3.71567">
        <ele>1189.29</ele>
        <time>2018-04-21T12:44:10Z</time>
      </trkpt>
      <trkpt lat="44.99548" lon="3.71541">
        <ele>1185.92</ele>
        <time>2018-04-21T12:44:28Z</time>
      </trkpt>
      <trkpt lat="44.99536" lon="3.71514">
        <ele>1184.48</ele>
        <time>2018-04-21T12:44:47Z</time>
      </trkpt>
      <trkpt lat="44.99534" lon="3.7149">
        <ele>1182.08</ele>
        <time>2018-04-21T12:45:04Z</time>
      </trkpt>
      <trkpt lat="44.99522" lon="3.71465">
        <ele>1178.23</ele>
        <time>2018-04-21T12:45:23Z</time>
      </trkpt>
      <trkpt lat="44.99515" lon="3.71434">
        <ele>1182.08</ele>
        <time>2018-04-21T12:45:42Z</time>
      </trkpt>
      <trkpt lat="44.99508" lon="3.71408">
        <ele>1178.23</ele>
        <time>2018-04-21T12:46:00Z</time>
      </trkpt>
      <trkpt lat="44.995" lon="3.71388">
        <ele>1172.95</ele>
        <time>2018-04-21T12:46:19Z</time>
      </trkpt>
      <trkpt lat="44.99492" lon="3.71352">
        <ele>1169.1</ele>
        <time>2018-04-21T12:46:40Z</time>
      </trkpt>
      <trkpt lat="44.99483" lon="3.71324">
        <ele>1168.62</ele>
        <time>2018-04-21T12:46:58Z</time>
      </trkpt>
      <trkpt lat="44.99481" lon="3.71303">
        <ele>1166.7</ele>
        <time>2018-04-21T12:47:16Z</time>
      </trkpt>
      <trkpt lat="44.99481" lon="3.71271">
        <ele>1169.1</ele>
        <time>2018-04-21T12:47:36Z</time>
      </trkpt>
      <trkpt lat="44.99473" lon="3.71241">
        <ele>1166.7</ele>
        <time>2018-04-21T12:47:56Z</time>
      </trkpt>
      <trkpt lat="44.99459" lon="3.71213">
        <ele>1163.81</ele>
        <time>2018-04-21T12:48:16Z</time>
      </trkpt>
      <trkpt lat="44.99448" lon="3.71185">
        <ele>1162.37</ele>
        <time>2018-04-21T12:48:34Z</time>
      </trkpt>
      <trkpt lat="44.9944" lon="3.71155">
        <ele>1159.01</ele>
        <time>2018-04-21T12:48:54Z</time>
      </trkpt>
      <trkpt lat="44.99435" lon="3.71127">
        <ele>1157.08</ele>
        <time>2018-04-21T12:49:12Z</time>
      </trkpt>
      <trkpt lat="44.99422" lon="3.71099">
        <ele>1156.12</ele>
        <time>2018-04-21T12:49:30Z</time>
      </trkpt>
      <trkpt lat="44.99411" lon="3.71076">
        <ele>1151.32</ele>
        <time>2018-04-21T12:49:49Z</time>
      </trkpt>
      <trkpt lat="44.99392" lon="3.71049">
        <ele>1146.99</ele>
        <time>2018-04-21T12:50:12Z</time>
      </trkpt>
      <trkpt lat="44.99384" lon="3.71039">
        <ele>1145.07</ele>
        <time>2018-04-21T12:50:28Z</time>
      </trkpt>
      <trkpt lat="44.99375" lon="3.71034">
        <ele>1144.11</ele>
        <time>2018-04-21T12:50:49Z</time>
      </trkpt>
      <trkpt lat="44.99369" lon="3.71024">
        <ele>1149.39</ele>
        <time>2018-04-21T12:51:03Z</time>
      </trkpt>
      <trkpt lat="44.99361" lon="3.71009">
        <ele>1149.39</ele>
        <time>2018-04-21T12:51:19Z</time>
      </trkpt>
      <trkpt lat="44.99353" lon="3.70995">
        <ele>1150.35</ele>
        <time>2018-04-21T12:51:32Z</time>
      </trkpt>
      <trkpt lat="44.99341" lon="3.70978">
        <ele>1147.95</ele>
        <time>2018-04-21T12:51:46Z</time>
      </trkpt>
      <trkpt lat="44.99339" lon="3.70973">
        <ele>1147.95</ele>
        <time>2018-04-21T12:51:49Z</time>
      </trkpt>
      <trkpt lat="44.99336" lon="3.70967">
        <ele>1149.87</ele>
        <time>2018-04-21T12:51:55Z</time>
      </trkpt>
      <trkpt lat="44.99326" lon="3.70948">
        <ele>1150.35</ele>
        <time>2018-04-21T12:52:10Z</time>
      </trkpt>
      <trkpt lat="44.99317" lon="3.70927">
        <ele>1150.35</ele>
        <time>2018-04-21T12:52:28Z</time>
      </trkpt>
      <trkpt lat="44.99308" lon="3.70904">
        <ele>1148.43</ele>
        <time>2018-04-21T12:52:47Z</time>
      </trkpt>
      <trkpt lat="44.99297" lon="3.70882">
        <ele>1145.07</ele>
        <time>2018-04-21T12:53:04Z</time>
      </trkpt>
      <trkpt lat="44.9929" lon="3.70871">
        <ele>1143.63</ele>
        <time>2018-04-21T12:53:19Z</time>
      </trkpt>
      <trkpt lat="44.99275" lon="3.70851">
        <ele>1143.14</ele>
        <time>2018-04-21T12:53:36Z</time>
      </trkpt>
      <trkpt lat="44.9926" lon="3.70831">
        <ele>1141.22</ele>
        <time>2018-04-21T12:53:54Z</time>
      </trkpt>
      <trkpt lat="44.99244" lon="3.70809">
        <ele>1139.78</ele>
        <time>2018-04-21T12:54:13Z</time>
      </trkpt>
      <trkpt lat="44.99231" lon="3.7079">
        <ele>1137.86</ele>
        <time>2018-04-21T12:54:30Z</time>
      </trkpt>
      <trkpt lat="44.99217" lon="3.70772">
        <ele>1136.42</ele>
        <time>2018-04-21T12:54:46Z</time>
      </trkpt>
      <trkpt lat="44.99203" lon="3.70758">
        <ele>1133.05</ele>
        <time>2018-04-21T12:55:00Z</time>
      </trkpt>
      <trkpt lat="44.9919" lon="3.70749">
        <ele>1130.65</ele>
        <time>2018-04-21T12:55:14Z</time>
      </trkpt>
      <trkpt lat="44.99175" lon="3.70735">
        <ele>1130.17</ele>
        <time>2018-04-21T12:55:30Z</time>
      </trkpt>
      <trkpt lat="44.99163" lon="3.70723">
        <ele>1127.28</ele>
        <time>2018-04-21T12:55:44Z</time>
      </trkpt>
      <trkpt lat="44.99145" lon="3.70708">
        <ele>1124.4</ele>
        <time>2018-04-21T12:56:01Z</time>
      </trkpt>
      <trkpt lat="44.99127" lon="3.70692">
        <ele>1122.96</ele>
        <time>2018-04-21T12:56:18Z</time>
      </trkpt>
      <trkpt lat="44.99116" lon="3.70677">
        <ele>1121.03</ele>
        <time>2018-04-21T12:56:34Z</time>
      </trkpt>
      <trkpt lat="44.99108" lon="3.70664">
        <ele>1120.07</ele>
        <time>2018-04-21T12:56:52Z</time>
      </trkpt>
      <trkpt lat="44.99098" lon="3.70643">
        <ele>1119.11</ele>
        <time>2018-04-21T12:57:08Z</time>
      </trkpt>
      <trkpt lat="44.99092" lon="3.7061">
        <ele>1118.63</ele>
        <time>2018-04-21T12:57:29Z</time>
      </trkpt>
      <trkpt lat="44.99083" lon="3.7058">
        <ele>1116.23</ele>
        <time>2018-04-21T12:57:47Z</time>
      </trkpt>
      <trkpt lat="44.99079" lon="3.70559">
        <ele>1113.34</ele>
        <time>2018-04-21T12:58:01Z</time>
      </trkpt>
      <trkpt lat="44.99075" lon="3.7053">
        <ele>1109.5</ele>
        <time>2018-04-21T12:58:19Z</time>
      </trkpt>
      <trkpt lat="44.99073" lon="3.70506">
        <ele>1105.17</ele>
        <time>2018-04-21T12:58:35Z</time>
      </trkpt>
      <trkpt lat="44.99067" lon="3.70473">
        <ele>1103.73</ele>
        <time>2018-04-21T12:58:55Z</time>
      </trkpt>
      <trkpt lat="44.99062" lon="3.70441">
        <ele>1101.81</ele>
        <time>2018-04-21T12:59:15Z</time>
      </trkpt>
      <trkpt lat="44.99054" lon="3.70411">
        <ele>1098.92</ele>
        <time>2018-04-21T12:59:35Z</time>
      </trkpt>
      <trkpt lat="44.99046" lon="3.70385">
        <ele>1098.44</ele>
        <time>2018-04-21T12:59:53Z</time>
      </trkpt>
      <trkpt lat="44.99044" lon="3.70381">
        <ele>1098.44</ele>
        <time>2018-04-21T12:59:56Z</time>
      </trkpt>
      <trkpt lat="44.99036" lon="3.70349">
        <ele>1096.52</ele>
        <time>2018-04-21T13:00:17Z</time>
      </trkpt>
      <trkpt lat="44.99036" lon="3.70331">
        <ele>1093.64</ele>
        <time>2018-04-21T13:00:31Z</time>
      </trkpt>
      <trkpt lat="44.99045" lon="3.70297">
        <ele>1092.68</ele>
        <time>2018-04-21T13:00:52Z</time>
      </trkpt>
      <trkpt lat="44.99046" lon="3.70293">
        <ele>1092.2</ele>
        <time>2018-04-21T13:00:55Z</time>
      </trkpt>
      <trkpt lat="44.9905" lon="3.7026">
        <ele>1088.83</ele>
        <time>2018-04-21T13:01:15Z</time>
      </trkpt>
      <trkpt lat="44.99039" lon="3.70231">
        <ele>1084.99</ele>
        <time>2018-04-21T13:01:35Z</time>
      </trkpt>
      <trkpt lat="44.99033" lon="3.70216">
        <ele>1083.06</ele>
        <time>2018-04-21T13:01:45Z</time>
      </trkpt>
      <trkpt lat="44.99018" lon="3.70192">
        <ele>1081.14</ele>
        <time>2018-04-21T13:02:03Z</time>
      </trkpt>
      <trkpt lat="44.99008" lon="3.70167">
        <ele>1080.66</ele>
        <time>2018-04-21T13:02:19Z</time>
      </trkpt>
      <trkpt lat="44.98997" lon="3.70141">
        <ele>1079.7</ele>
        <time>2018-04-21T13:02:38Z</time>
      </trkpt>
      <trkpt lat="44.98983" lon="3.70111">
        <ele>1077.29</ele>
        <time>2018-04-21T13:02:56Z</time>
      </trkpt>
      <trkpt lat="44.98969" lon="3.70078">
        <ele>1077.78</ele>
        <time>2018-04-21T13:03:18Z</time>
      </trkpt>
      <trkpt lat="44.98955" lon="3.70046">
        <ele>1075.85</ele>
        <time>2018-04-21T13:03:39Z</time>
      </trkpt>
      <trkpt lat="44.98941" lon="3.70013">
        <ele>1072.49</ele>
        <time>2018-04-21T13:03:58Z</time>
      </trkpt>
      <trkpt lat="44.98931" lon="3.69992">
        <ele>1070.57</ele>
        <time>2018-04-21T13:04:12Z</time>
      </trkpt>
      <trkpt lat="44.98911" lon="3.69967">
        <ele>1067.68</ele>
        <time>2018-04-21T13:04:31Z</time>
      </trkpt>
      <trkpt lat="44.98892" lon="3.69938">
        <ele>1064.32</ele>
        <time>2018-04-21T13:04:50Z</time>
      </trkpt>
      <trkpt lat="44.98877" lon="3.69911">
        <ele>1061.91</ele>
        <time>2018-04-21T13:05:07Z</time>
      </trkpt>
      <trkpt lat="44.98856" lon="3.69883">
        <ele>1059.51</ele>
        <time>2018-04-21T13:05:28Z</time>
      </trkpt>
      <trkpt lat="44.98829" lon="3.69857">
        <ele>1053.26</ele>
        <time>2018-04-21T13:05:51Z</time>
      </trkpt>
      <trkpt lat="44.98808" lon="3.6984">
        <ele>1048.94</ele>
        <time>2018-04-21T13:06:09Z</time>
      </trkpt>
      <trkpt lat="44.98785" lon="3.69829">
        <ele>1046.53</ele>
        <time>2018-04-21T13:06:26Z</time>
      </trkpt>
      <trkpt lat="44.98776" lon="3.69831">
        <ele>1046.53</ele>
        <time>2018-04-21T13:06:41Z</time>
      </trkpt>
      <trkpt lat="44.98777" lon="3.69835">
        <ele>1043.65</ele>
        <time>2018-04-21T13:07:03Z</time>
      </trkpt>
      <trkpt lat="44.98767" lon="3.6983">
        <ele>1042.69</ele>
        <time>2018-04-21T13:07:23Z</time>
      </trkpt>
      <trkpt lat="44.98775" lon="3.69832">
        <ele>1046.05</ele>
        <time>2018-04-21T13:07:45Z</time>
      </trkpt>
      <trkpt lat="44.98778" lon="3.69832">
        <ele>1048.45</ele>
        <time>2018-04-21T13:08:13Z</time>
      </trkpt>
      <trkpt lat="44.9878" lon="3.6983">
        <ele>1050.38</ele>
        <time>2018-04-21T13:08:37Z</time>
      </trkpt>
      <trkpt lat="44.98777" lon="3.69839">
        <ele>1050.38</ele>
        <time>2018-04-21T13:09:06Z</time>
      </trkpt>
      <trkpt lat="44.98774" lon="3.69836">
        <ele>1050.86</ele>
        <time>2018-04-21T13:09:37Z</time>
      </trkpt>
      <trkpt lat="44.98778" lon="3.69833">
        <ele>1053.26</ele>
        <time>2018-04-21T13:10:05Z</time>
      </trkpt>
      <trkpt lat="44.98777" lon="3.69836">
        <ele>1052.78</ele>
        <time>2018-04-21T13:10:29Z</time>
      </trkpt>
      <trkpt lat="44.98778" lon="3.69836">
        <ele>1059.51</ele>
        <time>2018-04-21T13:11:03Z</time>
      </trkpt>
      <trkpt lat="44.9878" lon="3.69832">
        <ele>1057.59</ele>
        <time>2018-04-21T13:11:27Z</time>
      </trkpt>
      <trkpt lat="44.98778" lon="3.69835">
        <ele>1058.55</ele>
        <time>2018-04-21T13:11:46Z</time>
      </trkpt>
      <trkpt lat="44.98782" lon="3.69836">
        <ele>1065.76</ele>
        <time>2018-04-21T13:12:15Z</time>
      </trkpt>
      <trkpt lat="44.98778" lon="3.69832">
        <ele>1063.36</ele>
        <time>2018-04-21T13:12:34Z</time>
      </trkpt>
      <trkpt lat="44.98777" lon="3.69834">
        <ele>1059.03</ele>
        <time>2018-04-21T13:13:18Z</time>
      </trkpt>
      <trkpt lat="44.98778" lon="3.69835">
        <ele>1056.15</ele>
        <time>2018-04-21T13:13:58Z</time>
      </trkpt>
      <trkpt lat="44.98781" lon="3.69833">
        <ele>1059.99</ele>
        <time>2018-04-21T13:14:36Z</time>
      </trkpt>
      <trkpt lat="44.98791" lon="3.69833">
        <ele>1060.95</ele>
        <time>2018-04-21T13:15:00Z</time>
      </trkpt>
      <trkpt lat="44.98801" lon="3.69839">
        <ele>1060.47</ele>
        <time>2018-04-21T13:15:24Z</time>
      </trkpt>
      <trkpt lat="44.98781" lon="3.69832">
        <ele>1057.59</ele>
        <time>2018-04-21T13:15:49Z</time>
      </trkpt>
      <trkpt lat="44.98782" lon="3.69817">
        <ele>1055.18</ele>
        <time>2018-04-21T13:16:04Z</time>
      </trkpt>
      <trkpt lat="44.98776" lon="3.69806">
        <ele>1054.7</ele>
        <time>2018-04-21T13:16:14Z</time>
      </trkpt>
      <trkpt lat="44.98775" lon="3.69791">
        <ele>1053.74</ele>
        <time>2018-04-21T13:16:25Z</time>
      </trkpt>
      <trkpt lat="44.98777" lon="3.69758">
        <ele>1050.38</ele>
        <time>2018-04-21T13:16:44Z</time>
      </trkpt>
      <trkpt lat="44.98779" lon="3.69727">
        <ele>1046.53</ele>
        <time>2018-04-21T13:17:04Z</time>
      </trkpt>
      <trkpt lat="44.98779" lon="3.69693">
        <ele>1042.21</ele>
        <time>2018-04-21T13:17:25Z</time>
      </trkpt>
      <trkpt lat="44.98781" lon="3.69664">
        <ele>1039.8</ele>
        <time>2018-04-21T13:17:42Z</time>
      </trkpt>
      <trkpt lat="44.98782" lon="3.69636">
        <ele>1037.88</ele>
        <time>2018-04-21T13:18:00Z</time>
      </trkpt>
      <trkpt lat="44.98782" lon="3.69615">
        <ele>1036.92</ele>
        <time>2018-04-21T13:18:18Z</time>
      </trkpt>
      <trkpt lat="44.98783" lon="3.69585">
        <ele>1034.04</ele>
        <time>2018-04-21T13:18:36Z</time>
      </trkpt>
      <trkpt lat="44.98784" lon="3.69555">
        <ele>1034.04</ele>
        <time>2018-04-21T13:18:54Z</time>
      </trkpt>
      <trkpt lat="44.98782" lon="3.69524">
        <ele>1033.55</ele>
        <time>2018-04-21T13:19:12Z</time>
      </trkpt>
      <trkpt lat="44.98775" lon="3.69494">
        <ele>1031.63</ele>
        <time>2018-04-21T13:19:30Z</time>
      </trkpt>
      <trkpt lat="44.98765" lon="3.69463">
        <ele>1029.71</ele>
        <time>2018-04-21T13:19:50Z</time>
      </trkpt>
      <trkpt lat="44.9876" lon="3.69438">
        <ele>1029.23</ele>
        <time>2018-04-21T13:20:06Z</time>
      </trkpt>
      <trkpt lat="44.9875" lon="3.69412">
        <ele>1029.23</ele>
        <time>2018-04-21T13:20:23Z</time>
      </trkpt>
      <trkpt lat="44.98746" lon="3.69375">
        <ele>1027.79</ele>
        <time>2018-04-21T13:20:44Z</time>
      </trkpt>
      <trkpt lat="44.98746" lon="3.69348">
        <ele>1026.83</ele>
        <time>2018-04-21T13:21:01Z</time>
      </trkpt>
      <trkpt lat="44.98733" lon="3.69324">
        <ele>1024.42</ele>
        <time>2018-04-21T13:21:18Z</time>
      </trkpt>
      <trkpt lat="44.98727" lon="3.69298">
        <ele>1022.02</ele>
        <time>2018-04-21T13:21:35Z</time>
      </trkpt>
      <trkpt lat="44.98726" lon="3.69284">
        <ele>1021.54</ele>
        <time>2018-04-21T13:21:43Z</time>
      </trkpt>
      <trkpt lat="44.98725" lon="3.69255">
        <ele>1021.06</ele>
        <time>2018-04-21T13:22:00Z</time>
      </trkpt>
      <trkpt lat="44.98718" lon="3.69222">
        <ele>1018.65</ele>
        <time>2018-04-21T13:22:22Z</time>
      </trkpt>
      <trkpt lat="44.98718" lon="3.69193">
        <ele>1019.13</ele>
        <time>2018-04-21T13:22:41Z</time>
      </trkpt>
      <trkpt lat="44.98718" lon="3.69183">
        <ele>1018.65</ele>
        <time>2018-04-21T13:22:57Z</time>
      </trkpt>
      <trkpt lat="44.98725" lon="3.69152">
        <ele>1017.69</ele>
        <time>2018-04-21T13:23:18Z</time>
      </trkpt>
      <trkpt lat="44.9873" lon="3.69125">
        <ele>1017.69</ele>
        <time>2018-04-21T13:23:35Z</time>
      </trkpt>
      <trkpt lat="44.9873" lon="3.69091">
        <ele>1015.77</ele>
        <time>2018-04-21T13:23:56Z</time>
      </trkpt>
      <trkpt lat="44.98731" lon="3.69057">
        <ele>1014.81</ele>
        <time>2018-04-21T13:24:16Z</time>
      </trkpt>
      <trkpt lat="44.98731" lon="3.69026">
        <ele>1013.37</ele>
        <time>2018-04-21T13:24:34Z</time>
      </trkpt>
      <trkpt lat="44.98729" lon="3.69001">
        <ele>1010.96</ele>
        <time>2018-04-21T13:24:50Z</time>
      </trkpt>
      <trkpt lat="44.9873" lon="3.68978">
        <ele>1010.96</ele>
        <time>2018-04-21T13:25:04Z</time>
      </trkpt>
      <trkpt lat="44.98729" lon="3.68951">
        <ele>1010.96</ele>
        <time>2018-04-21T13:25:22Z</time>
      </trkpt>
      <trkpt lat="44.98729" lon="3.68943">
        <ele>1010.96</ele>
        <time>2018-04-21T13:25:27Z</time>
      </trkpt>
      <trkpt lat="44.98729" lon="3.68935">
        <ele>1010.96</ele>
        <time>2018-04-21T13:25:31Z</time>
      </trkpt>
      <trkpt lat="44.98729" lon="3.68921">
        <ele>1010.48</ele>
        <time>2018-04-21T13:25:40Z</time>
      </trkpt>
      <trkpt lat="44.98731" lon="3.68891">
        <ele>1010</ele>
        <time>2018-04-21T13:25:58Z</time>
      </trkpt>
      <trkpt lat="44.98731" lon="3.68866">
        <ele>1008.56</ele>
        <time>2018-04-21T13:26:15Z</time>
      </trkpt>
      <trkpt lat="44.98731" lon="3.68852">
        <ele>1007.6</ele>
        <time>2018-04-21T13:26:24Z</time>
      </trkpt>
      <trkpt lat="44.98731" lon="3.68833">
        <ele>1006.64</ele>
        <time>2018-04-21T13:26:35Z</time>
      </trkpt>
      <trkpt lat="44.98726" lon="3.688">
        <ele>1006.64</ele>
        <time>2018-04-21T13:26:56Z</time>
      </trkpt>
      <trkpt lat="44.98726" lon="3.6879">
        <ele>1006.16</ele>
        <time>2018-04-21T13:27:03Z</time>
      </trkpt>
      <trkpt lat="44.98731" lon="3.68755">
        <ele>1003.27</ele>
        <time>2018-04-21T13:27:24Z</time>
      </trkpt>
      <trkpt lat="44.98736" lon="3.68734">
        <ele>1002.31</ele>
        <time>2018-04-21T13:27:41Z</time>
      </trkpt>
      <trkpt lat="44.98745" lon="3.68716">
        <ele>1000.87</ele>
        <time>2018-04-21T13:27:56Z</time>
      </trkpt>
      <trkpt lat="44.98756" lon="3.68703">
        <ele>999.43</ele>
        <time>2018-04-21T13:28:11Z</time>
      </trkpt>
      <trkpt lat="44.98766" lon="3.68691">
        <ele>997.51</ele>
        <time>2018-04-21T13:28:24Z</time>
      </trkpt>
      <trkpt lat="44.98778" lon="3.68674">
        <ele>996.54</ele>
        <time>2018-04-21T13:28:39Z</time>
      </trkpt>
      <trkpt lat="44.98792" lon="3.68648">
        <ele>994.62</ele>
        <time>2018-04-21T13:28:57Z</time>
      </trkpt>
      <trkpt lat="44.98808" lon="3.68624">
        <ele>992.7</ele>
        <time>2018-04-21T13:29:15Z</time>
      </trkpt>
      <trkpt lat="44.98825" lon="3.68607">
        <ele>988.85</ele>
        <time>2018-04-21T13:29:33Z</time>
      </trkpt>
      <trkpt lat="44.98828" lon="3.68605">
        <ele>987.89</ele>
        <time>2018-04-21T13:29:36Z</time>
      </trkpt>
      <trkpt lat="44.98845" lon="3.68592">
        <ele>985.01</ele>
        <time>2018-04-21T13:29:52Z</time>
      </trkpt>
      <trkpt lat="44.98859" lon="3.6858">
        <ele>982.12</ele>
        <time>2018-04-21T13:30:07Z</time>
      </trkpt>
      <trkpt lat="44.98871" lon="3.68566">
        <ele>975.88</ele>
        <time>2018-04-21T13:30:23Z</time>
      </trkpt>
      <trkpt lat="44.98887" lon="3.68551">
        <ele>972.99</ele>
        <time>2018-04-21T13:30:41Z</time>
      </trkpt>
      <trkpt lat="44.989" lon="3.68538">
        <ele>969.15</ele>
        <time>2018-04-21T13:30:57Z</time>
      </trkpt>
      <trkpt lat="44.9892" lon="3.68527">
        <ele>966.74</ele>
        <time>2018-04-21T13:31:14Z</time>
      </trkpt>
      <trkpt lat="44.98935" lon="3.68526">
        <ele>962.9</ele>
        <time>2018-04-21T13:31:31Z</time>
      </trkpt>
      <trkpt lat="44.98952" lon="3.68529">
        <ele>960.98</ele>
        <time>2018-04-21T13:31:47Z</time>
      </trkpt>
      <trkpt lat="44.98966" lon="3.68519">
        <ele>960.98</ele>
        <time>2018-04-21T13:32:01Z</time>
      </trkpt>
      <trkpt lat="44.98981" lon="3.68511">
        <ele>960.49</ele>
        <time>2018-04-21T13:32:12Z</time>
      </trkpt>
      <trkpt lat="44.99" lon="3.68498">
        <ele>957.61</ele>
        <time>2018-04-21T13:32:27Z</time>
      </trkpt>
      <trkpt lat="44.99016" lon="3.68487">
        <ele>952.8</ele>
        <time>2018-04-21T13:32:44Z</time>
      </trkpt>
      <trkpt lat="44.99029" lon="3.6849">
        <ele>949.92</ele>
        <time>2018-04-21T13:32:59Z</time>
      </trkpt>
      <trkpt lat="44.99046" lon="3.68512">
        <ele>943.67</ele>
        <time>2018-04-21T13:33:18Z</time>
      </trkpt>
      <trkpt lat="44.99065" lon="3.68529">
        <ele>941.27</ele>
        <time>2018-04-21T13:33:35Z</time>
      </trkpt>
      <trkpt lat="44.99067" lon="3.6853">
        <ele>940.79</ele>
        <time>2018-04-21T13:33:37Z</time>
      </trkpt>
      <trkpt lat="44.99085" lon="3.68547">
        <ele>935.98</ele>
        <time>2018-04-21T13:33:55Z</time>
      </trkpt>
      <trkpt lat="44.99103" lon="3.6856">
        <ele>935.98</ele>
        <time>2018-04-21T13:34:11Z</time>
      </trkpt>
      <trkpt lat="44.99123" lon="3.68574">
        <ele>936.94</ele>
        <time>2018-04-21T13:34:30Z</time>
      </trkpt>
      <trkpt lat="44.99146" lon="3.68588">
        <ele>937.42</ele>
        <time>2018-04-21T13:34:49Z</time>
      </trkpt>
      <trkpt lat="44.99158" lon="3.68589">
        <ele>938.86</ele>
        <time>2018-04-21T13:35:03Z</time>
      </trkpt>
      <trkpt lat="44.99175" lon="3.68587">
        <ele>939.35</ele>
        <time>2018-04-21T13:35:19Z</time>
      </trkpt>
      <trkpt lat="44.99187" lon="3.68573">
        <ele>938.38</ele>
        <time>2018-04-21T13:35:41Z</time>
      </trkpt>
      <trkpt lat="44.99198" lon="3.68551">
        <ele>936.94</ele>
        <time>2018-04-21T13:35:58Z</time>
      </trkpt>
      <trkpt lat="44.99208" lon="3.68528">
        <ele>931.65</ele>
        <time>2018-04-21T13:36:15Z</time>
      </trkpt>
      <trkpt lat="44.99211" lon="3.68507">
        <ele>928.29</ele>
        <time>2018-04-21T13:36:29Z</time>
      </trkpt>
      <trkpt lat="44.99214" lon="3.68491">
        <ele>924.45</ele>
        <time>2018-04-21T13:36:38Z</time>
      </trkpt>
      <trkpt lat="44.99226" lon="3.68462">
        <ele>919.64</ele>
        <time>2018-04-21T13:36:55Z</time>
      </trkpt>
      <trkpt lat="44.99233" lon="3.6844">
        <ele>914.35</ele>
        <time>2018-04-21T13:37:13Z</time>
      </trkpt>
      <trkpt lat="44.99225" lon="3.68419">
        <ele>907.14</ele>
        <time>2018-04-21T13:37:29Z</time>
      </trkpt>
      <trkpt lat="44.9923" lon="3.68405">
        <ele>901.85</ele>
        <time>2018-04-21T13:37:46Z</time>
      </trkpt>
      <trkpt lat="44.99241" lon="3.68404">
        <ele>898.01</ele>
        <time>2018-04-21T13:38:02Z</time>
      </trkpt>
      <trkpt lat="44.99237" lon="3.68386">
        <ele>896.09</ele>
        <time>2018-04-21T13:38:19Z</time>
      </trkpt>
      <trkpt lat="44.99238" lon="3.68378">
        <ele>894.16</ele>
        <time>2018-04-21T13:38:36Z</time>
      </trkpt>
      <trkpt lat="44.99251" lon="3.68368">
        <ele>892.24</ele>
        <time>2018-04-21T13:38:55Z</time>
      </trkpt>
      <trkpt lat="44.99269" lon="3.68361">
        <ele>891.28</ele>
        <time>2018-04-21T13:39:13Z</time>
      </trkpt>
      <trkpt lat="44.99281" lon="3.68369">
        <ele>888.88</ele>
        <time>2018-04-21T13:39:31Z</time>
      </trkpt>
      <trkpt lat="44.99289" lon="3.68379">
        <ele>887.43</ele>
        <time>2018-04-21T13:39:49Z</time>
      </trkpt>
      <trkpt lat="44.99294" lon="3.68377">
        <ele>886.47</ele>
        <time>2018-04-21T13:40:14Z</time>
      </trkpt>
      <trkpt lat="44.99288" lon="3.68345">
        <ele>881.19</ele>
        <time>2018-04-21T13:40:30Z</time>
      </trkpt>
      <trkpt lat="44.99281" lon="3.68317">
        <ele>873.98</ele>
        <time>2018-04-21T13:40:49Z</time>
      </trkpt>
      <trkpt lat="44.99278" lon="3.68296">
        <ele>870.13</ele>
        <time>2018-04-21T13:41:06Z</time>
      </trkpt>
      <trkpt lat="44.99268" lon="3.68271">
        <ele>870.61</ele>
        <time>2018-04-21T13:41:23Z</time>
      </trkpt>
      <trkpt lat="44.99246" lon="3.68258">
        <ele>870.13</ele>
        <time>2018-04-21T13:41:41Z</time>
      </trkpt>
      <trkpt lat="44.99229" lon="3.68268">
        <ele>870.61</ele>
        <time>2018-04-21T13:42:03Z</time>
      </trkpt>
      <trkpt lat="44.9923" lon="3.68273">
        <ele>871.57</ele>
        <time>2018-04-21T13:42:33Z</time>
      </trkpt>
      <trkpt lat="44.99231" lon="3.68279">
        <ele>870.61</ele>
        <time>2018-04-21T13:42:53Z</time>
      </trkpt>
      <trkpt lat="44.99234" lon="3.68274">
        <ele>868.21</ele>
        <time>2018-04-21T13:43:17Z</time>
      </trkpt>
      <trkpt lat="44.99245" lon="3.68278">
        <ele>864.84</ele>
        <time>2018-04-21T13:43:47Z</time>
      </trkpt>
      <trkpt lat="44.99245" lon="3.68271">
        <ele>873.5</ele>
        <time>2018-04-21T13:44:11Z</time>
      </trkpt>
      <trkpt lat="44.99243" lon="3.68272">
        <ele>872.53</ele>
        <time>2018-04-21T13:44:30Z</time>
      </trkpt>
      <trkpt lat="44.99251" lon="3.68275">
        <ele>873.01</ele>
        <time>2018-04-21T13:44:46Z</time>
      </trkpt>
      <trkpt lat="44.99262" lon="3.68277">
        <ele>874.46</ele>
        <time>2018-04-21T13:45:03Z</time>
      </trkpt>
      <trkpt lat="44.9927" lon="3.683">
        <ele>875.9</ele>
        <time>2018-04-21T13:45:24Z</time>
      </trkpt>
      <trkpt lat="44.99275" lon="3.68319">
        <ele>875.42</ele>
        <time>2018-04-21T13:45:43Z</time>
      </trkpt>
      <trkpt lat="44.99275" lon="3.68352">
        <ele>873.98</ele>
        <time>2018-04-21T13:46:01Z</time>
      </trkpt>
      <trkpt lat="44.99284" lon="3.68371">
        <ele>873.01</ele>
        <time>2018-04-21T13:46:20Z</time>
      </trkpt>
      <trkpt lat="44.99291" lon="3.6836">
        <ele>873.98</ele>
        <time>2018-04-21T13:46:47Z</time>
      </trkpt>
      <trkpt lat="44.99287" lon="3.68341">
        <ele>871.57</ele>
        <time>2018-04-21T13:46:58Z</time>
      </trkpt>
      <trkpt lat="44.99282" lon="3.68313">
        <ele>869.65</ele>
        <time>2018-04-21T13:47:15Z</time>
      </trkpt>
      <trkpt lat="44.99275" lon="3.68294">
        <ele>866.77</ele>
        <time>2018-04-21T13:47:32Z</time>
      </trkpt>
      <trkpt lat="44.99263" lon="3.68277">
        <ele>862.44</ele>
        <time>2018-04-21T13:47:48Z</time>
      </trkpt>
      <trkpt lat="44.99257" lon="3.68273">
        <ele>861</ele>
        <time>2018-04-21T13:47:54Z</time>
      </trkpt>
      <trkpt lat="44.99235" lon="3.68265">
        <ele>861.96</ele>
        <time>2018-04-21T13:48:13Z</time>
      </trkpt>
      <trkpt lat="44.9922" lon="3.68267">
        <ele>863.4</ele>
        <time>2018-04-21T13:48:30Z</time>
      </trkpt>
      <trkpt lat="44.99224" lon="3.68271">
        <ele>869.17</ele>
        <time>2018-04-21T13:49:05Z</time>
      </trkpt>
      <trkpt lat="44.99201" lon="3.68263">
        <ele>874.46</ele>
        <time>2018-04-21T13:49:25Z</time>
      </trkpt>
      <trkpt lat="44.99187" lon="3.68241">
        <ele>874.94</ele>
        <time>2018-04-21T13:49:42Z</time>
      </trkpt>
      <trkpt lat="44.99171" lon="3.68226">
        <ele>875.42</ele>
        <time>2018-04-21T13:50:00Z</time>
      </trkpt>
      <trkpt lat="44.99156" lon="3.68218">
        <ele>874.46</ele>
        <time>2018-04-21T13:50:18Z</time>
      </trkpt>
      <trkpt lat="44.99139" lon="3.68201">
        <ele>877.34</ele>
        <time>2018-04-21T13:50:39Z</time>
      </trkpt>
      <trkpt lat="44.99112" lon="3.68186">
        <ele>880.22</ele>
        <time>2018-04-21T13:51:00Z</time>
      </trkpt>
      <trkpt lat="44.99092" lon="3.6818">
        <ele>881.19</ele>
        <time>2018-04-21T13:51:17Z</time>
      </trkpt>
      <trkpt lat="44.9907" lon="3.68166">
        <ele>882.15</ele>
        <time>2018-04-21T13:51:37Z</time>
      </trkpt>
      <trkpt lat="44.99048" lon="3.68136">
        <ele>875.9</ele>
        <time>2018-04-21T13:51:59Z</time>
      </trkpt>
      <trkpt lat="44.99039" lon="3.68112">
        <ele>873.98</ele>
        <time>2018-04-21T13:52:17Z</time>
      </trkpt>
      <trkpt lat="44.99041" lon="3.68111">
        <ele>873.98</ele>
        <time>2018-04-21T13:52:41Z</time>
      </trkpt>
      <trkpt lat="44.99042" lon="3.68111">
        <ele>879.74</ele>
        <time>2018-04-21T13:53:11Z</time>
      </trkpt>
      <trkpt lat="44.99041" lon="3.68111">
        <ele>882.15</ele>
        <time>2018-04-21T13:53:44Z</time>
      </trkpt>
      <trkpt lat="44.99044" lon="3.68115">
        <ele>884.07</ele>
        <time>2018-04-21T13:54:13Z</time>
      </trkpt>
      <trkpt lat="44.99043" lon="3.68113">
        <ele>884.55</ele>
        <time>2018-04-21T13:54:40Z</time>
      </trkpt>
      <trkpt lat="44.99045" lon="3.68115">
        <ele>888.88</ele>
        <time>2018-04-21T13:55:09Z</time>
      </trkpt>
      <trkpt lat="44.99039" lon="3.68115">
        <ele>887.91</ele>
        <time>2018-04-21T13:55:37Z</time>
      </trkpt>
      <trkpt lat="44.99036" lon="3.68117">
        <ele>889.36</ele>
        <time>2018-04-21T13:56:05Z</time>
      </trkpt>
      <trkpt lat="44.9904" lon="3.6811">
        <ele>883.11</ele>
        <time>2018-04-21T13:56:33Z</time>
      </trkpt>
      <trkpt lat="44.99044" lon="3.68111">
        <ele>885.51</ele>
        <time>2018-04-21T13:57:04Z</time>
      </trkpt>
      <trkpt lat="44.99032" lon="3.68085">
        <ele>881.19</ele>
        <time>2018-04-21T13:57:21Z</time>
      </trkpt>
      <trkpt lat="44.99023" lon="3.68065">
        <ele>879.74</ele>
        <time>2018-04-21T13:57:42Z</time>
      </trkpt>
      <trkpt lat="44.99008" lon="3.68051">
        <ele>878.78</ele>
        <time>2018-04-21T13:58:00Z</time>
      </trkpt>
      <trkpt lat="44.99006" lon="3.68054">
        <ele>878.3</ele>
        <time>2018-04-21T13:58:13Z</time>
      </trkpt>
      <trkpt lat="44.99008" lon="3.68045">
        <ele>878.3</ele>
        <time>2018-04-21T13:58:17Z</time>
      </trkpt>
      <trkpt lat="44.99008" lon="3.68022">
        <ele>877.82</ele>
        <time>2018-04-21T13:58:30Z</time>
      </trkpt>
      <trkpt lat="44.98993" lon="3.68013">
        <ele>877.34</ele>
        <time>2018-04-21T13:58:41Z</time>
      </trkpt>
      <trkpt lat="44.98965" lon="3.67997">
        <ele>879.26</ele>
        <time>2018-04-21T13:59:02Z</time>
      </trkpt>
      <trkpt lat="44.98945" lon="3.67976">
        <ele>878.78</ele>
        <time>2018-04-21T13:59:21Z</time>
      </trkpt>
      <trkpt lat="44.98945" lon="3.67956">
        <ele>874.94</ele>
        <time>2018-04-21T13:59:37Z</time>
      </trkpt>
      <trkpt lat="44.98948" lon="3.67944">
        <ele>875.42</ele>
        <time>2018-04-21T13:59:52Z</time>
      </trkpt>
      <trkpt lat="44.98944" lon="3.6793">
        <ele>876.38</ele>
        <time>2018-04-21T14:00:07Z</time>
      </trkpt>
      <trkpt lat="44.98948" lon="3.67923">
        <ele>876.86</ele>
        <time>2018-04-21T14:00:25Z</time>
      </trkpt>
      <trkpt lat="44.98959" lon="3.67927">
        <ele>877.82</ele>
        <time>2018-04-21T14:00:39Z</time>
      </trkpt>
      <trkpt lat="44.98954" lon="3.67935">
        <ele>880.22</ele>
        <time>2018-04-21T14:00:53Z</time>
      </trkpt>
      <trkpt lat="44.98954" lon="3.67935">
        <ele>882.15</ele>
        <time>2018-04-21T14:01:13Z</time>
      </trkpt>
      <trkpt lat="44.98942" lon="3.67927">
        <ele>883.11</ele>
        <time>2018-04-21T14:01:32Z</time>
      </trkpt>
      <trkpt lat="44.98943" lon="3.67935">
        <ele>887.91</ele>
        <time>2018-04-21T14:02:19Z</time>
      </trkpt>
      <trkpt lat="44.98944" lon="3.67937">
        <ele>891.28</ele>
        <time>2018-04-21T14:02:36Z</time>
      </trkpt>
      <trkpt lat="44.98943" lon="3.67947">
        <ele>888.88</ele>
        <time>2018-04-21T14:02:49Z</time>
      </trkpt>
      <trkpt lat="44.98946" lon="3.67945">
        <ele>884.55</ele>
        <time>2018-04-21T14:03:03Z</time>
      </trkpt>
      <trkpt lat="44.98947" lon="3.67945">
        <ele>882.63</ele>
        <time>2018-04-21T14:03:17Z</time>
      </trkpt>
      <trkpt lat="44.98954" lon="3.67927">
        <ele>878.78</ele>
        <time>2018-04-21T14:03:38Z</time>
      </trkpt>
      <trkpt lat="44.98955" lon="3.67922">
        <ele>883.11</ele>
        <time>2018-04-21T14:03:56Z</time>
      </trkpt>
      <trkpt lat="44.98958" lon="3.67919">
        <ele>889.84</ele>
        <time>2018-04-21T14:04:18Z</time>
      </trkpt>
      <trkpt lat="44.98953" lon="3.6791">
        <ele>893.68</ele>
        <time>2018-04-21T14:04:46Z</time>
      </trkpt>
      <trkpt lat="44.98957" lon="3.67916">
        <ele>893.68</ele>
        <time>2018-04-21T14:05:10Z</time>
      </trkpt>
      <trkpt lat="44.98943" lon="3.67943">
        <ele>885.51</ele>
        <time>2018-04-21T14:05:29Z</time>
      </trkpt>
      <trkpt lat="44.98956" lon="3.67947">
        <ele>887.43</ele>
        <time>2018-04-21T14:05:46Z</time>
      </trkpt>
      <trkpt lat="44.98962" lon="3.67937">
        <ele>889.84</ele>
        <time>2018-04-21T14:06:05Z</time>
      </trkpt>
      <trkpt lat="44.98948" lon="3.67932">
        <ele>886.95</ele>
        <time>2018-04-21T14:23:42Z</time>
      </trkpt>
      <trkpt lat="44.98951" lon="3.67936">
        <ele>888.4</ele>
        <time>2018-04-21T14:24:14Z</time>
      </trkpt>
      <trkpt lat="44.98955" lon="3.6794">
        <ele>890.8</ele>
        <time>2018-04-21T14:24:46Z</time>
      </trkpt>
      <trkpt lat="44.98953" lon="3.67936">
        <ele>891.28</ele>
        <time>2018-04-21T14:25:16Z</time>
      </trkpt>
      <trkpt lat="44.98951" lon="3.67936">
        <ele>887.43</ele>
        <time>2018-04-21T14:25:42Z</time>
      </trkpt>
      <trkpt lat="44.98945" lon="3.67931">
        <ele>879.74</ele>
        <time>2018-04-21T14:26:09Z</time>
      </trkpt>
      <trkpt lat="44.98945" lon="3.67928">
        <ele>883.11</ele>
        <time>2018-04-21T14:26:44Z</time>
      </trkpt>
      <trkpt lat="44.98951" lon="3.6793">
        <ele>890.8</ele>
        <time>2018-04-21T14:27:07Z</time>
      </trkpt>
      <trkpt lat="44.98954" lon="3.67929">
        <ele>901.85</ele>
        <time>2018-04-21T14:27:37Z</time>
      </trkpt>
      <trkpt lat="44.98946" lon="3.67915">
        <ele>907.14</ele>
        <time>2018-04-21T14:28:05Z</time>
      </trkpt>
      <trkpt lat="44.98939" lon="3.67909">
        <ele>906.66</ele>
        <time>2018-04-21T14:28:34Z</time>
      </trkpt>
      <trkpt lat="44.98952" lon="3.67932">
        <ele>901.85</ele>
        <time>2018-04-21T14:29:02Z</time>
      </trkpt>
      <trkpt lat="44.98949" lon="3.67926">
        <ele>900.41</ele>
        <time>2018-04-21T14:29:33Z</time>
      </trkpt>
      <trkpt lat="44.98949" lon="3.67927">
        <ele>901.37</ele>
        <time>2018-04-21T14:30:03Z</time>
      </trkpt>
      <trkpt lat="44.9895" lon="3.67932">
        <ele>901.37</ele>
        <time>2018-04-21T14:30:32Z</time>
      </trkpt>
      <trkpt lat="44.98947" lon="3.67939">
        <ele>900.89</ele>
        <time>2018-04-21T14:30:53Z</time>
      </trkpt>
      <trkpt lat="44.98946" lon="3.6795">
        <ele>900.89</ele>
        <time>2018-04-21T14:31:16Z</time>
      </trkpt>
      <trkpt lat="44.9895" lon="3.67932">
        <ele>898.01</ele>
        <time>2018-04-21T14:31:39Z</time>
      </trkpt>
      <trkpt lat="44.98955" lon="3.67936">
        <ele>895.12</ele>
        <time>2018-04-21T14:32:05Z</time>
      </trkpt>
      <trkpt lat="44.98957" lon="3.67934">
        <ele>896.57</ele>
        <time>2018-04-21T14:32:30Z</time>
      </trkpt>
      <trkpt lat="44.98949" lon="3.67933">
        <ele>897.05</ele>
        <time>2018-04-21T14:32:55Z</time>
      </trkpt>
      <trkpt lat="44.98954" lon="3.67931">
        <ele>895.61</ele>
        <time>2018-04-21T14:33:24Z</time>
      </trkpt>
      <trkpt lat="44.98958" lon="3.67933">
        <ele>891.76</ele>
        <time>2018-04-21T14:33:43Z</time>
      </trkpt>
      <trkpt lat="44.98958" lon="3.67933">
        <ele>889.36</ele>
        <time>2018-04-21T14:34:15Z</time>
      </trkpt>
      <trkpt lat="44.9896" lon="3.67934">
        <ele>884.07</ele>
        <time>2018-04-21T14:34:48Z</time>
      </trkpt>
      <trkpt lat="44.98965" lon="3.67938">
        <ele>883.11</ele>
        <time>2018-04-21T14:35:13Z</time>
      </trkpt>
      <trkpt lat="44.98968" lon="3.67933">
        <ele>883.59</ele>
        <time>2018-04-21T14:35:34Z</time>
      </trkpt>
      <trkpt lat="44.98962" lon="3.67933">
        <ele>887.43</ele>
        <time>2018-04-21T14:36:02Z</time>
      </trkpt>
      <trkpt lat="44.98965" lon="3.67929">
        <ele>884.07</ele>
        <time>2018-04-21T14:36:25Z</time>
      </trkpt>
      <trkpt lat="44.98969" lon="3.67928">
        <ele>883.59</ele>
        <time>2018-04-21T14:36:43Z</time>
      </trkpt>
      <trkpt lat="44.98977" lon="3.67942">
        <ele>884.07</ele>
        <time>2018-04-21T14:37:01Z</time>
      </trkpt>
      <trkpt lat="44.98966" lon="3.67938">
        <ele>887.91</ele>
        <time>2018-04-21T14:37:21Z</time>
      </trkpt>
      <trkpt lat="44.98963" lon="3.67936">
        <ele>884.55</ele>
        <time>2018-04-21T14:37:44Z</time>
      </trkpt>
      <trkpt lat="44.98966" lon="3.67933">
        <ele>885.03</ele>
        <time>2018-04-21T14:38:33Z</time>
      </trkpt>
      <trkpt lat="44.98972" lon="3.67923">
        <ele>883.11</ele>
        <time>2018-04-21T14:39:07Z</time>
      </trkpt>
      <trkpt lat="44.9897" lon="3.6793">
        <ele>882.63</ele>
        <time>2018-04-21T14:39:30Z</time>
      </trkpt>
      <trkpt lat="44.98957" lon="3.67932">
        <ele>888.4</ele>
        <time>2018-04-21T14:40:00Z</time>
      </trkpt>
      <trkpt lat="44.98959" lon="3.67934">
        <ele>887.91</ele>
        <time>2018-04-21T14:40:25Z</time>
      </trkpt>
      <trkpt lat="44.9897" lon="3.67936">
        <ele>888.88</ele>
        <time>2018-04-21T16:21:50Z</time>
      </trkpt>
      <trkpt lat="44.98966" lon="3.67938">
        <ele>892.24</ele>
        <time>2018-04-21T16:22:21Z</time>
      </trkpt>
      <trkpt lat="44.98963" lon="3.67941">
        <ele>895.12</ele>
        <time>2018-04-21T16:22:50Z</time>
      </trkpt>
      <trkpt lat="44.9896" lon="3.6794">
        <ele>895.12</ele>
        <time>2018-04-21T16:23:22Z</time>
      </trkpt>
      <trkpt lat="44.98957" lon="3.67946">
        <ele>891.28</ele>
        <time>2018-04-21T16:23:50Z</time>
      </trkpt>
      <trkpt lat="44.98957" lon="3.67948">
        <ele>891.28</ele>
        <time>2018-04-21T16:23:51Z</time>
      </trkpt>
      <trkpt lat="44.98956" lon="3.67961">
        <ele>887.43</ele>
        <time>2018-04-21T16:24:19Z</time>
      </trkpt>
      <trkpt lat="44.98956" lon="3.67948">
        <ele>885.03</ele>
        <time>2018-04-21T16:24:46Z</time>
      </trkpt>
      <trkpt lat="44.98985" lon="3.67905">
        <ele>884.55</ele>
        <time>2018-04-22T04:36:46Z</time>
      </trkpt>
      <trkpt lat="44.98976" lon="3.67907">
        <ele>884.55</ele>
        <time>2018-04-22T04:37:12Z</time>
      </trkpt>
      <trkpt lat="44.98975" lon="3.67931">
        <ele>884.55</ele>
        <time>2018-04-22T04:37:36Z</time>
      </trkpt>
      <trkpt lat="44.98966" lon="3.67932">
        <ele>885.51</ele>
        <time>2018-04-22T04:43:05Z</time>
      </trkpt>
      <trkpt lat="44.98963" lon="3.6793">
        <ele>886.47</ele>
        <time>2018-04-22T04:43:33Z</time>
      </trkpt>
    </trkseg>
  </trk>
</gpx>